PWSweather.com
Personal Weather Stations
Station Observations
WHAKATANE1
Whakatane, WhakataneNZ

WhakataneWhakataneNZ

Lat: -37.960954, Lon: 176.9768

Elevation: 10

Station Type: Lacrosse

Latest ConditionsUpdated 10:38:00 PM GMT+12:12 Sunday, Dec 21, 2014
Currently Today's Max Today's Min Today's Average
Temperature 63.5°F17.5°C 83.3°F28.5°C 62.6°F17.0°C 70.1°F21.2°C
Dew Point 63.2°F17.3°C 76.3°F24.6°C 62.3°F16.8°C 65.4°F18.6°C
Winds 0.8 mph NNW1.3 kmh NNW 26.9 mph SE43.3 kmh SE - 5.5 mph 8.9 kmh
Wind Gusts 1.6 mph2.6 kmh 38.7 mph62.3 kmh - -
Humidity 99% 99% 60% 87%
Pressure 29.07 in984.4 mb 29.07 in984.4 mb 28.95 in980.4 mb -
Precipitation - 0.08 in2.0 mm - -
Hour Temp Dew Point Humidity Winds Wind Gusts Pressure Precip Precip Rate Daily Precip Total
10:38 PM 63.5°F17.5°C 63.2°F17.3°C 99% 0.8 mph NNW1.3 kmh NNW 1.6 mph2.6 kmh 29.07 in984.4 mb 0.00 in0.0 mm 0.00 in/hr0.0 mm/hr 0.08 in2.0 mm
10:37 PM 63.5°F17.5°C 63.2°F17.3°C 99% 0.8 mph NW1.3 kmh NW 1.6 mph2.6 kmh 29.07 in984.4 mb 0.00 in0.0 mm 0.00 in/hr0.0 mm/hr 0.08 in2.0 mm
10:36 PM 63.5°F17.5°C 63.2°F17.3°C 99% 0.8 mph NW1.3 kmh NW 1.6 mph2.6 kmh 29.07 in984.4 mb 0.00 in0.0 mm 0.00 in/hr0.0 mm/hr 0.08 in2.0 mm
10:35 PM 63.5°F17.5°C 63.2°F17.3°C 99% 0.8 mph NW1.3 kmh NW 1.6 mph2.6 kmh 29.07 in984.4 mb 0.00 in0.0 mm 0.00 in/hr0.0 mm/hr 0.08 in2.0 mm
10:34 PM 63.7°F17.6°C 63.4°F17.4°C 99% 0.7 mph WNW1.1 kmh WNW 1.6 mph2.6 kmh 29.07 in984.4 mb 0.00 in0.0 mm 0.00 in/hr0.0 mm/hr 0.08 in2.0 mm
10:33 PM 63.7°F17.6°C 63.4°F17.4°C 99% 0.5 mph W0.8 kmh W 1.6 mph2.6 kmh 29.07 in984.4 mb 0.00 in0.0 mm 0.00 in/hr0.0 mm/hr 0.08 in2.0 mm
10:32 PM 63.7°F17.6°C 63.4°F17.4°C 99% 0.4 mph W0.6 kmh W 0.7 mph1.1 kmh 29.07 in984.4 mb 0.00 in0.0 mm 0.00 in/hr0.0 mm/hr 0.08 in2.0 mm
10:31 PM 63.7°F17.6°C 63.4°F17.4°C 99% 0.4 mph W0.6 kmh W 0.7 mph1.1 kmh 29.07 in984.4 mb 0.00 in0.0 mm 0.00 in/hr0.0 mm/hr 0.08 in2.0 mm
10:30 PM 63.7°F17.6°C 63.4°F17.4°C 99% 0.3 mph W0.5 kmh W 0.7 mph1.1 kmh 29.07 in984.4 mb 0.00 in0.0 mm 0.00 in/hr0.0 mm/hr 0.08 in2.0 mm
10:29 PM 63.7°F17.6°C 63.4°F17.4°C 99% 0.3 mph W0.5 kmh W 0.7 mph1.1 kmh 29.07 in984.4 mb 0.00 in0.0 mm 0.00 in/hr0.0 mm/hr 0.08 in2.0 mm
10:28 PM 63.7°F17.6°C 63.4°F17.4°C 99% 0.3 mph W0.5 kmh W 0.7 mph1.1 kmh 29.07 in984.4 mb 0.00 in0.0 mm 0.00 in/hr0.0 mm/hr 0.08 in2.0 mm
10:27 PM 63.7°F17.6°C 63.4°F17.4°C 99% 0.3 mph W0.5 kmh W 0.7 mph1.1 kmh 29.07 in984.4 mb 0.00 in0.0 mm 0.00 in/hr0.0 mm/hr 0.08 in2.0 mm
10:26 PM 63.7°F17.6°C 63.4°F17.4°C 99% 0.3 mph W0.5 kmh W 0.7 mph1.1 kmh 29.07 in984.4 mb 0.00 in0.0 mm 0.00 in/hr0.0 mm/hr 0.08 in2.0 mm
10:25 PM 63.7°F17.6°C 63.4°F17.4°C 99% 0.2 mph W0.3 kmh W 0.7 mph1.1 kmh 29.07 in984.4 mb 0.00 in0.0 mm 0.00 in/hr0.0 mm/hr 0.08 in2.0 mm
10:24 PM 63.7°F17.6°C 63.4°F17.4°C 99% 0.2 mph W0.3 kmh W 0.7 mph1.1 kmh 29.07 in984.4 mb 0.00 in0.0 mm 0.00 in/hr0.0 mm/hr 0.08 in2.0 mm
10:23 PM 63.7°F17.6°C 63.4°F17.4°C 99% 0.3 mph W0.5 kmh W 1.6 mph2.6 kmh 29.07 in984.4 mb 0.00 in0.0 mm 0.00 in/hr0.0 mm/hr 0.08 in2.0 mm
10:22 PM 63.7°F17.6°C 63.4°F17.4°C 99% 0.4 mph W0.6 kmh W 1.6 mph2.6 kmh 29.07 in984.4 mb 0.00 in0.0 mm 0.00 in/hr0.0 mm/hr 0.08 in2.0 mm
10:21 PM 63.7°F17.6°C 63.4°F17.4°C 99% 0.6 mph W1.0 kmh W 1.6 mph2.6 kmh 29.07 in984.4 mb 0.00 in0.0 mm 0.00 in/hr0.0 mm/hr 0.08 in2.0 mm
10:20 PM 63.7°F17.6°C 63.4°F17.4°C 99% 0.7 mph W1.1 kmh W 1.6 mph2.6 kmh 29.07 in984.4 mb 0.00 in0.0 mm 0.00 in/hr0.0 mm/hr 0.08 in2.0 mm
10:19 PM 63.7°F17.6°C 63.4°F17.4°C 99% 0.7 mph W1.1 kmh W 1.6 mph2.6 kmh 29.07 in984.4 mb 0.00 in0.0 mm 0.00 in/hr0.0 mm/hr 0.08 in2.0 mm
10:18 PM 63.7°F17.6°C 63.4°F17.4°C 99% 0.7 mph W1.1 kmh W 1.6 mph2.6 kmh 29.07 in984.4 mb 0.00 in0.0 mm 0.00 in/hr0.0 mm/hr 0.08 in2.0 mm
10:17 PM 63.7°F17.6°C 63.4°F17.4°C 99% 0.8 mph W1.3 kmh W 1.6 mph2.6 kmh 29.07 in984.4 mb 0.00 in0.0 mm 0.00 in/hr0.0 mm/hr 0.08 in2.0 mm
10:16 PM 63.7°F17.6°C 63.4°F17.4°C 99% 0.9 mph W1.4 kmh W 1.6 mph2.6 kmh 29.07 in984.4 mb 0.00 in0.0 mm 0.00 in/hr0.0 mm/hr 0.08 in2.0 mm
10:15 PM 63.7°F17.6°C 63.4°F17.4°C 99% 0.9 mph W1.4 kmh W 1.6 mph2.6 kmh 29.07 in984.4 mb 0.00 in0.0 mm 0.00 in/hr0.0 mm/hr 0.08 in2.0 mm
10:14 PM 63.7°F17.6°C 63.4°F17.4°C 99% 0.8 mph W1.3 kmh W 1.6 mph2.6 kmh 29.07 in984.4 mb 0.00 in0.0 mm 0.00 in/hr0.0 mm/hr 0.08 in2.0 mm
10:13 PM 63.7°F17.6°C 63.4°F17.4°C 99% 0.7 mph W1.1 kmh W 1.6 mph2.6 kmh 29.06 in984.1 mb 0.00 in0.0 mm 0.00 in/hr0.0 mm/hr 0.08 in2.0 mm
10:12 PM 63.7°F17.6°C 63.4°F17.4°C 99% 0.6 mph W1.0 kmh W 1.6 mph2.6 kmh 29.07 in984.4 mb 0.00 in0.0 mm 0.00 in/hr0.0 mm/hr 0.08 in2.0 mm
10:11 PM 63.7°F17.6°C 63.4°F17.4°C 99% 0.5 mph W0.8 kmh W 1.6 mph2.6 kmh 29.07 in984.4 mb 0.00 in0.0 mm 0.00 in/hr0.0 mm/hr 0.08 in2.0 mm
10:10 PM 63.7°F17.6°C 63.4°F17.4°C 99% 0.4 mph W0.6 kmh W 1.6 mph2.6 kmh 29.07 in984.4 mb 0.00 in0.0 mm 0.00 in/hr0.0 mm/hr 0.08 in2.0 mm
10:09 PM 63.7°F17.6°C 63.4°F17.4°C 99% 0.4 mph WSW0.6 kmh WSW 1.6 mph2.6 kmh 29.07 in984.4 mb 0.00 in0.0 mm 0.00 in/hr0.0 mm/hr 0.08 in2.0 mm
10:08 PM 63.7°F17.6°C 63.4°F17.4°C 99% 0.5 mph SW0.8 kmh SW 1.6 mph2.6 kmh 29.07 in984.4 mb 0.00 in0.0 mm 0.00 in/hr0.0 mm/hr 0.08 in2.0 mm
10:07 PM 63.7°F17.6°C 63.4°F17.4°C 99% 0.5 mph S0.8 kmh S 1.6 mph2.6 kmh 29.06 in984.1 mb 0.00 in0.0 mm 0.00 in/hr0.0 mm/hr 0.08 in2.0 mm
10:06 PM 63.7°F17.6°C 63.4°F17.4°C 99% 0.4 mph S0.6 kmh S 1.6 mph2.6 kmh 29.07 in984.4 mb 0.00 in0.0 mm 0.00 in/hr0.0 mm/hr 0.08 in2.0 mm
10:05 PM 63.7°F17.6°C 63.4°F17.4°C 99% 0.4 mph S0.6 kmh S 1.6 mph2.6 kmh 29.07 in984.4 mb 0.00 in0.0 mm 0.00 in/hr0.0 mm/hr 0.08 in2.0 mm
10:04 PM 63.7°F17.6°C 63.4°F17.4°C 99% 0.4 mph S0.6 kmh S 1.6 mph2.6 kmh 29.06 in984.1 mb 0.00 in0.0 mm 0.00 in/hr0.0 mm/hr 0.08 in2.0 mm
10:03 PM 63.7°F17.6°C 63.4°F17.4°C 99% 0.5 mph S0.8 kmh S 1.6 mph2.6 kmh 29.06 in984.1 mb 0.00 in0.0 mm 0.00 in/hr0.0 mm/hr 0.08 in2.0 mm
10:02 PM 63.7°F17.6°C 63.4°F17.4°C 99% 0.6 mph S1.0 kmh S 1.6 mph2.6 kmh 29.06 in984.1 mb 0.00 in0.0 mm 0.00 in/hr0.0 mm/hr 0.08 in2.0 mm
10:01 PM 63.7°F17.6°C 63.4°F17.4°C 99% 0.6 mph S1.0 kmh S 1.6 mph2.6 kmh 29.06 in984.1 mb 0.00 in0.0 mm 0.00 in/hr0.0 mm/hr 0.08 in2.0 mm
10:00 PM 63.7°F17.6°C 63.4°F17.4°C 99% 0.5 mph S0.8 kmh S 1.6 mph2.6 kmh 29.06 in984.1 mb 0.00 in0.0 mm 0.00 in/hr0.0 mm/hr 0.08 in2.0 mm
09:59 PM 63.9°F17.7°C 63.6°F17.6°C 99% 0.5 mph S0.8 kmh S 1.6 mph2.6 kmh 29.06 in984.1 mb 0.00 in0.0 mm 0.00 in/hr0.0 mm/hr 0.08 in2.0 mm
09:58 PM 63.9°F17.7°C 63.6°F17.6°C 99% 0.4 mph SSE0.6 kmh SSE 1.6 mph2.6 kmh 29.06 in984.1 mb 0.00 in0.0 mm 0.00 in/hr0.0 mm/hr 0.08 in2.0 mm
09:57 PM 63.9°F17.7°C 63.6°F17.6°C 99% 0.3 mph SSE0.5 kmh SSE 1.6 mph2.6 kmh 29.06 in984.1 mb 0.00 in0.0 mm 0.00 in/hr0.0 mm/hr 0.08 in2.0 mm
09:56 PM 63.9°F17.7°C 63.6°F17.6°C 99% 0.3 mph SSE0.5 kmh SSE 0.7 mph1.1 kmh 29.06 in984.1 mb 0.00 in0.0 mm 0.00 in/hr0.0 mm/hr 0.08 in2.0 mm
09:55 PM 63.9°F17.7°C 63.6°F17.6°C 99% 0.3 mph SSE0.5 kmh SSE 0.7 mph1.1 kmh 29.06 in984.1 mb 0.00 in0.0 mm 0.00 in/hr0.0 mm/hr 0.08 in2.0 mm
09:54 PM 64.0°F17.8°C 63.8°F17.7°C 99% 0.3 mph SSE0.5 kmh SSE 0.7 mph1.1 kmh 29.06 in984.1 mb 0.00 in0.0 mm 0.00 in/hr0.0 mm/hr 0.08 in2.0 mm
09:53 PM 64.0°F17.8°C 63.8°F17.7°C 99% 0.4 mph SE0.6 kmh SE 1.6 mph2.6 kmh 29.06 in984.1 mb 0.00 in0.0 mm 0.00 in/hr0.0 mm/hr 0.08 in2.0 mm
09:52 PM 64.0°F17.8°C 63.8°F17.7°C 99% 0.4 mph SE0.6 kmh SE 1.6 mph2.6 kmh 29.06 in984.1 mb 0.00 in0.0 mm 0.00 in/hr0.0 mm/hr 0.08 in2.0 mm
09:51 PM 64.0°F17.8°C 63.8°F17.7°C 99% 0.5 mph SE0.8 kmh SE 1.6 mph2.6 kmh 29.06 in984.1 mb 0.00 in0.0 mm 0.00 in/hr0.0 mm/hr 0.08 in2.0 mm
09:50 PM 64.2°F17.9°C 64.0°F17.8°C 99% 0.6 mph SE1.0 kmh SE 1.6 mph2.6 kmh 29.06 in984.1 mb 0.00 in0.0 mm 0.00 in/hr0.0 mm/hr 0.08 in2.0 mm
09:49 PM 64.2°F17.9°C 64.0°F17.8°C 99% 0.5 mph SE0.8 kmh SE 1.6 mph2.6 kmh 29.06 in984.1 mb 0.00 in0.0 mm 0.00 in/hr0.0 mm/hr 0.08 in2.0 mm
09:48 PM 64.2°F17.9°C 64.0°F17.8°C 99% 0.6 mph SE1.0 kmh SE 1.6 mph2.6 kmh 29.06 in984.1 mb 0.00 in0.0 mm 0.00 in/hr0.0 mm/hr 0.08 in2.0 mm
09:47 PM 64.4°F18.0°C 64.1°F17.8°C 99% 0.7 mph SE1.1 kmh SE 1.6 mph2.6 kmh 29.06 in984.1 mb 0.00 in0.0 mm 0.00 in/hr0.0 mm/hr 0.08 in2.0 mm
09:46 PM 64.4°F18.0°C 64.1°F17.8°C 99% 0.9 mph SSE1.4 kmh SSE 2.2 mph3.5 kmh 29.05 in983.7 mb 0.00 in0.0 mm 0.00 in/hr0.0 mm/hr 0.08 in2.0 mm
09:45 PM 64.4°F18.0°C 64.1°F17.8°C 99% 1.2 mph SSE1.9 kmh SSE 2.2 mph3.5 kmh 29.06 in984.1 mb 0.00 in0.0 mm 0.00 in/hr0.0 mm/hr 0.08 in2.0 mm
09:44 PM 64.4°F18.0°C 64.1°F17.8°C 99% 1.3 mph SSE2.1 kmh SSE 2.2 mph3.5 kmh 29.06 in984.1 mb 0.00 in0.0 mm 0.00 in/hr0.0 mm/hr 0.08 in2.0 mm
09:43 PM 64.6°F18.1°C 64.3°F17.9°C 99% 1.5 mph S2.4 kmh S 2.2 mph3.5 kmh 29.05 in983.7 mb 0.00 in0.0 mm 0.00 in/hr0.0 mm/hr 0.08 in2.0 mm
09:42 PM 64.6°F18.1°C 64.3°F17.9°C 99% 1.5 mph S2.4 kmh S 2.2 mph3.5 kmh 29.05 in983.7 mb 0.00 in0.0 mm 0.00 in/hr0.0 mm/hr 0.08 in2.0 mm
09:41 PM 64.6°F18.1°C 64.3°F17.9°C 99% 1.7 mph S2.7 kmh S 2.2 mph3.5 kmh 29.05 in983.7 mb 0.00 in0.0 mm 0.00 in/hr0.0 mm/hr 0.08 in2.0 mm
09:40 PM 64.6°F18.1°C 64.3°F17.9°C 99% 1.8 mph S2.9 kmh S 2.2 mph3.5 kmh 29.05 in983.7 mb 0.00 in0.0 mm 0.00 in/hr0.0 mm/hr 0.08 in2.0 mm
09:39 PM 64.8°F18.2°C 64.5°F18.1°C 99% 1.9 mph S3.1 kmh S 2.2 mph3.5 kmh 29.05 in983.7 mb 0.00 in0.0 mm 0.00 in/hr0.0 mm/hr 0.08 in2.0 mm
09:38 PM 64.8°F18.2°C 64.5°F18.1°C 99% 1.9 mph S3.1 kmh S 2.2 mph3.5 kmh 29.05 in983.7 mb 0.00 in0.0 mm 0.00 in/hr0.0 mm/hr 0.08 in2.0 mm
09:37 PM 64.8°F18.2°C 64.5°F18.1°C 99% 2.0 mph S3.2 kmh S 2.2 mph3.5 kmh 29.05 in983.7 mb 0.00 in0.0 mm 0.00 in/hr0.0 mm/hr 0.08 in2.0 mm
09:36 PM 64.8°F18.2°C 64.2°F17.9°C 98% 2.0 mph SSW3.2 kmh SSW 2.2 mph3.5 kmh 29.05 in983.7 mb 0.00 in0.0 mm 0.00 in/hr0.0 mm/hr 0.08 in2.0 mm
09:35 PM 64.9°F18.3°C 64.4°F18.0°C 98% 1.9 mph SSW3.1 kmh SSW 2.2 mph3.5 kmh 29.05 in983.7 mb 0.00 in0.0 mm 0.00 in/hr0.0 mm/hr 0.08 in2.0 mm
09:34 PM 64.9°F18.3°C 64.4°F18.0°C 98% 1.9 mph SSW3.1 kmh SSW 2.2 mph3.5 kmh 29.05 in983.7 mb 0.00 in0.0 mm 0.00 in/hr0.0 mm/hr 0.08 in2.0 mm
09:33 PM 64.9°F18.3°C 64.4°F18.0°C 98% 1.9 mph SSW3.1 kmh SSW 3.1 mph5.0 kmh 29.05 in983.7 mb 0.00 in0.0 mm 0.00 in/hr0.0 mm/hr 0.08 in2.0 mm
09:32 PM 64.9°F18.3°C 64.4°F18.0°C 98% 1.9 mph SSW3.1 kmh SSW 3.1 mph5.0 kmh 29.05 in983.7 mb 0.00 in0.0 mm 0.00 in/hr0.0 mm/hr 0.08 in2.0 mm
09:31 PM 64.9°F18.3°C 64.4°F18.0°C 98% 1.8 mph SW2.9 kmh SW 3.1 mph5.0 kmh 29.05 in983.7 mb 0.00 in0.0 mm 0.00 in/hr0.0 mm/hr 0.08 in2.0 mm
09:30 PM 65.1°F18.4°C 64.6°F18.1°C 98% 1.7 mph SW2.7 kmh SW 3.1 mph5.0 kmh 29.05 in983.7 mb 0.00 in0.0 mm 0.00 in/hr0.0 mm/hr 0.08 in2.0 mm
09:29 PM 65.1°F18.4°C 64.6°F18.1°C 98% 1.7 mph SW2.7 kmh SW 3.1 mph5.0 kmh 29.05 in983.7 mb 0.00 in0.0 mm 0.00 in/hr0.0 mm/hr 0.08 in2.0 mm
09:28 PM 65.1°F18.4°C 64.6°F18.1°C 98% 1.6 mph SW2.6 kmh SW 3.1 mph5.0 kmh 29.05 in983.7 mb 0.00 in0.0 mm 0.00 in/hr0.0 mm/hr 0.08 in2.0 mm
09:27 PM 65.1°F18.4°C 64.3°F17.9°C 97% 1.6 mph SW2.6 kmh SW 3.1 mph5.0 kmh 29.05 in983.7 mb 0.00 in0.0 mm 0.00 in/hr0.0 mm/hr 0.08 in2.0 mm
09:26 PM 65.1°F18.4°C 64.3°F17.9°C 97% 1.5 mph SW2.4 kmh SW 3.1 mph5.0 kmh 29.05 in983.7 mb 0.00 in0.0 mm 0.00 in/hr0.0 mm/hr 0.08 in2.0 mm
09:25 PM 65.1°F18.4°C 64.3°F17.9°C 97% 1.4 mph SW2.3 kmh SW 3.1 mph5.0 kmh 29.05 in983.7 mb 0.00 in0.0 mm 0.00 in/hr0.0 mm/hr 0.08 in2.0 mm
09:24 PM 65.3°F18.5°C 64.5°F18.1°C 97% 1.3 mph SSW2.1 kmh SSW 3.1 mph5.0 kmh 29.05 in983.7 mb 0.00 in0.0 mm 0.00 in/hr0.0 mm/hr 0.08 in2.0 mm
09:23 PM 65.3°F18.5°C 64.5°F18.1°C 97% 1.3 mph SSW2.1 kmh SSW 3.1 mph5.0 kmh 29.05 in983.7 mb 0.00 in0.0 mm 0.00 in/hr0.0 mm/hr 0.08 in2.0 mm
09:22 PM 65.3°F18.5°C 64.5°F18.1°C 97% 1.3 mph SSW2.1 kmh SSW 3.1 mph5.0 kmh 29.05 in983.7 mb 0.00 in0.0 mm 0.00 in/hr0.0 mm/hr 0.08 in2.0 mm
09:21 PM 65.5°F18.6°C 64.6°F18.1°C 97% 1.4 mph S2.3 kmh S 3.1 mph5.0 kmh 29.05 in983.7 mb 0.00 in0.0 mm 0.00 in/hr0.0 mm/hr 0.08 in2.0 mm
09:20 PM 65.5°F18.6°C 64.6°F18.1°C 97% 1.6 mph S2.6 kmh S 3.1 mph5.0 kmh 29.05 in983.7 mb 0.00 in0.0 mm 0.00 in/hr0.0 mm/hr 0.08 in2.0 mm
09:19 PM 65.5°F18.6°C 64.6°F18.1°C 97% 1.8 mph SSW2.9 kmh SSW 3.1 mph5.0 kmh 29.05 in983.7 mb 0.00 in0.0 mm 0.00 in/hr0.0 mm/hr 0.08 in2.0 mm
09:18 PM 65.5°F18.6°C 64.6°F18.1°C 97% 1.9 mph SSW3.1 kmh SSW 3.1 mph5.0 kmh 29.05 in983.7 mb 0.00 in0.0 mm 0.00 in/hr0.0 mm/hr 0.08 in2.0 mm
09:17 PM 65.7°F18.7°C 64.8°F18.2°C 97% 2.0 mph SSW3.2 kmh SSW 3.1 mph5.0 kmh 29.05 in983.7 mb 0.00 in0.0 mm 0.00 in/hr0.0 mm/hr 0.08 in2.0 mm
09:16 PM 65.7°F18.7°C 64.8°F18.2°C 97% 2.1 mph SSW3.4 kmh SSW 3.1 mph5.0 kmh 29.05 in983.7 mb 0.00 in0.0 mm 0.00 in/hr0.0 mm/hr 0.08 in2.0 mm
09:15 PM 65.7°F18.7°C 64.8°F18.2°C 97% 2.2 mph SSW3.5 kmh SSW 3.1 mph5.0 kmh 29.04 in983.4 mb 0.00 in0.0 mm 0.00 in/hr0.0 mm/hr 0.08 in2.0 mm
09:14 PM 65.7°F18.7°C 64.8°F18.2°C 97% 2.2 mph SW3.5 kmh SW 3.1 mph5.0 kmh 29.04 in983.4 mb 0.00 in0.0 mm 0.00 in/hr0.0 mm/hr 0.08 in2.0 mm
09:13 PM 65.7°F18.7°C 64.5°F18.1°C 96% 2.0 mph SW3.2 kmh SW 3.1 mph5.0 kmh 29.04 in983.4 mb 0.00 in0.0 mm 0.00 in/hr0.0 mm/hr 0.08 in2.0 mm
09:12 PM 65.8°F18.8°C 64.7°F18.2°C 96% 2.0 mph SW3.2 kmh SW 3.1 mph5.0 kmh 29.04 in983.4 mb 0.00 in0.0 mm 0.00 in/hr0.0 mm/hr 0.08 in2.0 mm
09:11 PM 65.8°F18.8°C 64.7°F18.2°C 96% 1.9 mph SW3.1 kmh SW 3.1 mph5.0 kmh 29.04 in983.4 mb 0.00 in0.0 mm 0.00 in/hr0.0 mm/hr 0.08 in2.0 mm
09:10 PM 65.8°F18.8°C 64.7°F18.2°C 96% 2.0 mph SW3.2 kmh SW 3.1 mph5.0 kmh 29.04 in983.4 mb 0.00 in0.0 mm 0.00 in/hr0.0 mm/hr 0.08 in2.0 mm
09:09 PM 65.8°F18.8°C 64.7°F18.2°C 96% 1.9 mph SW3.1 kmh SW 3.1 mph5.0 kmh 29.04 in983.4 mb 0.00 in0.0 mm 0.00 in/hr0.0 mm/hr 0.08 in2.0 mm
09:08 PM 65.8°F18.8°C 64.7°F18.2°C 96% 1.9 mph SW3.1 kmh SW 3.1 mph5.0 kmh 29.04 in983.4 mb 0.00 in0.0 mm 0.00 in/hr0.0 mm/hr 0.08 in2.0 mm
09:07 PM 66.0°F18.9°C 64.9°F18.3°C 96% 1.8 mph SW2.9 kmh SW 2.2 mph3.5 kmh 29.04 in983.4 mb 0.00 in0.0 mm 0.00 in/hr0.0 mm/hr 0.08 in2.0 mm
09:06 PM 66.0°F18.9°C 64.9°F18.3°C 96% 1.8 mph SW2.9 kmh SW 2.2 mph3.5 kmh 29.04 in983.4 mb 0.00 in0.0 mm 0.00 in/hr0.0 mm/hr 0.08 in2.0 mm
09:05 PM 66.0°F18.9°C 64.9°F18.3°C 96% 1.7 mph SW2.7 kmh SW 2.2 mph3.5 kmh 29.03 in983.1 mb 0.00 in0.0 mm 0.00 in/hr0.0 mm/hr 0.08 in2.0 mm
09:04 PM 66.0°F18.9°C 64.9°F18.3°C 96% 1.7 mph SW2.7 kmh SW 2.2 mph3.5 kmh 29.03 in983.1 mb 0.00 in0.0 mm 0.00 in/hr0.0 mm/hr 0.08 in2.0 mm
09:03 PM 66.0°F18.9°C 64.9°F18.3°C 96% 1.6 mph SW2.6 kmh SW 2.2 mph3.5 kmh 29.04 in983.4 mb 0.00 in0.0 mm 0.00 in/hr0.0 mm/hr 0.08 in2.0 mm
09:02 PM 66.0°F18.9°C 64.9°F18.3°C 96% 1.6 mph SW2.6 kmh SW 2.2 mph3.5 kmh 29.03 in983.1 mb 0.00 in0.0 mm 0.00 in/hr0.0 mm/hr 0.08 in2.0 mm
09:01 PM 66.0°F18.9°C 64.9°F18.3°C 96% 1.6 mph SW2.6 kmh SW 2.2 mph3.5 kmh 29.03 in983.1 mb 0.00 in0.0 mm 0.00 in/hr0.0 mm/hr 0.08 in2.0 mm
09:00 PM 66.0°F18.9°C 64.9°F18.3°C 96% 1.6 mph SW2.6 kmh SW 2.2 mph3.5 kmh 29.03 in983.1 mb 0.00 in0.0 mm 0.00 in/hr0.0 mm/hr 0.08 in2.0 mm
08:59 PM 66.2°F19.0°C 65.1°F18.4°C 96% 1.5 mph SW2.4 kmh SW 2.2 mph3.5 kmh 29.04 in983.4 mb 0.00 in0.0 mm 0.00 in/hr0.0 mm/hr 0.08 in2.0 mm
08:58 PM 66.2°F19.0°C 65.1°F18.4°C 96% 1.4 mph SW2.3 kmh SW 2.2 mph3.5 kmh 29.03 in983.1 mb 0.00 in0.0 mm 0.00 in/hr0.0 mm/hr 0.08 in2.0 mm
08:57 PM 66.2°F19.0°C 65.1°F18.4°C 96% 1.4 mph SW2.3 kmh SW 2.2 mph3.5 kmh 29.03 in983.1 mb 0.00 in0.0 mm 0.00 in/hr0.0 mm/hr 0.08 in2.0 mm
08:56 PM 66.2°F19.0°C 65.1°F18.4°C 96% 1.4 mph SW2.3 kmh SW 2.2 mph3.5 kmh 29.03 in983.1 mb 0.00 in0.0 mm 0.00 in/hr0.0 mm/hr 0.08 in2.0 mm
08:55 PM 66.2°F19.0°C 65.1°F18.4°C 96% 1.5 mph SW2.4 kmh SW 2.2 mph3.5 kmh 29.03 in983.1 mb 0.00 in0.0 mm 0.00 in/hr0.0 mm/hr 0.08 in2.0 mm
08:54 PM 66.2°F19.0°C 65.1°F18.4°C 96% 1.5 mph SW2.4 kmh SW 2.2 mph3.5 kmh 29.03 in983.1 mb 0.00 in0.0 mm 0.00 in/hr0.0 mm/hr 0.08 in2.0 mm
08:53 PM 66.4°F19.1°C 65.2°F18.4°C 96% 1.5 mph SW2.4 kmh SW 2.2 mph3.5 kmh 29.03 in983.1 mb 0.00 in0.0 mm 0.00 in/hr0.0 mm/hr 0.08 in2.0 mm
08:52 PM 66.2°F19.0°C 65.1°F18.4°C 96% 1.5 mph SW2.4 kmh SW 2.2 mph3.5 kmh 29.03 in983.1 mb 0.00 in0.0 mm 0.00 in/hr0.0 mm/hr 0.08 in2.0 mm
08:51 PM 66.2°F19.0°C 65.1°F18.4°C 96% 1.5 mph SW2.4 kmh SW 1.6 mph2.6 kmh 29.03 in983.1 mb 0.00 in0.0 mm 0.00 in/hr0.0 mm/hr 0.08 in2.0 mm
08:50 PM 66.2°F19.0°C 65.1°F18.4°C 96% 1.5 mph SW2.4 kmh SW 2.2 mph3.5 kmh 29.03 in983.1 mb 0.00 in0.0 mm 0.00 in/hr0.0 mm/hr 0.08 in2.0 mm
08:49 PM 66.2°F19.0°C 65.1°F18.4°C 96% 1.6 mph SW2.6 kmh SW 2.2 mph3.5 kmh 29.03 in983.1 mb 0.00 in0.0 mm 0.00 in/hr0.0 mm/hr 0.08 in2.0 mm
08:48 PM 66.2°F19.0°C 64.8°F18.2°C 95% 1.7 mph SW2.7 kmh SW 2.2 mph3.5 kmh 29.03 in983.1 mb 0.00 in0.0 mm 0.00 in/hr0.0 mm/hr 0.08 in2.0 mm
08:47 PM 66.2°F19.0°C 65.1°F18.4°C 96% 1.7 mph SW2.7 kmh SW 2.2 mph3.5 kmh 29.03 in983.1 mb 0.00 in0.0 mm 0.00 in/hr0.0 mm/hr 0.08 in2.0 mm
08:46 PM 66.2°F19.0°C 65.1°F18.4°C 96% 1.5 mph SW2.4 kmh SW 2.2 mph3.5 kmh 29.03 in983.1 mb 0.00 in0.0 mm 0.00 in/hr0.0 mm/hr 0.08 in2.0 mm
08:45 PM 66.4°F19.1°C 64.9°F18.3°C 95% 1.5 mph SW2.4 kmh SW 2.2 mph3.5 kmh 29.03 in983.1 mb 0.00 in0.0 mm 0.00 in/hr0.0 mm/hr 0.08 in2.0 mm
08:44 PM 66.4°F19.1°C 64.9°F18.3°C 95% 1.4 mph SW2.3 kmh SW 2.2 mph3.5 kmh 29.03 in983.1 mb 0.00 in0.0 mm 0.00 in/hr0.0 mm/hr 0.08 in2.0 mm
08:43 PM 66.4°F19.1°C 64.9°F18.3°C 95% 1.4 mph SW2.3 kmh SW 2.2 mph3.5 kmh 29.03 in983.1 mb 0.00 in0.0 mm 0.00 in/hr0.0 mm/hr 0.08 in2.0 mm
08:42 PM 66.4°F19.1°C 64.9°F18.3°C 95% 1.4 mph SW2.3 kmh SW 2.2 mph3.5 kmh 29.03 in983.1 mb 0.00 in0.0 mm 0.00 in/hr0.0 mm/hr 0.08 in2.0 mm
08:41 PM 66.4°F19.1°C 64.9°F18.3°C 95% 1.5 mph SW2.4 kmh SW 2.2 mph3.5 kmh 29.03 in983.1 mb 0.00 in0.0 mm 0.00 in/hr0.0 mm/hr 0.08 in2.0 mm
08:40 PM 66.4°F19.1°C 64.9°F18.3°C 95% 1.5 mph SW2.4 kmh SW 2.2 mph3.5 kmh 29.03 in983.1 mb 0.00 in0.0 mm 0.00 in/hr0.0 mm/hr 0.08 in2.0 mm
08:39 PM 66.4°F19.1°C 64.9°F18.3°C 95% 1.4 mph SW2.3 kmh SW 2.2 mph3.5 kmh 29.03 in983.1 mb 0.00 in0.0 mm 0.00 in/hr0.0 mm/hr 0.08 in2.0 mm
08:38 PM 66.4°F19.1°C 64.9°F18.3°C 95% 1.5 mph SW2.4 kmh SW 3.1 mph5.0 kmh 29.03 in983.1 mb 0.00 in0.0 mm 0.00 in/hr0.0 mm/hr 0.08 in2.0 mm
08:37 PM 66.4°F19.1°C 64.9°F18.3°C 95% 1.6 mph SW2.6 kmh SW 3.1 mph5.0 kmh 29.03 in983.1 mb 0.00 in0.0 mm 0.00 in/hr0.0 mm/hr 0.08 in2.0 mm
08:36 PM 66.4°F19.1°C 64.9°F18.3°C 95% 1.8 mph SW2.9 kmh SW 3.1 mph5.0 kmh 29.03 in983.1 mb 0.00 in0.0 mm 0.00 in/hr0.0 mm/hr 0.08 in2.0 mm
08:35 PM 66.4°F19.1°C 64.9°F18.3°C 95% 2.0 mph SW3.2 kmh SW 3.1 mph5.0 kmh 29.02 in982.7 mb 0.00 in0.0 mm 0.00 in/hr0.0 mm/hr 0.08 in2.0 mm
08:34 PM 66.6°F19.2°C 65.1°F18.4°C 95% 2.2 mph SW3.5 kmh SW 3.1 mph5.0 kmh 29.02 in982.7 mb 0.00 in0.0 mm 0.00 in/hr0.0 mm/hr 0.08 in2.0 mm
08:33 PM 66.6°F19.2°C 65.1°F18.4°C 95% 2.4 mph SW3.9 kmh SW 3.1 mph5.0 kmh 29.02 in982.7 mb 0.00 in0.0 mm 0.00 in/hr0.0 mm/hr 0.08 in2.0 mm
08:32 PM 66.6°F19.2°C 65.1°F18.4°C 95% 2.4 mph SW3.9 kmh SW 3.1 mph5.0 kmh 29.02 in982.7 mb 0.00 in0.0 mm 0.00 in/hr0.0 mm/hr 0.08 in2.0 mm
08:31 PM 66.6°F19.2°C 65.1°F18.4°C 95% 2.2 mph SW3.5 kmh SW 3.1 mph5.0 kmh 29.02 in982.7 mb 0.00 in0.0 mm 0.00 in/hr0.0 mm/hr 0.08 in2.0 mm
08:30 PM 66.6°F19.2°C 65.1°F18.4°C 95% 2.2 mph SW3.5 kmh SW 3.1 mph5.0 kmh 29.02 in982.7 mb 0.00 in0.0 mm 0.00 in/hr0.0 mm/hr 0.08 in2.0 mm
08:29 PM 66.6°F19.2°C 65.1°F18.4°C 95% 2.3 mph SW3.7 kmh SW 3.1 mph5.0 kmh 29.02 in982.7 mb 0.00 in0.0 mm 0.00 in/hr0.0 mm/hr 0.08 in2.0 mm
08:28 PM 66.6°F19.2°C 65.1°F18.4°C 95% 2.3 mph SW3.7 kmh SW 3.8 mph6.1 kmh 29.02 in982.7 mb 0.00 in0.0 mm 0.00 in/hr0.0 mm/hr 0.08 in2.0 mm
08:27 PM 66.6°F19.2°C 64.8°F18.2°C 94% 2.4 mph SW3.9 kmh SW 3.8 mph6.1 kmh 29.02 in982.7 mb 0.00 in0.0 mm 0.00 in/hr0.0 mm/hr 0.08 in2.0 mm
08:26 PM 66.6°F19.2°C 64.8°F18.2°C 94% 2.4 mph SW3.9 kmh SW 3.8 mph6.1 kmh 29.02 in982.7 mb 0.00 in0.0 mm 0.00 in/hr0.0 mm/hr 0.08 in2.0 mm
08:25 PM 66.6°F19.2°C 64.8°F18.2°C 94% 2.4 mph SW3.9 kmh SW 3.8 mph6.1 kmh 29.02 in982.7 mb 0.00 in0.0 mm 0.00 in/hr0.0 mm/hr 0.08 in2.0 mm
08:24 PM 66.6°F19.2°C 64.8°F18.2°C 94% 2.3 mph SW3.7 kmh SW 3.8 mph6.1 kmh 29.02 in982.7 mb 0.00 in0.0 mm 0.00 in/hr0.0 mm/hr 0.08 in2.0 mm
08:23 PM 66.6°F19.2°C 64.8°F18.2°C 94% 2.2 mph WSW3.5 kmh WSW 3.8 mph6.1 kmh 29.02 in982.7 mb 0.00 in0.0 mm 0.00 in/hr0.0 mm/hr 0.08 in2.0 mm
08:22 PM 66.6°F19.2°C 64.8°F18.2°C 94% 2.3 mph WSW3.7 kmh WSW 3.8 mph6.1 kmh 29.02 in982.7 mb 0.00 in0.0 mm 0.00 in/hr0.0 mm/hr 0.08 in2.0 mm
08:21 PM 66.6°F19.2°C 64.5°F18.1°C 93% 2.5 mph WSW4.0 kmh WSW 3.8 mph6.1 kmh 29.02 in982.7 mb 0.00 in0.0 mm 0.00 in/hr0.0 mm/hr 0.08 in2.0 mm
08:20 PM 66.7°F19.3°C 64.7°F18.2°C 93% 2.5 mph WSW4.0 kmh WSW 3.8 mph6.1 kmh 29.02 in982.7 mb 0.00 in0.0 mm 0.00 in/hr0.0 mm/hr 0.08 in2.0 mm
08:19 PM 66.7°F19.3°C 64.7°F18.2°C 93% 2.3 mph WSW3.7 kmh WSW 3.8 mph6.1 kmh 29.02 in982.7 mb 0.00 in0.0 mm 0.00 in/hr0.0 mm/hr 0.08 in2.0 mm
08:18 PM 66.7°F19.3°C 64.7°F18.2°C 93% 2.1 mph WSW3.4 kmh WSW 3.8 mph6.1 kmh 29.01 in982.4 mb 0.00 in0.0 mm 0.00 in/hr0.0 mm/hr 0.08 in2.0 mm
08:17 PM 66.7°F19.3°C 64.7°F18.2°C 93% 1.7 mph W2.7 kmh W 3.8 mph6.1 kmh 29.02 in982.7 mb 0.00 in0.0 mm 0.00 in/hr0.0 mm/hr 0.08 in2.0 mm
08:16 PM 66.7°F19.3°C 64.7°F18.2°C 93% 1.4 mph W2.3 kmh W 3.1 mph5.0 kmh 29.01 in982.4 mb 0.00 in0.0 mm 0.00 in/hr0.0 mm/hr 0.08 in2.0 mm
08:15 PM 66.7°F19.3°C 64.4°F18.0°C 92% 1.1 mph W1.8 kmh W 2.2 mph3.5 kmh 29.01 in982.4 mb 0.00 in0.0 mm 0.00 in/hr0.0 mm/hr 0.08 in2.0 mm
08:14 PM 66.7°F19.3°C 64.4°F18.0°C 92% 1.0 mph W1.6 kmh W 2.2 mph3.5 kmh 29.01 in982.4 mb 0.00 in0.0 mm 0.00 in/hr0.0 mm/hr 0.08 in2.0 mm
08:13 PM 66.9°F19.4°C 64.5°F18.1°C 92% 0.9 mph W1.4 kmh W 2.2 mph3.5 kmh 29.01 in982.4 mb 0.00 in0.0 mm 0.00 in/hr0.0 mm/hr 0.08 in2.0 mm
08:12 PM 66.9°F19.4°C 64.5°F18.1°C 92% 0.8 mph W1.3 kmh W 2.2 mph3.5 kmh 29.01 in982.4 mb 0.00 in0.0 mm 0.00 in/hr0.0 mm/hr 0.08 in2.0 mm
08:11 PM 66.9°F19.4°C 64.5°F18.1°C 92% 0.8 mph NNE1.3 kmh NNE 2.2 mph3.5 kmh 29.02 in982.7 mb 0.00 in0.0 mm 0.00 in/hr0.0 mm/hr 0.08 in2.0 mm
08:10 PM 66.9°F19.4°C 64.5°F18.1°C 92% 0.9 mph NNE1.4 kmh NNE 2.2 mph3.5 kmh 29.01 in982.4 mb 0.00 in0.0 mm 0.00 in/hr0.0 mm/hr 0.08 in2.0 mm
08:09 PM 66.9°F19.4°C 64.5°F18.1°C 92% 1.0 mph ENE1.6 kmh ENE 2.2 mph3.5 kmh 29.01 in982.4 mb 0.00 in0.0 mm 0.00 in/hr0.0 mm/hr 0.08 in2.0 mm
08:08 PM 67.1°F19.5°C 64.4°F18.0°C 91% 1.1 mph ENE1.8 kmh ENE 2.2 mph3.5 kmh 29.02 in982.7 mb 0.00 in0.0 mm 0.00 in/hr0.0 mm/hr 0.08 in2.0 mm
08:07 PM 67.1°F19.5°C 64.4°F18.0°C 91% 1.4 mph ENE2.3 kmh ENE 4.5 mph7.2 kmh 29.01 in982.4 mb 0.00 in0.0 mm 0.00 in/hr0.0 mm/hr 0.08 in2.0 mm
08:06 PM 67.1°F19.5°C 64.4°F18.0°C 91% 1.9 mph ENE3.1 kmh ENE 4.5 mph7.2 kmh 29.01 in982.4 mb 0.00 in0.0 mm 0.00 in/hr0.0 mm/hr 0.08 in2.0 mm
08:05 PM 67.1°F19.5°C 64.4°F18.0°C 91% 2.0 mph ENE3.2 kmh ENE 4.5 mph7.2 kmh 29.01 in982.4 mb 0.00 in0.0 mm 0.00 in/hr0.0 mm/hr 0.08 in2.0 mm
08:04 PM 67.3°F19.6°C 64.6°F18.1°C 91% 2.2 mph ENE3.5 kmh ENE 4.5 mph7.2 kmh 29.02 in982.7 mb 0.00 in0.0 mm 0.00 in/hr0.0 mm/hr 0.08 in2.0 mm
08:03 PM 67.3°F19.6°C 64.6°F18.1°C 91% 2.4 mph ENE3.9 kmh ENE 4.5 mph7.2 kmh 29.02 in982.7 mb 0.00 in0.0 mm 0.00 in/hr0.0 mm/hr 0.08 in2.0 mm
08:02 PM 67.3°F19.6°C 64.6°F18.1°C 91% 2.6 mph NE4.2 kmh NE 4.5 mph7.2 kmh 29.02 in982.7 mb 0.00 in0.0 mm 0.00 in/hr0.0 mm/hr 0.08 in2.0 mm
08:01 PM 67.5°F19.7°C 64.8°F18.2°C 91% 2.7 mph NE4.3 kmh NE 4.5 mph7.2 kmh 29.01 in982.4 mb 0.00 in0.0 mm 0.00 in/hr0.0 mm/hr 0.08 in2.0 mm
08:00 PM 67.5°F19.7°C 64.5°F18.1°C 90% 2.6 mph ENE4.2 kmh ENE 4.5 mph7.2 kmh 29.01 in982.4 mb 0.00 in0.0 mm 0.00 in/hr0.0 mm/hr 0.08 in2.0 mm
07:59 PM 67.5°F19.7°C 64.5°F18.1°C 90% 2.5 mph NE4.0 kmh NE 4.5 mph7.2 kmh 29.01 in982.4 mb 0.00 in0.0 mm 0.00 in/hr0.0 mm/hr 0.08 in2.0 mm
07:58 PM 67.6°F19.8°C 64.6°F18.1°C 90% 2.4 mph NE3.9 kmh NE 4.5 mph7.2 kmh 29.01 in982.4 mb 0.00 in0.0 mm 0.00 in/hr0.0 mm/hr 0.08 in2.0 mm
07:57 PM 67.6°F19.8°C 64.6°F18.1°C 90% 2.3 mph NE3.7 kmh NE 4.5 mph7.2 kmh 29.01 in982.4 mb 0.00 in0.0 mm 0.00 in/hr0.0 mm/hr 0.08 in2.0 mm
07:56 PM 67.6°F19.8°C 64.6°F18.1°C 90% 1.9 mph NE3.1 kmh NE 3.8 mph6.1 kmh 29.01 in982.4 mb 0.00 in0.0 mm 0.00 in/hr0.0 mm/hr 0.08 in2.0 mm
07:55 PM 67.6°F19.8°C 64.6°F18.1°C 90% 2.2 mph NE3.5 kmh NE 3.8 mph6.1 kmh 29.01 in982.4 mb 0.00 in0.0 mm 0.00 in/hr0.0 mm/hr 0.08 in2.0 mm
07:54 PM 67.6°F19.8°C 64.6°F18.1°C 90% 2.2 mph NE3.5 kmh NE 3.8 mph6.1 kmh 29.01 in982.4 mb 0.00 in0.0 mm 0.00 in/hr0.0 mm/hr 0.08 in2.0 mm
07:53 PM 67.6°F19.8°C 64.6°F18.1°C 90% 2.2 mph ENE3.5 kmh ENE 3.8 mph6.1 kmh 29.02 in982.7 mb 0.00 in0.0 mm 0.00 in/hr0.0 mm/hr 0.08 in2.0 mm
07:52 PM 67.8°F19.9°C 64.5°F18.1°C 89% 2.1 mph ENE3.4 kmh ENE 3.8 mph6.1 kmh 29.01 in982.4 mb 0.00 in0.0 mm 0.00 in/hr0.0 mm/hr 0.08 in2.0 mm
07:51 PM 67.8°F19.9°C 64.5°F18.1°C 89% 2.0 mph ENE3.2 kmh ENE 3.8 mph6.1 kmh 29.01 in982.4 mb 0.00 in0.0 mm 0.00 in/hr0.0 mm/hr 0.08 in2.0 mm
07:50 PM 67.8°F19.9°C 64.5°F18.1°C 89% 2.2 mph E3.5 kmh E 3.8 mph6.1 kmh 29.01 in982.4 mb 0.00 in0.0 mm 0.00 in/hr0.0 mm/hr 0.08 in2.0 mm
07:49 PM 67.8°F19.9°C 64.5°F18.1°C 89% 2.4 mph E3.9 kmh E 3.8 mph6.1 kmh 29.01 in982.4 mb 0.00 in0.0 mm 0.00 in/hr0.0 mm/hr 0.08 in2.0 mm
07:48 PM 68.0°F20.0°C 64.7°F18.2°C 89% 2.6 mph E4.2 kmh E 4.5 mph7.2 kmh 29.01 in982.4 mb 0.00 in0.0 mm 0.00 in/hr0.0 mm/hr 0.08 in2.0 mm
07:47 PM 68.0°F20.0°C 64.7°F18.2°C 89% 2.9 mph E4.7 kmh E 4.5 mph7.2 kmh 29.01 in982.4 mb 0.00 in0.0 mm 0.00 in/hr0.0 mm/hr 0.08 in2.0 mm
07:46 PM 68.0°F20.0°C 64.3°F17.9°C 88% 3.4 mph E5.5 kmh E 6.9 mph11.1 kmh 29.01 in982.4 mb 0.00 in0.0 mm 0.00 in/hr0.0 mm/hr 0.08 in2.0 mm
07:45 PM 68.0°F20.0°C 64.3°F17.9°C 88% 3.4 mph ENE5.5 kmh ENE 6.9 mph11.1 kmh 29.01 in982.4 mb 0.00 in0.0 mm 0.00 in/hr0.0 mm/hr 0.08 in2.0 mm
07:44 PM 68.2°F20.1°C 64.5°F18.1°C 88% 3.4 mph ENE5.5 kmh ENE 6.9 mph11.1 kmh 29.01 in982.4 mb 0.00 in0.0 mm 0.00 in/hr0.0 mm/hr 0.08 in2.0 mm
07:43 PM 68.2°F20.1°C 64.5°F18.1°C 88% 3.4 mph ENE5.5 kmh ENE 6.9 mph11.1 kmh 29.01 in982.4 mb 0.00 in0.0 mm 0.00 in/hr0.0 mm/hr 0.08 in2.0 mm
07:42 PM 68.2°F20.1°C 64.5°F18.1°C 88% 3.5 mph NE5.6 kmh NE 6.9 mph11.1 kmh 29.01 in982.4 mb 0.00 in0.0 mm 0.00 in/hr0.0 mm/hr 0.08 in2.0 mm
07:41 PM 68.4°F20.2°C 64.7°F18.2°C 88% 3.4 mph NE5.5 kmh NE 6.9 mph11.1 kmh 29.01 in982.4 mb 0.00 in0.0 mm 0.00 in/hr0.0 mm/hr 0.08 in2.0 mm
07:40 PM 68.5°F20.3°C 64.5°F18.1°C 87% 3.2 mph NE5.1 kmh NE 6.9 mph11.1 kmh 29.01 in982.4 mb 0.00 in0.0 mm 0.00 in/hr0.0 mm/hr 0.08 in2.0 mm
07:39 PM 68.5°F20.3°C 64.5°F18.1°C 87% 3.2 mph NE5.1 kmh NE 6.9 mph11.1 kmh 29.01 in982.4 mb 0.00 in0.0 mm 0.00 in/hr0.0 mm/hr 0.08 in2.0 mm
07:38 PM 68.5°F20.3°C 64.5°F18.1°C 87% 3.0 mph NE4.8 kmh NE 6.9 mph11.1 kmh 29.01 in982.4 mb 0.00 in0.0 mm 0.00 in/hr0.0 mm/hr 0.08 in2.0 mm
07:37 PM 68.5°F20.3°C 64.5°F18.1°C 87% 2.9 mph NE4.7 kmh NE 6.9 mph11.1 kmh 29.01 in982.4 mb 0.00 in0.0 mm 0.00 in/hr0.0 mm/hr 0.08 in2.0 mm
07:36 PM 68.7°F20.4°C 64.7°F18.2°C 87% 2.5 mph NE4.0 kmh NE 3.8 mph6.1 kmh 29.01 in982.4 mb 0.00 in0.0 mm 0.00 in/hr0.0 mm/hr 0.08 in2.0 mm
07:35 PM 68.7°F20.4°C 64.7°F18.2°C 87% 2.4 mph NE3.9 kmh NE 3.8 mph6.1 kmh 29.01 in982.4 mb 0.00 in0.0 mm 0.00 in/hr0.0 mm/hr 0.08 in2.0 mm
07:34 PM 68.7°F20.4°C 64.7°F18.2°C 87% 2.2 mph NE3.5 kmh NE 3.8 mph6.1 kmh 29.01 in982.4 mb 0.00 in0.0 mm 0.00 in/hr0.0 mm/hr 0.08 in2.0 mm
07:33 PM 68.7°F20.4°C 64.4°F18.0°C 86% 2.1 mph ENE3.4 kmh ENE 3.8 mph6.1 kmh 29.01 in982.4 mb 0.00 in0.0 mm 0.00 in/hr0.0 mm/hr 0.08 in2.0 mm
07:32 PM 68.9°F20.5°C 64.6°F18.1°C 86% 2.3 mph ENE3.7 kmh ENE 5.4 mph8.7 kmh 29.00 in982.1 mb 0.00 in0.0 mm 0.00 in/hr0.0 mm/hr 0.08 in2.0 mm
07:31 PM 68.9°F20.5°C 64.6°F18.1°C 86% 2.6 mph ENE4.2 kmh ENE 5.4 mph8.7 kmh 29.00 in982.1 mb 0.00 in0.0 mm 0.00 in/hr0.0 mm/hr 0.08 in2.0 mm
07:30 PM 68.9°F20.5°C 64.6°F18.1°C 86% 2.9 mph E4.7 kmh E 5.4 mph8.7 kmh 29.00 in982.1 mb 0.00 in0.0 mm 0.00 in/hr0.0 mm/hr 0.08 in2.0 mm
07:29 PM 68.9°F20.5°C 64.6°F18.1°C 86% 2.9 mph E4.7 kmh E 5.4 mph8.7 kmh 29.00 in982.1 mb 0.00 in0.0 mm 0.00 in/hr0.0 mm/hr 0.08 in2.0 mm
07:28 PM 69.1°F20.6°C 64.7°F18.2°C 86% 3.1 mph E5.0 kmh E 5.4 mph8.7 kmh 29.00 in982.1 mb 0.00 in0.0 mm 0.00 in/hr0.0 mm/hr 0.08 in2.0 mm
07:27 PM 69.3°F20.7°C 64.9°F18.3°C 86% 3.3 mph E5.3 kmh E 6.9 mph11.1 kmh 29.01 in982.4 mb 0.00 in0.0 mm 0.00 in/hr0.0 mm/hr 0.08 in2.0 mm
07:26 PM 69.1°F20.6°C 64.4°F18.0°C 85% 3.7 mph E6.0 kmh E 6.9 mph11.1 kmh 29.00 in982.1 mb 0.00 in0.0 mm 0.00 in/hr0.0 mm/hr 0.08 in2.0 mm
07:25 PM 69.3°F20.7°C 64.6°F18.1°C 85% 3.5 mph E5.6 kmh E 6.9 mph11.1 kmh 29.00 in982.1 mb 0.00 in0.0 mm 0.00 in/hr0.0 mm/hr 0.08 in2.0 mm
07:24 PM 69.3°F20.7°C 64.6°F18.1°C 85% 3.5 mph E5.6 kmh E 6.9 mph11.1 kmh 29.00 in982.1 mb 0.00 in0.0 mm 0.00 in/hr0.0 mm/hr 0.08 in2.0 mm
07:23 PM 69.4°F20.8°C 64.8°F18.2°C 85% 3.4 mph E5.5 kmh E 6.9 mph11.1 kmh 29.00 in982.1 mb 0.00 in0.0 mm 0.00 in/hr0.0 mm/hr 0.08 in2.0 mm
07:22 PM 69.4°F20.8°C 64.8°F18.2°C 85% 3.3 mph E5.3 kmh E 6.9 mph11.1 kmh 29.00 in982.1 mb 0.00 in0.0 mm 0.00 in/hr0.0 mm/hr 0.08 in2.0 mm
07:21 PM 69.4°F20.8°C 64.8°F18.2°C 85% 3.1 mph E5.0 kmh E 6.9 mph11.1 kmh 29.00 in982.1 mb 0.00 in0.0 mm 0.00 in/hr0.0 mm/hr 0.08 in2.0 mm
07:20 PM 69.4°F20.8°C 64.8°F18.2°C 85% 3.0 mph E4.8 kmh E 6.9 mph11.1 kmh 29.00 in982.1 mb 0.00 in0.0 mm 0.00 in/hr0.0 mm/hr 0.08 in2.0 mm
07:19 PM 69.6°F20.9°C 64.9°F18.3°C 85% 3.0 mph E4.8 kmh E 6.9 mph11.1 kmh 29.00 in982.1 mb 0.00 in0.0 mm 0.00 in/hr0.0 mm/hr 0.08 in2.0 mm
07:18 PM 69.6°F20.9°C 64.6°F18.1°C 84% 3.0 mph ENE4.8 kmh ENE 6.9 mph11.1 kmh 29.00 in982.1 mb 0.00 in0.0 mm 0.00 in/hr0.0 mm/hr 0.08 in2.0 mm
07:17 PM 69.6°F20.9°C 64.6°F18.1°C 84% 2.9 mph ENE4.7 kmh ENE 6.9 mph11.1 kmh 29.00 in982.1 mb 0.00 in0.0 mm 0.00 in/hr0.0 mm/hr 0.08 in2.0 mm
07:16 PM 69.6°F20.9°C 64.6°F18.1°C 84% 2.6 mph ENE4.2 kmh ENE 4.5 mph7.2 kmh 29.00 in982.1 mb 0.00 in0.0 mm 0.00 in/hr0.0 mm/hr 0.08 in2.0 mm
07:15 PM 69.8°F21.0°C 64.8°F18.2°C 84% 2.8 mph E4.5 kmh E 4.5 mph7.2 kmh 29.00 in982.1 mb 0.00 in0.0 mm 0.00 in/hr0.0 mm/hr 0.08 in2.0 mm
07:14 PM 69.8°F21.0°C 64.8°F18.2°C 84% 3.1 mph E5.0 kmh E 4.5 mph7.2 kmh 29.00 in982.1 mb 0.00 in0.0 mm 0.00 in/hr0.0 mm/hr 0.08 in2.0 mm
07:13 PM 69.8°F21.0°C 64.8°F18.2°C 84% 3.4 mph E5.5 kmh E 4.5 mph7.2 kmh 29.00 in982.1 mb 0.00 in0.0 mm 0.00 in/hr0.0 mm/hr 0.08 in2.0 mm
07:12 PM 70.0°F21.1°C 64.6°F18.1°C 83% 3.4 mph E5.5 kmh E 4.5 mph7.2 kmh 29.00 in982.1 mb 0.00 in0.0 mm 0.00 in/hr0.0 mm/hr 0.08 in2.0 mm
07:11 PM 70.0°F21.1°C 64.6°F18.1°C 83% 3.4 mph E5.5 kmh E 4.5 mph7.2 kmh 29.00 in982.1 mb 0.00 in0.0 mm 0.00 in/hr0.0 mm/hr 0.08 in2.0 mm
07:10 PM 70.0°F21.1°C 64.6°F18.1°C 83% 3.3 mph E5.3 kmh E 4.5 mph7.2 kmh 29.00 in982.1 mb 0.00 in0.0 mm 0.00 in/hr0.0 mm/hr 0.08 in2.0 mm
07:09 PM 70.0°F21.1°C 64.6°F18.1°C 83% 3.3 mph ESE5.3 kmh ESE 4.5 mph7.2 kmh 29.00 in982.1 mb 0.00 in0.0 mm 0.00 in/hr0.0 mm/hr 0.08 in2.0 mm
07:08 PM 70.2°F21.2°C 64.8°F18.2°C 83% 3.1 mph ESE5.0 kmh ESE 4.5 mph7.2 kmh 29.00 in982.1 mb 0.00 in0.0 mm 0.00 in/hr0.0 mm/hr 0.08 in2.0 mm
07:07 PM 70.2°F21.2°C 64.8°F18.2°C 83% 3.0 mph ESE4.8 kmh ESE 4.5 mph7.2 kmh 29.00 in982.1 mb 0.00 in0.0 mm 0.00 in/hr0.0 mm/hr 0.08 in2.0 mm
07:06 PM 70.2°F21.2°C 64.8°F18.2°C 83% 3.0 mph ESE4.8 kmh ESE 4.5 mph7.2 kmh 29.00 in982.1 mb 0.00 in0.0 mm 0.00 in/hr0.0 mm/hr 0.08 in2.0 mm
07:05 PM 70.2°F21.2°C 64.8°F18.2°C 83% 2.9 mph ESE4.7 kmh ESE 4.5 mph7.2 kmh 29.00 in982.1 mb 0.00 in0.0 mm 0.00 in/hr0.0 mm/hr 0.08 in2.0 mm
07:04 PM 70.3°F21.3°C 65.0°F18.3°C 83% 2.6 mph ESE4.2 kmh ESE 4.5 mph7.2 kmh 29.00 in982.1 mb 0.00 in0.0 mm 0.00 in/hr0.0 mm/hr 0.08 in2.0 mm
07:03 PM 70.3°F21.3°C 65.0°F18.3°C 83% 2.4 mph SE3.9 kmh SE 3.8 mph6.1 kmh 29.00 in982.1 mb 0.00 in0.0 mm 0.00 in/hr0.0 mm/hr 0.08 in2.0 mm
07:02 PM 70.3°F21.3°C 65.0°F18.3°C 83% 2.3 mph ESE3.7 kmh ESE 3.8 mph6.1 kmh 29.00 in982.1 mb 0.00 in0.0 mm 0.00 in/hr0.0 mm/hr 0.08 in2.0 mm
07:01 PM 70.3°F21.3°C 65.0°F18.3°C 83% 2.2 mph ESE3.5 kmh ESE 3.8 mph6.1 kmh 29.00 in982.1 mb 0.00 in0.0 mm 0.00 in/hr0.0 mm/hr 0.08 in2.0 mm
07:00 PM 70.3°F21.3°C 64.6°F18.1°C 82% 2.4 mph ESE3.9 kmh ESE 3.8 mph6.1 kmh 29.01 in982.4 mb 0.00 in0.0 mm 0.00 in/hr0.0 mm/hr 0.08 in2.0 mm
06:59 PM 70.3°F21.3°C 64.6°F18.1°C 82% 2.5 mph E4.0 kmh E 3.8 mph6.1 kmh 29.00 in982.1 mb 0.00 in0.0 mm 0.00 in/hr0.0 mm/hr 0.08 in2.0 mm
06:58 PM 70.3°F21.3°C 64.6°F18.1°C 82% 2.6 mph E4.2 kmh E 3.8 mph6.1 kmh 29.00 in982.1 mb 0.00 in0.0 mm 0.00 in/hr0.0 mm/hr 0.08 in2.0 mm
06:57 PM 70.3°F21.3°C 64.6°F18.1°C 82% 2.7 mph E4.3 kmh E 3.8 mph6.1 kmh 29.00 in982.1 mb 0.00 in0.0 mm 0.00 in/hr0.0 mm/hr 0.08 in2.0 mm
06:56 PM 70.5°F21.4°C 64.8°F18.2°C 82% 2.7 mph E4.3 kmh E 3.8 mph6.1 kmh 29.00 in982.1 mb 0.00 in0.0 mm 0.00 in/hr0.0 mm/hr 0.08 in2.0 mm
06:55 PM 70.5°F21.4°C 64.8°F18.2°C 82% 2.7 mph ENE4.3 kmh ENE 3.8 mph6.1 kmh 29.00 in982.1 mb 0.00 in0.0 mm 0.00 in/hr0.0 mm/hr 0.08 in2.0 mm
06:54 PM 70.5°F21.4°C 64.8°F18.2°C 82% 2.8 mph ENE4.5 kmh ENE 3.8 mph6.1 kmh 29.00 in982.1 mb 0.00 in0.0 mm 0.00 in/hr0.0 mm/hr 0.08 in2.0 mm
06:53 PM 70.5°F21.4°C 64.8°F18.2°C 82% 2.9 mph ENE4.7 kmh ENE 3.8 mph6.1 kmh 29.00 in982.1 mb 0.00 in0.0 mm 0.00 in/hr0.0 mm/hr 0.08 in2.0 mm
06:52 PM 70.5°F21.4°C 64.8°F18.2°C 82% 3.0 mph NE4.8 kmh NE 3.8 mph6.1 kmh 29.00 in982.1 mb 0.00 in0.0 mm 0.00 in/hr0.0 mm/hr 0.08 in2.0 mm
06:51 PM 70.5°F21.4°C 64.4°F18.0°C 81% 3.1 mph NE5.0 kmh NE 3.8 mph6.1 kmh 29.00 in982.1 mb 0.00 in0.0 mm 0.00 in/hr0.0 mm/hr 0.08 in2.0 mm
06:50 PM 70.5°F21.4°C 64.4°F18.0°C 81% 3.2 mph ENE5.1 kmh ENE 5.4 mph8.7 kmh 29.00 in982.1 mb 0.00 in0.0 mm 0.00 in/hr0.0 mm/hr 0.08 in2.0 mm
06:49 PM 70.5°F21.4°C 64.8°F18.2°C 82% 3.4 mph ENE5.5 kmh ENE 5.4 mph8.7 kmh 29.00 in982.1 mb 0.00 in0.0 mm 0.00 in/hr0.0 mm/hr 0.08 in2.0 mm
06:48 PM 70.7°F21.5°C 64.6°F18.1°C 81% 3.5 mph ENE5.6 kmh ENE 5.4 mph8.7 kmh 29.00 in982.1 mb 0.00 in0.0 mm 0.00 in/hr0.0 mm/hr 0.08 in2.0 mm
06:47 PM 70.7°F21.5°C 64.6°F18.1°C 81% 3.5 mph NE5.6 kmh NE 5.4 mph8.7 kmh 29.00 in982.1 mb 0.00 in0.0 mm 0.00 in/hr0.0 mm/hr 0.08 in2.0 mm
06:46 PM 70.7°F21.5°C 64.6°F18.1°C 81% 3.5 mph NE5.6 kmh NE 5.4 mph8.7 kmh 29.00 in982.1 mb 0.00 in0.0 mm 0.00 in/hr0.0 mm/hr 0.08 in2.0 mm
06:45 PM 70.7°F21.5°C 64.6°F18.1°C 81% 3.6 mph NE5.8 kmh NE 5.4 mph8.7 kmh 29.00 in982.1 mb 0.00 in0.0 mm 0.00 in/hr0.0 mm/hr 0.08 in2.0 mm
06:44 PM 70.7°F21.5°C 64.6°F18.1°C 81% 3.7 mph NE6.0 kmh NE 5.4 mph8.7 kmh 29.00 in982.1 mb 0.00 in0.0 mm 0.00 in/hr0.0 mm/hr 0.08 in2.0 mm
06:43 PM 70.7°F21.5°C 64.6°F18.1°C 81% 3.8 mph NE6.1 kmh NE 5.4 mph8.7 kmh 29.00 in982.1 mb 0.00 in0.0 mm 0.00 in/hr0.0 mm/hr 0.08 in2.0 mm
06:42 PM 70.9°F21.6°C 64.8°F18.2°C 81% 3.8 mph NE6.1 kmh NE 5.4 mph8.7 kmh 29.00 in982.1 mb 0.00 in0.0 mm 0.00 in/hr0.0 mm/hr 0.08 in2.0 mm
06:41 PM 70.9°F21.6°C 64.8°F18.2°C 81% 3.7 mph NE6.0 kmh NE 5.4 mph8.7 kmh 29.00 in982.1 mb 0.00 in0.0 mm 0.00 in/hr0.0 mm/hr 0.08 in2.0 mm
06:40 PM 70.9°F21.6°C 64.8°F18.2°C 81% 3.6 mph NE5.8 kmh NE 5.4 mph8.7 kmh 28.99 in981.7 mb 0.00 in0.0 mm 0.00 in/hr0.0 mm/hr 0.08 in2.0 mm
06:39 PM 70.9°F21.6°C 64.4°F18.0°C 80% 3.5 mph NE5.6 kmh NE 5.4 mph8.7 kmh 28.99 in981.7 mb 0.00 in0.0 mm 0.00 in/hr0.0 mm/hr 0.08 in2.0 mm
06:38 PM 70.9°F21.6°C 64.4°F18.0°C 80% 3.3 mph NE5.3 kmh NE 5.4 mph8.7 kmh 28.99 in981.7 mb 0.00 in0.0 mm 0.00 in/hr0.0 mm/hr 0.08 in2.0 mm
06:37 PM 70.9°F21.6°C 64.4°F18.0°C 80% 3.1 mph NE5.0 kmh NE 5.4 mph8.7 kmh 28.99 in981.7 mb 0.00 in0.0 mm 0.00 in/hr0.0 mm/hr 0.08 in2.0 mm
06:36 PM 71.1°F21.7°C 64.6°F18.1°C 80% 3.2 mph NE5.1 kmh NE 5.4 mph8.7 kmh 28.99 in981.7 mb 0.00 in0.0 mm 0.00 in/hr0.0 mm/hr 0.08 in2.0 mm
06:35 PM 71.1°F21.7°C 64.6°F18.1°C 80% 3.2 mph NE5.1 kmh NE 5.4 mph8.7 kmh 28.99 in981.7 mb 0.00 in0.0 mm 0.00 in/hr0.0 mm/hr 0.08 in2.0 mm
06:34 PM 71.2°F21.8°C 64.8°F18.2°C 80% 3.4 mph ENE5.5 kmh ENE 5.4 mph8.7 kmh 28.99 in981.7 mb 0.00 in0.0 mm 0.00 in/hr0.0 mm/hr 0.08 in2.0 mm
06:33 PM 71.2°F21.8°C 64.8°F18.2°C 80% 3.6 mph E5.8 kmh E 6.0 mph9.7 kmh 28.99 in981.7 mb 0.00 in0.0 mm 0.00 in/hr0.0 mm/hr 0.08 in2.0 mm
06:32 PM 71.2°F21.8°C 64.8°F18.2°C 80% 3.8 mph E6.1 kmh E 6.0 mph9.7 kmh 28.99 in981.7 mb 0.00 in0.0 mm 0.00 in/hr0.0 mm/hr 0.08 in2.0 mm
06:31 PM 71.2°F21.8°C 64.4°F18.0°C 79% 4.1 mph E6.6 kmh E 6.0 mph9.7 kmh 28.98 in981.4 mb 0.00 in0.0 mm 0.00 in/hr0.0 mm/hr 0.08 in2.0 mm
06:30 PM 71.2°F21.8°C 64.4°F18.0°C 79% 4.3 mph E6.9 kmh E 6.9 mph11.1 kmh 28.99 in981.7 mb 0.00 in0.0 mm 0.00 in/hr0.0 mm/hr 0.08 in2.0 mm
06:29 PM 71.2°F21.8°C 64.4°F18.0°C 79% 4.8 mph E7.7 kmh E 9.2 mph14.8 kmh 28.99 in981.7 mb 0.00 in0.0 mm 0.00 in/hr0.0 mm/hr 0.08 in2.0 mm
06:28 PM 71.4°F21.9°C 64.6°F18.1°C 79% 5.3 mph E8.5 kmh E 9.2 mph14.8 kmh 28.99 in981.7 mb 0.00 in0.0 mm 0.00 in/hr0.0 mm/hr 0.08 in2.0 mm
06:27 PM 71.4°F21.9°C 64.6°F18.1°C 79% 5.8 mph E9.3 kmh E 9.2 mph14.8 kmh 28.99 in981.7 mb 0.00 in0.0 mm 0.00 in/hr0.0 mm/hr 0.08 in2.0 mm
06:26 PM 71.4°F21.9°C 64.6°F18.1°C 79% 5.9 mph E9.5 kmh E 9.2 mph14.8 kmh 28.99 in981.7 mb 0.00 in0.0 mm 0.00 in/hr0.0 mm/hr 0.08 in2.0 mm
06:25 PM 71.6°F22.0°C 64.8°F18.2°C 79% 6.3 mph E10.1 kmh E 9.2 mph14.8 kmh 28.98 in981.4 mb 0.00 in0.0 mm 0.00 in/hr0.0 mm/hr 0.08 in2.0 mm
06:24 PM 71.6°F22.0°C 64.4°F18.0°C 78% 6.3 mph E10.1 kmh E 9.2 mph14.8 kmh 28.98 in981.4 mb 0.00 in0.0 mm 0.00 in/hr0.0 mm/hr 0.08 in2.0 mm
06:23 PM 71.6°F22.0°C 64.4°F18.0°C 78% 6.0 mph E9.7 kmh E 9.2 mph14.8 kmh 28.98 in981.4 mb 0.00 in0.0 mm 0.00 in/hr0.0 mm/hr 0.08 in2.0 mm
06:22 PM 71.6°F22.0°C 64.4°F18.0°C 78% 5.9 mph E9.5 kmh E 9.2 mph14.8 kmh 28.98 in981.4 mb 0.00 in0.0 mm 0.00 in/hr0.0 mm/hr 0.08 in2.0 mm
06:21 PM 71.8°F22.1°C 64.6°F18.1°C 78% 5.6 mph E9.0 kmh E 9.2 mph14.8 kmh 28.98 in981.4 mb 0.00 in0.0 mm 0.00 in/hr0.0 mm/hr 0.08 in2.0 mm
06:20 PM 72.0°F22.2°C 64.8°F18.2°C 78% 5.1 mph E8.2 kmh E 9.2 mph14.8 kmh 28.98 in981.4 mb 0.00 in0.0 mm 0.00 in/hr0.0 mm/hr 0.08 in2.0 mm
06:19 PM 72.0°F22.2°C 64.8°F18.2°C 78% 4.5 mph E7.2 kmh E 8.3 mph13.4 kmh 28.98 in981.4 mb 0.00 in0.0 mm 0.00 in/hr0.0 mm/hr 0.08 in2.0 mm
06:18 PM 72.1°F22.3°C 64.9°F18.3°C 78% 3.9 mph ESE6.3 kmh ESE 8.3 mph13.4 kmh 28.98 in981.4 mb 0.00 in0.0 mm 0.00 in/hr0.0 mm/hr 0.08 in2.0 mm
06:17 PM 72.1°F22.3°C 64.9°F18.3°C 78% 3.4 mph ESE5.5 kmh ESE 8.3 mph13.4 kmh 28.99 in981.7 mb 0.00 in0.0 mm 0.00 in/hr0.0 mm/hr 0.08 in2.0 mm
06:16 PM 72.1°F22.3°C 64.9°F18.3°C 78% 3.3 mph ESE5.3 kmh ESE 6.9 mph11.1 kmh 28.98 in981.4 mb 0.00 in0.0 mm 0.00 in/hr0.0 mm/hr 0.08 in2.0 mm
06:15 PM 72.1°F22.3°C 64.9°F18.3°C 78% 3.1 mph E5.0 kmh E 4.5 mph7.2 kmh 28.98 in981.4 mb 0.00 in0.0 mm 0.00 in/hr0.0 mm/hr 0.08 in2.0 mm
06:14 PM 72.1°F22.3°C 64.9°F18.3°C 78% 3.0 mph E4.8 kmh E 4.5 mph7.2 kmh 28.98 in981.4 mb 0.00 in0.0 mm 0.00 in/hr0.0 mm/hr 0.08 in2.0 mm
06:13 PM 72.1°F22.3°C 64.9°F18.3°C 78% 3.1 mph ESE5.0 kmh ESE 4.5 mph7.2 kmh 28.98 in981.4 mb 0.00 in0.0 mm 0.00 in/hr0.0 mm/hr 0.08 in2.0 mm
06:12 PM 72.1°F22.3°C 64.6°F18.1°C 77% 3.3 mph ESE5.3 kmh ESE 6.0 mph9.7 kmh 28.98 in981.4 mb 0.00 in0.0 mm 0.00 in/hr0.0 mm/hr 0.08 in2.0 mm
06:11 PM 72.3°F22.4°C 64.7°F18.2°C 77% 3.6 mph E5.8 kmh E 6.0 mph9.7 kmh 28.98 in981.4 mb 0.00 in0.0 mm 0.00 in/hr0.0 mm/hr 0.08 in2.0 mm
06:10 PM 72.3°F22.4°C 64.7°F18.2°C 77% 3.9 mph E6.3 kmh E 6.0 mph9.7 kmh 28.98 in981.4 mb 0.00 in0.0 mm 0.00 in/hr0.0 mm/hr 0.08 in2.0 mm
06:09 PM 72.3°F22.4°C 64.7°F18.2°C 77% 4.0 mph E6.4 kmh E 6.0 mph9.7 kmh 28.98 in981.4 mb 0.00 in0.0 mm 0.00 in/hr0.0 mm/hr 0.08 in2.0 mm
06:08 PM 72.3°F22.4°C 64.7°F18.2°C 77% 4.3 mph E6.9 kmh E 6.0 mph9.7 kmh 28.98 in981.4 mb 0.00 in0.0 mm 0.00 in/hr0.0 mm/hr 0.08 in2.0 mm
06:07 PM 72.3°F22.4°C 64.7°F18.2°C 77% 4.4 mph E7.1 kmh E 6.0 mph9.7 kmh 28.98 in981.4 mb 0.00 in0.0 mm 0.00 in/hr0.0 mm/hr 0.08 in2.0 mm
06:06 PM 72.5°F22.5°C 64.5°F18.1°C 76% 4.5 mph E7.2 kmh E 6.0 mph9.7 kmh 28.98 in981.4 mb 0.00 in0.0 mm 0.00 in/hr0.0 mm/hr 0.08 in2.0 mm
06:05 PM 72.5°F22.5°C 64.5°F18.1°C 76% 4.6 mph E7.4 kmh E 6.0 mph9.7 kmh 28.98 in981.4 mb 0.00 in0.0 mm 0.00 in/hr0.0 mm/hr 0.08 in2.0 mm
06:04 PM 72.5°F22.5°C 64.5°F18.1°C 76% 4.6 mph E7.4 kmh E 6.0 mph9.7 kmh 28.98 in981.4 mb 0.00 in0.0 mm 0.00 in/hr0.0 mm/hr 0.08 in2.0 mm
06:03 PM 72.7°F22.6°C 64.7°F18.2°C 76% 4.7 mph E7.6 kmh E 6.0 mph9.7 kmh 28.98 in981.4 mb 0.00 in0.0 mm 0.00 in/hr0.0 mm/hr 0.08 in2.0 mm
06:02 PM 72.7°F22.6°C 64.7°F18.2°C 76% 4.7 mph E7.6 kmh E 6.0 mph9.7 kmh 28.97 in981.0 mb 0.00 in0.0 mm 0.00 in/hr0.0 mm/hr 0.08 in2.0 mm
06:01 PM 72.7°F22.6°C 64.7°F18.2°C 76% 4.5 mph E7.2 kmh E 6.0 mph9.7 kmh 28.97 in981.0 mb 0.00 in0.0 mm 0.00 in/hr0.0 mm/hr 0.08 in2.0 mm
06:00 PM 72.7°F22.6°C 64.7°F18.2°C 76% 4.6 mph E7.4 kmh E 6.0 mph9.7 kmh 28.98 in981.4 mb 0.00 in0.0 mm 0.00 in/hr0.0 mm/hr 0.08 in2.0 mm
05:59 PM 72.7°F22.6°C 64.7°F18.2°C 76% 4.6 mph E7.4 kmh E 6.0 mph9.7 kmh 28.97 in981.0 mb 0.00 in0.0 mm 0.00 in/hr0.0 mm/hr 0.08 in2.0 mm
05:58 PM 72.7°F22.6°C 64.7°F18.2°C 76% 4.7 mph E7.6 kmh E 6.0 mph9.7 kmh 28.97 in981.0 mb 0.00 in0.0 mm 0.00 in/hr0.0 mm/hr 0.08 in2.0 mm
05:57 PM 72.7°F22.6°C 64.7°F18.2°C 76% 5.1 mph E8.2 kmh E 7.6 mph12.2 kmh 28.97 in981.0 mb 0.00 in0.0 mm 0.00 in/hr0.0 mm/hr 0.08 in2.0 mm
05:56 PM 72.7°F22.6°C 64.7°F18.2°C 76% 5.1 mph ENE8.2 kmh ENE 7.6 mph12.2 kmh 28.97 in981.0 mb 0.00 in0.0 mm 0.00 in/hr0.0 mm/hr 0.08 in2.0 mm
05:55 PM 72.7°F22.6°C 64.7°F18.2°C 76% 5.1 mph E8.2 kmh E 7.6 mph12.2 kmh 28.97 in981.0 mb 0.00 in0.0 mm 0.00 in/hr0.0 mm/hr 0.08 in2.0 mm
05:54 PM 72.7°F22.6°C 64.7°F18.2°C 76% 5.0 mph E8.0 kmh E 7.6 mph12.2 kmh 28.97 in981.0 mb 0.00 in0.0 mm 0.00 in/hr0.0 mm/hr 0.08 in2.0 mm
05:53 PM 72.7°F22.6°C 64.7°F18.2°C 76% 5.3 mph E8.5 kmh E 9.2 mph14.8 kmh 28.98 in981.4 mb 0.00 in0.0 mm 0.00 in/hr0.0 mm/hr 0.08 in2.0 mm
05:52 PM 72.7°F22.6°C 64.7°F18.2°C 76% 5.6 mph E9.0 kmh E 9.2 mph14.8 kmh 28.97 in981.0 mb 0.00 in0.0 mm 0.00 in/hr0.0 mm/hr 0.08 in2.0 mm
05:51 PM 72.7°F22.6°C 64.7°F18.2°C 76% 6.0 mph E9.7 kmh E 9.2 mph14.8 kmh 28.97 in981.0 mb 0.00 in0.0 mm 0.00 in/hr0.0 mm/hr 0.08 in2.0 mm
05:50 PM 72.7°F22.6°C 64.7°F18.2°C 76% 6.1 mph E9.8 kmh E 9.2 mph14.8 kmh 28.97 in981.0 mb 0.00 in0.0 mm 0.00 in/hr0.0 mm/hr 0.08 in2.0 mm
05:49 PM 72.7°F22.6°C 64.7°F18.2°C 76% 6.3 mph E10.1 kmh E 9.2 mph14.8 kmh 28.97 in981.0 mb 0.00 in0.0 mm 0.00 in/hr0.0 mm/hr 0.08 in2.0 mm
05:48 PM 72.7°F22.6°C 64.7°F18.2°C 76% 6.4 mph E10.3 kmh E 9.2 mph14.8 kmh 28.97 in981.0 mb 0.00 in0.0 mm 0.00 in/hr0.0 mm/hr 0.08 in2.0 mm
05:47 PM 72.7°F22.6°C 64.7°F18.2°C 76% 6.4 mph E10.3 kmh E 9.2 mph14.8 kmh 28.97 in981.0 mb 0.00 in0.0 mm 0.00 in/hr0.0 mm/hr 0.08 in2.0 mm
05:46 PM 72.7°F22.6°C 64.7°F18.2°C 76% 6.4 mph E10.3 kmh E 9.2 mph14.8 kmh 28.97 in981.0 mb 0.00 in0.0 mm 0.00 in/hr0.0 mm/hr 0.08 in2.0 mm
05:45 PM 72.7°F22.6°C 64.7°F18.2°C 76% 6.7 mph E10.8 kmh E 9.2 mph14.8 kmh 28.97 in981.0 mb 0.00 in0.0 mm 0.00 in/hr0.0 mm/hr 0.08 in2.0 mm
05:44 PM 72.9°F22.7°C 64.5°F18.1°C 75% 7.2 mph E11.6 kmh E 9.2 mph14.8 kmh 28.97 in981.0 mb 0.00 in0.0 mm 0.00 in/hr0.0 mm/hr 0.08 in2.0 mm
05:43 PM 72.9°F22.7°C 64.5°F18.1°C 75% 7.1 mph E11.4 kmh E 9.2 mph14.8 kmh 28.97 in981.0 mb 0.00 in0.0 mm 0.00 in/hr0.0 mm/hr 0.08 in2.0 mm
05:42 PM 72.9°F22.7°C 64.5°F18.1°C 75% 7.1 mph ENE11.4 kmh ENE 9.8 mph15.8 kmh 28.97 in981.0 mb 0.00 in0.0 mm 0.00 in/hr0.0 mm/hr 0.08 in2.0 mm
05:41 PM 72.9°F22.7°C 64.5°F18.1°C 75% 7.3 mph ENE11.7 kmh ENE 10.7 mph17.2 kmh 28.97 in981.0 mb 0.00 in0.0 mm 0.00 in/hr0.0 mm/hr 0.08 in2.0 mm
05:40 PM 73.0°F22.8°C 64.7°F18.2°C 75% 7.4 mph ENE11.9 kmh ENE 10.7 mph17.2 kmh 28.97 in981.0 mb 0.00 in0.0 mm 0.00 in/hr0.0 mm/hr 0.08 in2.0 mm
05:39 PM 73.0°F22.8°C 64.7°F18.2°C 75% 7.4 mph ENE11.9 kmh ENE 10.7 mph17.2 kmh 28.97 in981.0 mb 0.00 in0.0 mm 0.00 in/hr0.0 mm/hr 0.08 in2.0 mm
05:38 PM 73.0°F22.8°C 64.7°F18.2°C 75% 7.3 mph NE11.7 kmh NE 10.7 mph17.2 kmh 28.97 in981.0 mb 0.00 in0.0 mm 0.00 in/hr0.0 mm/hr 0.08 in2.0 mm
05:37 PM 73.0°F22.8°C 64.7°F18.2°C 75% 7.4 mph NE11.9 kmh NE 10.7 mph17.2 kmh 28.97 in981.0 mb 0.00 in0.0 mm 0.00 in/hr0.0 mm/hr 0.08 in2.0 mm
05:36 PM 73.2°F22.9°C 64.9°F18.3°C 75% 7.7 mph ENE12.4 kmh ENE 10.7 mph17.2 kmh 28.97 in981.0 mb 0.00 in0.0 mm 0.00 in/hr0.0 mm/hr 0.08 in2.0 mm
05:35 PM 73.2°F22.9°C 64.5°F18.1°C 74% 7.9 mph E12.7 kmh E 10.7 mph17.2 kmh 28.97 in981.0 mb 0.00 in0.0 mm 0.00 in/hr0.0 mm/hr 0.08 in2.0 mm
05:34 PM 73.2°F22.9°C 64.5°F18.1°C 74% 7.7 mph E12.4 kmh E 10.7 mph17.2 kmh 28.97 in981.0 mb 0.00 in0.0 mm 0.00 in/hr0.0 mm/hr 0.08 in2.0 mm
05:33 PM 73.4°F23.0°C 64.6°F18.1°C 74% 7.5 mph E12.1 kmh E 10.7 mph17.2 kmh 28.97 in981.0 mb 0.00 in0.0 mm 0.00 in/hr0.0 mm/hr 0.08 in2.0 mm
05:32 PM 73.4°F23.0°C 64.6°F18.1°C 74% 7.2 mph E11.6 kmh E 10.7 mph17.2 kmh 28.96 in980.7 mb 0.00 in0.0 mm 0.00 in/hr0.0 mm/hr 0.08 in2.0 mm
05:31 PM 73.4°F23.0°C 64.6°F18.1°C 74% 7.0 mph E11.3 kmh E 9.8 mph15.8 kmh 28.97 in981.0 mb 0.00 in0.0 mm 0.00 in/hr0.0 mm/hr 0.08 in2.0 mm
05:30 PM 73.4°F23.0°C 64.6°F18.1°C 74% 7.2 mph E11.6 kmh E 9.8 mph15.8 kmh 28.97 in981.0 mb 0.00 in0.0 mm 0.00 in/hr0.0 mm/hr 0.08 in2.0 mm
05:29 PM 73.6°F23.1°C 64.8°F18.2°C 74% 7.5 mph E12.1 kmh E 10.7 mph17.2 kmh 28.97 in981.0 mb 0.00 in0.0 mm 0.00 in/hr0.0 mm/hr 0.08 in2.0 mm
05:28 PM 73.6°F23.1°C 64.8°F18.2°C 74% 7.5 mph E12.1 kmh E 10.7 mph17.2 kmh 28.97 in981.0 mb 0.00 in0.0 mm 0.00 in/hr0.0 mm/hr 0.08 in2.0 mm
05:27 PM 73.6°F23.1°C 64.8°F18.2°C 74% 7.5 mph E12.1 kmh E 10.7 mph17.2 kmh 28.97 in981.0 mb 0.00 in0.0 mm 0.00 in/hr0.0 mm/hr 0.08 in2.0 mm
05:26 PM 73.8°F23.2°C 65.0°F18.3°C 74% 7.5 mph E12.1 kmh E 10.7 mph17.2 kmh 28.97 in981.0 mb 0.00 in0.0 mm 0.00 in/hr0.0 mm/hr 0.08 in2.0 mm
05:25 PM 73.8°F23.2°C 65.0°F18.3°C 74% 7.2 mph E11.6 kmh E 10.7 mph17.2 kmh 28.96 in980.7 mb 0.00 in0.0 mm 0.00 in/hr0.0 mm/hr 0.08 in2.0 mm
05:24 PM 73.8°F23.2°C 65.0°F18.3°C 74% 7.3 mph ENE11.7 kmh ENE 10.7 mph17.2 kmh 28.97 in981.0 mb 0.00 in0.0 mm 0.00 in/hr0.0 mm/hr 0.08 in2.0 mm
05:23 PM 73.8°F23.2°C 65.0°F18.3°C 74% 7.3 mph E11.7 kmh E 10.7 mph17.2 kmh 28.97 in981.0 mb 0.00 in0.0 mm 0.00 in/hr0.0 mm/hr 0.08 in2.0 mm
05:22 PM 73.8°F23.2°C 65.0°F18.3°C 74% 7.4 mph E11.9 kmh E 10.7 mph17.2 kmh 28.97 in981.0 mb 0.00 in0.0 mm 0.00 in/hr0.0 mm/hr 0.08 in2.0 mm
05:21 PM 73.8°F23.2°C 64.6°F18.1°C 73% 7.4 mph E11.9 kmh E 10.7 mph17.2 kmh 28.96 in980.7 mb 0.00 in0.0 mm 0.00 in/hr0.0 mm/hr 0.08 in2.0 mm
05:20 PM 73.9°F23.3°C 64.8°F18.2°C 73% 7.1 mph E11.4 kmh E 10.7 mph17.2 kmh 28.96 in980.7 mb 0.00 in0.0 mm 0.00 in/hr0.0 mm/hr 0.08 in2.0 mm
05:19 PM 73.9°F23.3°C 64.8°F18.2°C 73% 6.9 mph E11.1 kmh E 9.2 mph14.8 kmh 28.96 in980.7 mb 0.00 in0.0 mm 0.00 in/hr0.0 mm/hr 0.08 in2.0 mm
05:18 PM 73.9°F23.3°C 64.8°F18.2°C 73% 6.8 mph E10.9 kmh E 9.2 mph14.8 kmh 28.96 in980.7 mb 0.00 in0.0 mm 0.00 in/hr0.0 mm/hr 0.08 in2.0 mm
05:17 PM 74.1°F23.4°C 64.9°F18.3°C 73% 6.8 mph E10.9 kmh E 9.2 mph14.8 kmh 28.96 in980.7 mb 0.00 in0.0 mm 0.00 in/hr0.0 mm/hr 0.08 in2.0 mm
05:16 PM 74.1°F23.4°C 64.9°F18.3°C 73% 6.7 mph E10.8 kmh E 9.2 mph14.8 kmh 28.96 in980.7 mb 0.00 in0.0 mm 0.00 in/hr0.0 mm/hr 0.08 in2.0 mm
05:15 PM 74.3°F23.5°C 65.1°F18.4°C 73% 6.4 mph E10.3 kmh E 9.2 mph14.8 kmh 28.96 in980.7 mb 0.00 in0.0 mm 0.00 in/hr0.0 mm/hr 0.08 in2.0 mm
05:14 PM 74.3°F23.5°C 65.1°F18.4°C 73% 6.2 mph E10.0 kmh E 8.3 mph13.4 kmh 28.96 in980.7 mb 0.00 in0.0 mm 0.00 in/hr0.0 mm/hr 0.08 in2.0 mm
05:13 PM 74.3°F23.5°C 65.1°F18.4°C 73% 6.3 mph E10.1 kmh E 9.2 mph14.8 kmh 28.96 in980.7 mb 0.00 in0.0 mm 0.00 in/hr0.0 mm/hr 0.08 in2.0 mm
05:12 PM 74.3°F23.5°C 65.5°F18.6°C 74% 6.4 mph E10.3 kmh E 9.2 mph14.8 kmh 28.96 in980.7 mb 0.00 in0.0 mm 0.00 in/hr0.0 mm/hr 0.08 in2.0 mm
05:11 PM 74.3°F23.5°C 65.1°F18.4°C 73% 6.3 mph E10.1 kmh E 9.2 mph14.8 kmh 28.96 in980.7 mb 0.00 in0.0 mm 0.00 in/hr0.0 mm/hr 0.08 in2.0 mm
05:10 PM 74.3°F23.5°C 65.5°F18.6°C 74% 6.5 mph E10.5 kmh E 9.2 mph14.8 kmh 28.96 in980.7 mb 0.00 in0.0 mm 0.00 in/hr0.0 mm/hr 0.08 in2.0 mm
05:09 PM 74.3°F23.5°C 65.5°F18.6°C 74% 6.4 mph E10.3 kmh E 9.2 mph14.8 kmh 28.96 in980.7 mb 0.00 in0.0 mm 0.00 in/hr0.0 mm/hr 0.08 in2.0 mm
05:08 PM 74.3°F23.5°C 65.5°F18.6°C 74% 6.2 mph ENE10.0 kmh ENE 9.2 mph14.8 kmh 28.96 in980.7 mb 0.00 in0.0 mm 0.00 in/hr0.0 mm/hr 0.08 in2.0 mm
05:07 PM 74.3°F23.5°C 65.5°F18.6°C 74% 6.2 mph E10.0 kmh E 9.2 mph14.8 kmh 28.96 in980.7 mb 0.00 in0.0 mm 0.00 in/hr0.0 mm/hr 0.08 in2.0 mm
05:06 PM 74.1°F23.4°C 65.7°F18.7°C 75% 6.2 mph E10.0 kmh E 9.2 mph14.8 kmh 28.96 in980.7 mb 0.00 in0.0 mm 0.00 in/hr0.0 mm/hr 0.08 in2.0 mm
05:05 PM 74.1°F23.4°C 65.3°F18.5°C 74% 6.2 mph E10.0 kmh E 9.2 mph14.8 kmh 28.96 in980.7 mb 0.00 in0.0 mm 0.00 in/hr0.0 mm/hr 0.08 in2.0 mm
05:04 PM 73.9°F23.3°C 65.2°F18.4°C 74% 6.6 mph ESE10.6 kmh ESE 12.1 mph19.5 kmh 28.96 in980.7 mb 0.00 in0.0 mm 0.00 in/hr0.0 mm/hr 0.08 in2.0 mm
05:03 PM 73.9°F23.3°C 65.2°F18.4°C 74% 6.7 mph ESE10.8 kmh ESE 12.1 mph19.5 kmh 28.96 in980.7 mb 0.00 in0.0 mm 0.00 in/hr0.0 mm/hr 0.08 in2.0 mm
05:02 PM 73.9°F23.3°C 65.2°F18.4°C 74% 6.6 mph E10.6 kmh E 12.1 mph19.5 kmh 28.96 in980.7 mb 0.00 in0.0 mm 0.00 in/hr0.0 mm/hr 0.08 in2.0 mm
05:01 PM 74.1°F23.4°C 65.3°F18.5°C 74% 6.6 mph E10.6 kmh E 12.1 mph19.5 kmh 28.96 in980.7 mb 0.00 in0.0 mm 0.00 in/hr0.0 mm/hr 0.08 in2.0 mm
05:00 PM 74.1°F23.4°C 65.3°F18.5°C 74% 6.7 mph ESE10.8 kmh ESE 12.1 mph19.5 kmh 28.96 in980.7 mb 0.00 in0.0 mm 0.00 in/hr0.0 mm/hr 0.08 in2.0 mm
04:59 PM 74.3°F23.5°C 65.5°F18.6°C 74% 6.8 mph ESE10.9 kmh ESE 12.1 mph19.5 kmh 28.96 in980.7 mb 0.00 in0.0 mm 0.00 in/hr0.0 mm/hr 0.08 in2.0 mm
04:58 PM 74.3°F23.5°C 65.5°F18.6°C 74% 7.3 mph SE11.7 kmh SE 12.1 mph19.5 kmh 28.96 in980.7 mb 0.00 in0.0 mm 0.00 in/hr0.0 mm/hr 0.08 in2.0 mm
04:57 PM 74.3°F23.5°C 65.1°F18.4°C 73% 7.5 mph SE12.1 kmh SE 12.1 mph19.5 kmh 28.96 in980.7 mb 0.00 in0.0 mm 0.00 in/hr0.0 mm/hr 0.08 in2.0 mm
04:56 PM 74.3°F23.5°C 65.5°F18.6°C 74% 7.5 mph SE12.1 kmh SE 12.1 mph19.5 kmh 28.96 in980.7 mb 0.00 in0.0 mm 0.00 in/hr0.0 mm/hr 0.08 in2.0 mm
04:55 PM 74.3°F23.5°C 65.5°F18.6°C 74% 8.1 mph SE13.0 kmh SE 14.5 mph23.3 kmh 28.96 in980.7 mb 0.00 in0.0 mm 0.00 in/hr0.0 mm/hr 0.08 in2.0 mm
04:54 PM 74.3°F23.5°C 65.5°F18.6°C 74% 8.4 mph SE13.5 kmh SE 14.5 mph23.3 kmh 28.96 in980.7 mb 0.00 in0.0 mm 0.00 in/hr0.0 mm/hr 0.08 in2.0 mm
04:53 PM 74.3°F23.5°C 65.1°F18.4°C 73% 8.5 mph SE13.7 kmh SE 14.5 mph23.3 kmh 28.96 in980.7 mb 0.00 in0.0 mm 0.00 in/hr0.0 mm/hr 0.08 in2.0 mm
04:52 PM 74.3°F23.5°C 65.1°F18.4°C 73% 8.8 mph SE14.2 kmh SE 14.5 mph23.3 kmh 28.96 in980.7 mb 0.00 in0.0 mm 0.00 in/hr0.0 mm/hr 0.08 in2.0 mm
04:51 PM 74.3°F23.5°C 65.1°F18.4°C 73% 9.2 mph SE14.8 kmh SE 14.5 mph23.3 kmh 28.96 in980.7 mb 0.00 in0.0 mm 0.00 in/hr0.0 mm/hr 0.08 in2.0 mm
04:50 PM 74.3°F23.5°C 65.1°F18.4°C 73% 9.4 mph SE15.1 kmh SE 14.5 mph23.3 kmh 28.96 in980.7 mb 0.00 in0.0 mm 0.00 in/hr0.0 mm/hr 0.08 in2.0 mm
04:49 PM 74.3°F23.5°C 65.1°F18.4°C 73% 9.6 mph SE15.4 kmh SE 14.5 mph23.3 kmh 28.96 in980.7 mb 0.00 in0.0 mm 0.00 in/hr0.0 mm/hr 0.08 in2.0 mm
04:48 PM 74.3°F23.5°C 65.1°F18.4°C 73% 9.8 mph SE15.8 kmh SE 14.5 mph23.3 kmh 28.96 in980.7 mb 0.00 in0.0 mm 0.00 in/hr0.0 mm/hr 0.08 in2.0 mm
04:47 PM 74.3°F23.5°C 65.1°F18.4°C 73% 9.9 mph SE15.9 kmh SE 14.5 mph23.3 kmh 28.96 in980.7 mb 0.00 in0.0 mm 0.00 in/hr0.0 mm/hr 0.08 in2.0 mm
04:46 PM 74.5°F23.6°C 65.3°F18.5°C 73% 10.1 mph SE16.3 kmh SE 14.5 mph23.3 kmh 28.96 in980.7 mb 0.00 in0.0 mm 0.00 in/hr0.0 mm/hr 0.08 in2.0 mm
04:45 PM 74.5°F23.6°C 65.3°F18.5°C 73% 10.0 mph SE16.1 kmh SE 14.5 mph23.3 kmh 28.95 in980.4 mb 0.00 in0.0 mm 0.00 in/hr0.0 mm/hr 0.08 in2.0 mm
04:44 PM 74.5°F23.6°C 64.9°F18.3°C 72% 9.8 mph SE15.8 kmh SE 9.8 mph15.8 kmh 28.96 in980.7 mb 0.00 in0.0 mm 0.00 in/hr0.0 mm/hr 0.08 in2.0 mm
04:43 PM 74.5°F23.6°C 64.9°F18.3°C 72% 9.8 mph SE15.8 kmh SE 9.8 mph15.8 kmh 28.96 in980.7 mb 0.00 in0.0 mm 0.00 in/hr0.0 mm/hr 0.08 in2.0 mm
04:42 PM 74.5°F23.6°C 64.9°F18.3°C 72% 9.8 mph SE15.8 kmh SE 9.8 mph15.8 kmh 28.96 in980.7 mb 0.00 in0.0 mm 0.00 in/hr0.0 mm/hr 0.08 in2.0 mm
04:41 PM 74.5°F23.6°C 64.9°F18.3°C 72% 9.8 mph ESE15.8 kmh ESE 9.8 mph15.8 kmh 28.95 in980.4 mb 0.00 in0.0 mm 0.00 in/hr0.0 mm/hr 0.08 in2.0 mm
04:40 PM 74.7°F23.7°C 65.5°F18.6°C 73% 9.8 mph E15.8 kmh E 9.8 mph15.8 kmh 28.96 in980.7 mb 0.00 in0.0 mm 0.00 in/hr0.0 mm/hr 0.08 in2.0 mm
04:39 PM 74.7°F23.7°C 65.5°F18.6°C 73% 9.8 mph E15.8 kmh E 9.8 mph15.8 kmh 28.96 in980.7 mb 0.00 in0.0 mm 0.00 in/hr0.0 mm/hr 0.08 in2.0 mm
04:38 PM 74.7°F23.7°C 65.5°F18.6°C 73% 9.8 mph E15.8 kmh E 9.8 mph15.8 kmh 28.96 in980.7 mb 0.00 in0.0 mm 0.00 in/hr0.0 mm/hr 0.08 in2.0 mm
04:37 PM 74.7°F23.7°C 65.5°F18.6°C 73% 9.8 mph ENE15.8 kmh ENE 11.4 mph18.3 kmh 28.96 in980.7 mb 0.00 in0.0 mm 0.00 in/hr0.0 mm/hr 0.08 in2.0 mm
04:36 PM 74.7°F23.7°C 65.5°F18.6°C 73% 10.0 mph ENE16.1 kmh ENE 11.4 mph18.3 kmh 28.96 in980.7 mb 0.00 in0.0 mm 0.00 in/hr0.0 mm/hr 0.08 in2.0 mm
04:35 PM 74.7°F23.7°C 65.5°F18.6°C 73% 10.1 mph ENE16.3 kmh ENE 11.4 mph18.3 kmh 28.96 in980.7 mb 0.00 in0.0 mm 0.00 in/hr0.0 mm/hr 0.08 in2.0 mm
04:34 PM 74.7°F23.7°C 65.5°F18.6°C 73% 10.1 mph NE16.3 kmh NE 11.4 mph18.3 kmh 28.96 in980.7 mb 0.00 in0.0 mm 0.00 in/hr0.0 mm/hr 0.08 in2.0 mm
04:33 PM 74.7°F23.7°C 65.1°F18.4°C 72% 10.2 mph ENE16.4 kmh ENE 13.6 mph21.9 kmh 28.96 in980.7 mb 0.00 in0.0 mm 0.00 in/hr0.0 mm/hr 0.08 in2.0 mm
04:32 PM 74.7°F23.7°C 65.1°F18.4°C 72% 10.3 mph ENE16.6 kmh ENE 13.6 mph21.9 kmh 28.96 in980.7 mb 0.00 in0.0 mm 0.00 in/hr0.0 mm/hr 0.08 in2.0 mm
04:31 PM 74.7°F23.7°C 65.1°F18.4°C 72% 10.1 mph ENE16.3 kmh ENE 13.6 mph21.9 kmh 28.96 in980.7 mb 0.00 in0.0 mm 0.00 in/hr0.0 mm/hr 0.08 in2.0 mm
04:30 PM 74.7°F23.7°C 65.1°F18.4°C 72% 9.8 mph ENE15.8 kmh ENE 13.6 mph21.9 kmh 28.96 in980.7 mb 0.00 in0.0 mm 0.00 in/hr0.0 mm/hr 0.08 in2.0 mm
04:29 PM 74.7°F23.7°C 65.1°F18.4°C 72% 9.6 mph E15.4 kmh E 13.6 mph21.9 kmh 28.96 in980.7 mb 0.00 in0.0 mm 0.00 in/hr0.0 mm/hr 0.08 in2.0 mm
04:28 PM 74.7°F23.7°C 65.1°F18.4°C 72% 9.3 mph E15.0 kmh E 13.6 mph21.9 kmh 28.96 in980.7 mb 0.00 in0.0 mm 0.00 in/hr0.0 mm/hr 0.08 in2.0 mm
04:27 PM 74.7°F23.7°C 65.1°F18.4°C 72% 8.8 mph E14.2 kmh E 13.6 mph21.9 kmh 28.96 in980.7 mb 0.00 in0.0 mm 0.00 in/hr0.0 mm/hr 0.08 in2.0 mm
04:26 PM 74.7°F23.7°C 65.5°F18.6°C 73% 8.7 mph E14.0 kmh E 13.6 mph21.9 kmh 28.97 in981.0 mb 0.00 in0.0 mm 0.00 in/hr0.0 mm/hr 0.08 in2.0 mm
04:25 PM 74.7°F23.7°C 65.5°F18.6°C 73% 8.8 mph ENE14.2 kmh ENE 13.6 mph21.9 kmh 28.96 in980.7 mb 0.00 in0.0 mm 0.00 in/hr0.0 mm/hr 0.08 in2.0 mm
04:24 PM 74.7°F23.7°C 65.5°F18.6°C 73% 8.7 mph ENE14.0 kmh ENE 13.6 mph21.9 kmh 28.96 in980.7 mb 0.00 in0.0 mm 0.00 in/hr0.0 mm/hr 0.08 in2.0 mm
04:23 PM 74.7°F23.7°C 65.5°F18.6°C 73% 8.5 mph E13.7 kmh E 13.6 mph21.9 kmh 28.96 in980.7 mb 0.00 in0.0 mm 0.00 in/hr0.0 mm/hr 0.08 in2.0 mm
04:22 PM 74.5°F23.6°C 65.7°F18.7°C 74% 8.2 mph E13.2 kmh E 12.1 mph19.5 kmh 28.97 in981.0 mb 0.00 in0.0 mm 0.00 in/hr0.0 mm/hr 0.08 in2.0 mm
04:21 PM 74.5°F23.6°C 65.7°F18.7°C 74% 8.2 mph E13.2 kmh E 12.1 mph19.5 kmh 28.97 in981.0 mb 0.00 in0.0 mm 0.00 in/hr0.0 mm/hr 0.08 in2.0 mm
04:20 PM 74.5°F23.6°C 65.7°F18.7°C 74% 8.6 mph E13.8 kmh E 12.1 mph19.5 kmh 28.96 in980.7 mb 0.00 in0.0 mm 0.00 in/hr0.0 mm/hr 0.08 in2.0 mm
04:19 PM 74.5°F23.6°C 65.7°F18.7°C 74% 8.6 mph E13.8 kmh E 12.1 mph19.5 kmh 28.96 in980.7 mb 0.00 in0.0 mm 0.00 in/hr0.0 mm/hr 0.08 in2.0 mm
04:18 PM 74.3°F23.5°C 65.5°F18.6°C 74% 8.4 mph E13.5 kmh E 12.1 mph19.5 kmh 28.96 in980.7 mb 0.00 in0.0 mm 0.00 in/hr0.0 mm/hr 0.08 in2.0 mm
04:17 PM 74.3°F23.5°C 65.5°F18.6°C 74% 8.3 mph E13.4 kmh E 12.1 mph19.5 kmh 28.96 in980.7 mb 0.00 in0.0 mm 0.00 in/hr0.0 mm/hr 0.08 in2.0 mm
04:16 PM 74.3°F23.5°C 65.5°F18.6°C 74% 7.7 mph ESE12.4 kmh ESE 12.1 mph19.5 kmh 28.96 in980.7 mb 0.00 in0.0 mm 0.00 in/hr0.0 mm/hr 0.08 in2.0 mm
04:15 PM 74.3°F23.5°C 65.5°F18.6°C 74% 7.2 mph SE11.6 kmh SE 12.1 mph19.5 kmh 28.96 in980.7 mb 0.00 in0.0 mm 0.00 in/hr0.0 mm/hr 0.08 in2.0 mm
04:14 PM 74.3°F23.5°C 65.9°F18.8°C 75% 7.2 mph SE11.6 kmh SE 12.1 mph19.5 kmh 28.97 in981.0 mb 0.00 in0.0 mm 0.00 in/hr0.0 mm/hr 0.08 in2.0 mm
04:13 PM 74.3°F23.5°C 65.9°F18.8°C 75% 7.2 mph ESE11.6 kmh ESE 12.1 mph19.5 kmh 28.96 in980.7 mb 0.00 in0.0 mm 0.00 in/hr0.0 mm/hr 0.08 in2.0 mm
04:12 PM 74.1°F23.4°C 65.7°F18.7°C 75% 7.1 mph ESE11.4 kmh ESE 12.1 mph19.5 kmh 28.96 in980.7 mb 0.00 in0.0 mm 0.00 in/hr0.0 mm/hr 0.08 in2.0 mm
04:11 PM 74.1°F23.4°C 65.7°F18.7°C 75% 6.9 mph ESE11.1 kmh ESE 12.1 mph19.5 kmh 28.97 in981.0 mb 0.00 in0.0 mm 0.00 in/hr0.0 mm/hr 0.08 in2.0 mm
04:10 PM 74.1°F23.4°C 65.7°F18.7°C 75% 6.1 mph ESE9.8 kmh ESE 12.1 mph19.5 kmh 28.97 in981.0 mb 0.00 in0.0 mm 0.00 in/hr0.0 mm/hr 0.08 in2.0 mm
04:09 PM 74.1°F23.4°C 65.7°F18.7°C 75% 5.8 mph ESE9.3 kmh ESE 9.8 mph15.8 kmh 28.97 in981.0 mb 0.00 in0.0 mm 0.00 in/hr0.0 mm/hr 0.08 in2.0 mm
04:08 PM 74.1°F23.4°C 65.7°F18.7°C 75% 6.0 mph E9.7 kmh E 9.8 mph15.8 kmh 28.97 in981.0 mb 0.00 in0.0 mm 0.00 in/hr0.0 mm/hr 0.08 in2.0 mm
04:07 PM 74.1°F23.4°C 65.7°F18.7°C 75% 6.3 mph E10.1 kmh E 9.8 mph15.8 kmh 28.97 in981.0 mb 0.00 in0.0 mm 0.00 in/hr0.0 mm/hr 0.08 in2.0 mm
04:06 PM 74.1°F23.4°C 65.7°F18.7°C 75% 6.3 mph ESE10.1 kmh ESE 9.8 mph15.8 kmh 28.96 in980.7 mb 0.00 in0.0 mm 0.00 in/hr0.0 mm/hr 0.08 in2.0 mm
04:05 PM 74.1°F23.4°C 65.7°F18.7°C 75% 6.3 mph ESE10.1 kmh ESE 9.8 mph15.8 kmh 28.97 in981.0 mb 0.00 in0.0 mm 0.00 in/hr0.0 mm/hr 0.08 in2.0 mm
04:04 PM 73.9°F23.3°C 65.9°F18.8°C 76% 6.1 mph ESE9.8 kmh ESE 7.6 mph12.2 kmh 28.97 in981.0 mb 0.00 in0.0 mm 0.00 in/hr0.0 mm/hr 0.08 in2.0 mm
04:03 PM 73.9°F23.3°C 65.9°F18.8°C 76% 6.2 mph SE10.0 kmh SE 9.8 mph15.8 kmh 28.97 in981.0 mb 0.00 in0.0 mm 0.00 in/hr0.0 mm/hr 0.08 in2.0 mm
04:02 PM 73.8°F23.2°C 65.8°F18.8°C 76% 6.3 mph ESE10.1 kmh ESE 9.8 mph15.8 kmh 28.97 in981.0 mb 0.00 in0.0 mm 0.00 in/hr0.0 mm/hr 0.08 in2.0 mm
04:01 PM 73.8°F23.2°C 65.8°F18.8°C 76% 6.8 mph E10.9 kmh E 11.4 mph18.3 kmh 28.97 in981.0 mb 0.00 in0.0 mm 0.00 in/hr0.0 mm/hr 0.08 in2.0 mm
04:00 PM 73.6°F23.1°C 65.6°F18.7°C 76% 7.3 mph E11.7 kmh E 11.4 mph18.3 kmh 28.97 in981.0 mb 0.00 in0.0 mm 0.00 in/hr0.0 mm/hr 0.08 in2.0 mm
03:59 PM 73.6°F23.1°C 65.6°F18.7°C 76% 7.8 mph E12.6 kmh E 11.4 mph18.3 kmh 28.97 in981.0 mb 0.00 in0.0 mm 0.00 in/hr0.0 mm/hr 0.08 in2.0 mm
03:58 PM 73.6°F23.1°C 65.2°F18.4°C 75% 8.0 mph ENE12.9 kmh ENE 11.4 mph18.3 kmh 28.97 in981.0 mb 0.00 in0.0 mm 0.00 in/hr0.0 mm/hr 0.08 in2.0 mm
03:57 PM 73.6°F23.1°C 65.2°F18.4°C 75% 8.1 mph ENE13.0 kmh ENE 11.4 mph18.3 kmh 28.97 in981.0 mb 0.00 in0.0 mm 0.00 in/hr0.0 mm/hr 0.08 in2.0 mm
03:56 PM 73.6°F23.1°C 64.8°F18.2°C 74% 8.1 mph NE13.0 kmh NE 11.4 mph18.3 kmh 28.97 in981.0 mb 0.00 in0.0 mm 0.00 in/hr0.0 mm/hr 0.08 in2.0 mm
03:55 PM 73.6°F23.1°C 64.8°F18.2°C 74% 8.0 mph NE12.9 kmh NE 11.4 mph18.3 kmh 28.97 in981.0 mb 0.00 in0.0 mm 0.00 in/hr0.0 mm/hr 0.08 in2.0 mm
03:54 PM 73.6°F23.1°C 64.8°F18.2°C 74% 8.2 mph NE13.2 kmh NE 11.4 mph18.3 kmh 28.97 in981.0 mb 0.00 in0.0 mm 0.00 in/hr0.0 mm/hr 0.08 in2.0 mm
03:53 PM 73.6°F23.1°C 64.8°F18.2°C 74% 8.2 mph NE13.2 kmh NE 11.4 mph18.3 kmh 28.97 in981.0 mb 0.00 in0.0 mm 0.00 in/hr0.0 mm/hr 0.08 in2.0 mm
03:52 PM 73.8°F23.2°C 65.0°F18.3°C 74% 8.1 mph NE13.0 kmh NE 11.4 mph18.3 kmh 28.97 in981.0 mb 0.00 in0.0 mm 0.00 in/hr0.0 mm/hr 0.08 in2.0 mm
03:51 PM 73.9°F23.3°C 65.2°F18.4°C 74% 7.7 mph NE12.4 kmh NE 10.7 mph17.2 kmh 28.97 in981.0 mb 0.00 in0.0 mm 0.00 in/hr0.0 mm/hr 0.08 in2.0 mm
03:50 PM 73.8°F23.2°C 65.0°F18.3°C 74% 7.5 mph NE12.1 kmh NE 10.7 mph17.2 kmh 28.97 in981.0 mb 0.00 in0.0 mm 0.00 in/hr0.0 mm/hr 0.08 in2.0 mm
03:49 PM 73.9°F23.3°C 65.2°F18.4°C 74% 7.6 mph ENE12.2 kmh ENE 10.7 mph17.2 kmh 28.97 in981.0 mb 0.00 in0.0 mm 0.00 in/hr0.0 mm/hr 0.08 in2.0 mm
03:48 PM 74.1°F23.4°C 64.9°F18.3°C 73% 7.8 mph E12.6 kmh E 10.7 mph17.2 kmh 28.97 in981.0 mb 0.00 in0.0 mm 0.00 in/hr0.0 mm/hr 0.08 in2.0 mm
03:47 PM 74.3°F23.5°C 64.7°F18.2°C 72% 7.9 mph E12.7 kmh E 10.7 mph17.2 kmh 28.97 in981.0 mb 0.00 in0.0 mm 0.00 in/hr0.0 mm/hr 0.08 in2.0 mm
03:46 PM 74.3°F23.5°C 64.3°F17.9°C 71% 8.4 mph ESE13.5 kmh ESE 11.4 mph18.3 kmh 28.97 in981.0 mb 0.00 in0.0 mm 0.00 in/hr0.0 mm/hr 0.08 in2.0 mm
03:45 PM 74.5°F23.6°C 64.5°F18.1°C 71% 8.6 mph SE13.8 kmh SE 11.4 mph18.3 kmh 28.97 in981.0 mb 0.00 in0.0 mm 0.00 in/hr0.0 mm/hr 0.08 in2.0 mm
03:44 PM 74.8°F23.8°C 64.8°F18.2°C 71% 8.5 mph SE13.7 kmh SE 11.4 mph18.3 kmh 28.97 in981.0 mb 0.00 in0.0 mm 0.00 in/hr0.0 mm/hr 0.08 in2.0 mm
03:43 PM 75.0°F23.9°C 64.6°F18.1°C 70% 8.6 mph SE13.8 kmh SE 11.4 mph18.3 kmh 28.97 in981.0 mb 0.00 in0.0 mm 0.00 in/hr0.0 mm/hr 0.08 in2.0 mm
03:42 PM 75.2°F24.0°C 64.8°F18.2°C 70% 8.8 mph SE14.2 kmh SE 11.4 mph18.3 kmh 28.97 in981.0 mb 0.00 in0.0 mm 0.00 in/hr0.0 mm/hr 0.08 in2.0 mm
03:41 PM 75.2°F24.0°C 64.8°F18.2°C 70% 8.8 mph SE14.2 kmh SE 11.4 mph18.3 kmh 28.97 in981.0 mb 0.00 in0.0 mm 0.00 in/hr0.0 mm/hr 0.08 in2.0 mm
03:40 PM 75.4°F24.1°C 64.5°F18.1°C 69% 9.0 mph SE14.5 kmh SE 11.4 mph18.3 kmh 28.97 in981.0 mb 0.00 in0.0 mm 0.00 in/hr0.0 mm/hr 0.08 in2.0 mm
03:39 PM 75.7°F24.3°C 64.9°F18.3°C 69% 9.1 mph SE14.6 kmh SE 11.4 mph18.3 kmh 28.97 in981.0 mb 0.00 in0.0 mm 0.00 in/hr0.0 mm/hr 0.08 in2.0 mm
03:38 PM 75.7°F24.3°C 64.9°F18.3°C 69% 8.9 mph SE14.3 kmh SE 11.4 mph18.3 kmh 28.97 in981.0 mb 0.00 in0.0 mm 0.00 in/hr0.0 mm/hr 0.08 in2.0 mm
03:37 PM 75.9°F24.4°C 64.6°F18.1°C 68% 9.3 mph SE15.0 kmh SE 13.6 mph21.9 kmh 28.97 in981.0 mb 0.00 in0.0 mm 0.00 in/hr0.0 mm/hr 0.08 in2.0 mm
03:36 PM 76.1°F24.5°C 64.8°F18.2°C 68% 9.2 mph SE14.8 kmh SE 13.6 mph21.9 kmh 28.97 in981.0 mb 0.00 in0.0 mm 0.00 in/hr0.0 mm/hr 0.08 in2.0 mm
03:35 PM 76.3°F24.6°C 64.6°F18.1°C 67% 9.6 mph ESE15.4 kmh ESE 13.6 mph21.9 kmh 28.97 in981.0 mb 0.00 in0.0 mm 0.00 in/hr0.0 mm/hr 0.08 in2.0 mm
03:34 PM 76.5°F24.7°C 64.3°F17.9°C 66% 9.4 mph ESE15.1 kmh ESE 13.6 mph21.9 kmh 28.97 in981.0 mb 0.00 in0.0 mm 0.00 in/hr0.0 mm/hr 0.08 in2.0 mm
03:33 PM 76.6°F24.8°C 64.5°F18.1°C 66% 9.2 mph ESE14.8 kmh ESE 13.6 mph21.9 kmh 28.97 in981.0 mb 0.00 in0.0 mm 0.00 in/hr0.0 mm/hr 0.08 in2.0 mm
03:32 PM 77.0°F25.0°C 64.4°F18.0°C 65% 9.0 mph ESE14.5 kmh ESE 13.6 mph21.9 kmh 28.97 in981.0 mb 0.00 in0.0 mm 0.00 in/hr0.0 mm/hr 0.08 in2.0 mm
03:31 PM 77.2°F25.1°C 64.5°F18.1°C 65% 9.0 mph ESE14.5 kmh ESE 13.6 mph21.9 kmh 28.97 in981.0 mb 0.00 in0.0 mm 0.00 in/hr0.0 mm/hr 0.08 in2.0 mm
03:30 PM 77.2°F25.1°C 64.5°F18.1°C 65% 9.2 mph ESE14.8 kmh ESE 13.6 mph21.9 kmh 28.97 in981.0 mb 0.00 in0.0 mm 0.00 in/hr0.0 mm/hr 0.08 in2.0 mm
03:29 PM 77.4°F25.2°C 64.7°F18.2°C 65% 9.0 mph E14.5 kmh E 13.6 mph21.9 kmh 28.97 in981.0 mb 0.00 in0.0 mm 0.00 in/hr0.0 mm/hr 0.08 in2.0 mm
03:28 PM 77.5°F25.3°C 64.9°F18.3°C 65% 9.0 mph E14.5 kmh E 13.6 mph21.9 kmh 28.97 in981.0 mb 0.00 in0.0 mm 0.00 in/hr0.0 mm/hr 0.08 in2.0 mm
03:27 PM 77.5°F25.3°C 64.9°F18.3°C 65% 8.7 mph E14.0 kmh E 13.0 mph20.9 kmh 28.97 in981.0 mb 0.00 in0.0 mm 0.00 in/hr0.0 mm/hr 0.08 in2.0 mm
03:26 PM 77.7°F25.4°C 64.6°F18.1°C 64% 8.6 mph E13.8 kmh E 13.0 mph20.9 kmh 28.97 in981.0 mb 0.00 in0.0 mm 0.00 in/hr0.0 mm/hr 0.08 in2.0 mm
03:25 PM 77.7°F25.4°C 65.1°F18.4°C 65% 8.4 mph ESE13.5 kmh ESE 9.8 mph15.8 kmh 28.97 in981.0 mb 0.00 in0.0 mm 0.00 in/hr0.0 mm/hr 0.08 in2.0 mm
03:24 PM 77.7°F25.4°C 64.6°F18.1°C 64% 8.4 mph SE13.5 kmh SE 9.8 mph15.8 kmh 28.97 in981.0 mb 0.00 in0.0 mm 0.00 in/hr0.0 mm/hr 0.08 in2.0 mm
03:23 PM 77.7°F25.4°C 64.6°F18.1°C 64% 8.3 mph ESE13.4 kmh ESE 9.8 mph15.8 kmh 28.97 in981.0 mb 0.00 in0.0 mm 0.00 in/hr0.0 mm/hr 0.08 in2.0 mm
03:22 PM 77.7°F25.4°C 64.6°F18.1°C 64% 8.1 mph ESE13.0 kmh ESE 9.8 mph15.8 kmh 28.96 in980.7 mb 0.00 in0.0 mm 0.00 in/hr0.0 mm/hr 0.08 in2.0 mm
03:21 PM 77.7°F25.4°C 64.6°F18.1°C 64% 8.1 mph SE13.0 kmh SE 9.8 mph15.8 kmh 28.97 in981.0 mb 0.00 in0.0 mm 0.00 in/hr0.0 mm/hr 0.08 in2.0 mm
03:20 PM 77.7°F25.4°C 64.6°F18.1°C 64% 7.9 mph ESE12.7 kmh ESE 9.8 mph15.8 kmh 28.97 in981.0 mb 0.00 in0.0 mm 0.00 in/hr0.0 mm/hr 0.08 in2.0 mm
03:19 PM 77.9°F25.5°C 64.8°F18.2°C 64% 7.6 mph SE12.2 kmh SE 9.8 mph15.8 kmh 28.97 in981.0 mb 0.00 in0.0 mm 0.00 in/hr0.0 mm/hr 0.08 in2.0 mm
03:18 PM 77.9°F25.5°C 65.2°F18.4°C 65% 7.6 mph SE12.2 kmh SE 9.8 mph15.8 kmh 28.97 in981.0 mb 0.00 in0.0 mm 0.00 in/hr0.0 mm/hr 0.08 in2.0 mm
03:17 PM 77.9°F25.5°C 65.2°F18.4°C 65% 7.5 mph SE12.1 kmh SE 9.8 mph15.8 kmh 28.96 in980.7 mb 0.00 in0.0 mm 0.00 in/hr0.0 mm/hr 0.08 in2.0 mm
03:16 PM 77.9°F25.5°C 65.2°F18.4°C 65% 7.2 mph ESE11.6 kmh ESE 9.8 mph15.8 kmh 28.96 in980.7 mb 0.00 in0.0 mm 0.00 in/hr0.0 mm/hr 0.08 in2.0 mm
03:15 PM 77.9°F25.5°C 65.2°F18.4°C 65% 7.1 mph E11.4 kmh E 9.2 mph14.8 kmh 28.96 in980.7 mb 0.00 in0.0 mm 0.00 in/hr0.0 mm/hr 0.08 in2.0 mm
03:14 PM 77.9°F25.5°C 65.2°F18.4°C 65% 7.0 mph E11.3 kmh E 9.2 mph14.8 kmh 28.96 in980.7 mb 0.00 in0.0 mm 0.00 in/hr0.0 mm/hr 0.08 in2.0 mm
03:13 PM 77.9°F25.5°C 65.7°F18.7°C 66% 7.1 mph ESE11.4 kmh ESE 9.2 mph14.8 kmh 28.96 in980.7 mb 0.00 in0.0 mm 0.00 in/hr0.0 mm/hr 0.08 in2.0 mm
03:12 PM 77.9°F25.5°C 65.7°F18.7°C 66% 7.3 mph ESE11.7 kmh ESE 9.2 mph14.8 kmh 28.96 in980.7 mb 0.00 in0.0 mm 0.00 in/hr0.0 mm/hr 0.08 in2.0 mm
03:11 PM 77.9°F25.5°C 65.2°F18.4°C 65% 7.4 mph E11.9 kmh E 9.2 mph14.8 kmh 28.96 in980.7 mb 0.00 in0.0 mm 0.00 in/hr0.0 mm/hr 0.08 in2.0 mm
03:10 PM 77.9°F25.5°C 65.2°F18.4°C 65% 7.5 mph E12.1 kmh E 9.2 mph14.8 kmh 28.96 in980.7 mb 0.00 in0.0 mm 0.00 in/hr0.0 mm/hr 0.08 in2.0 mm
03:09 PM 77.9°F25.5°C 65.2°F18.4°C 65% 7.5 mph E12.1 kmh E 9.2 mph14.8 kmh 28.96 in980.7 mb 0.00 in0.0 mm 0.00 in/hr0.0 mm/hr 0.08 in2.0 mm
03:08 PM 77.9°F25.5°C 65.2°F18.4°C 65% 7.7 mph ESE12.4 kmh ESE 10.7 mph17.2 kmh 28.96 in980.7 mb 0.00 in0.0 mm 0.00 in/hr0.0 mm/hr 0.08 in2.0 mm
03:07 PM 77.9°F25.5°C 64.8°F18.2°C 64% 7.7 mph ESE12.4 kmh ESE 10.7 mph17.2 kmh 28.96 in980.7 mb 0.00 in0.0 mm 0.00 in/hr0.0 mm/hr 0.08 in2.0 mm
03:06 PM 78.1°F25.6°C 65.0°F18.3°C 64% 8.0 mph ESE12.9 kmh ESE 10.7 mph17.2 kmh 28.97 in981.0 mb 0.00 in0.0 mm 0.00 in/hr0.0 mm/hr 0.08 in2.0 mm
03:05 PM 78.1°F25.6°C 65.0°F18.3°C 64% 8.4 mph SE13.5 kmh SE 12.1 mph19.5 kmh 28.96 in980.7 mb 0.00 in0.0 mm 0.00 in/hr0.0 mm/hr 0.08 in2.0 mm
03:04 PM 78.3°F25.7°C 65.1°F18.4°C 64% 8.9 mph SE14.3 kmh SE 12.1 mph19.5 kmh 28.96 in980.7 mb 0.00 in0.0 mm 0.00 in/hr0.0 mm/hr 0.08 in2.0 mm
03:03 PM 78.4°F25.8°C 65.3°F18.5°C 64% 8.9 mph ESE14.3 kmh ESE 12.1 mph19.5 kmh 28.96 in980.7 mb 0.00 in0.0 mm 0.00 in/hr0.0 mm/hr 0.08 in2.0 mm
03:02 PM 78.4°F25.8°C 65.3°F18.5°C 64% 8.8 mph ESE14.2 kmh ESE 12.1 mph19.5 kmh 28.97 in981.0 mb 0.00 in0.0 mm 0.00 in/hr0.0 mm/hr 0.08 in2.0 mm
03:01 PM 78.4°F25.8°C 64.8°F18.2°C 63% 8.7 mph ESE14.0 kmh ESE 12.1 mph19.5 kmh 28.96 in980.7 mb 0.00 in0.0 mm 0.00 in/hr0.0 mm/hr 0.08 in2.0 mm
03:00 PM 78.4°F25.8°C 64.8°F18.2°C 63% 8.7 mph ESE14.0 kmh ESE 12.1 mph19.5 kmh 28.97 in981.0 mb 0.00 in0.0 mm 0.00 in/hr0.0 mm/hr 0.08 in2.0 mm
02:59 PM 78.6°F25.9°C 65.0°F18.3°C 63% 8.7 mph E14.0 kmh E 12.1 mph19.5 kmh 28.97 in981.0 mb 0.00 in0.0 mm 0.00 in/hr0.0 mm/hr 0.08 in2.0 mm
02:58 PM 78.6°F25.9°C 65.0°F18.3°C 63% 8.8 mph E14.2 kmh E 12.1 mph19.5 kmh 28.97 in981.0 mb 0.00 in0.0 mm 0.00 in/hr0.0 mm/hr 0.08 in2.0 mm
02:57 PM 78.6°F25.9°C 64.6°F18.1°C 62% 8.6 mph E13.8 kmh E 12.1 mph19.5 kmh 28.97 in981.0 mb 0.00 in0.0 mm 0.00 in/hr0.0 mm/hr 0.08 in2.0 mm
02:56 PM 78.8°F26.0°C 64.7°F18.2°C 62% 8.5 mph E13.7 kmh E 12.1 mph19.5 kmh 28.97 in981.0 mb 0.00 in0.0 mm 0.00 in/hr0.0 mm/hr 0.08 in2.0 mm
02:55 PM 78.8°F26.0°C 64.7°F18.2°C 62% 8.2 mph E13.2 kmh E 10.7 mph17.2 kmh 28.97 in981.0 mb 0.00 in0.0 mm 0.00 in/hr0.0 mm/hr 0.08 in2.0 mm
02:54 PM 79.0°F26.1°C 64.9°F18.3°C 62% 8.3 mph ESE13.4 kmh ESE 10.7 mph17.2 kmh 28.97 in981.0 mb 0.00 in0.0 mm 0.00 in/hr0.0 mm/hr 0.08 in2.0 mm
02:53 PM 79.0°F26.1°C 65.4°F18.6°C 63% 8.0 mph ESE12.9 kmh ESE 10.7 mph17.2 kmh 28.97 in981.0 mb 0.00 in0.0 mm 0.00 in/hr0.0 mm/hr 0.08 in2.0 mm
02:52 PM 79.0°F26.1°C 64.9°F18.3°C 62% 7.9 mph ESE12.7 kmh ESE 10.7 mph17.2 kmh 28.97 in981.0 mb 0.00 in0.0 mm 0.00 in/hr0.0 mm/hr 0.08 in2.0 mm
02:51 PM 79.2°F26.2°C 65.1°F18.4°C 62% 7.8 mph ESE12.6 kmh ESE 10.7 mph17.2 kmh 28.96 in980.7 mb 0.00 in0.0 mm 0.00 in/hr0.0 mm/hr 0.08 in2.0 mm
02:50 PM 79.2°F26.2°C 65.1°F18.4°C 62% 7.8 mph ESE12.6 kmh ESE 10.7 mph17.2 kmh 28.96 in980.7 mb 0.00 in0.0 mm 0.00 in/hr0.0 mm/hr 0.08 in2.0 mm
02:49 PM 79.2°F26.2°C 65.1°F18.4°C 62% 7.8 mph ESE12.6 kmh ESE 10.7 mph17.2 kmh 28.96 in980.7 mb 0.00 in0.0 mm 0.00 in/hr0.0 mm/hr 0.08 in2.0 mm
02:48 PM 79.2°F26.2°C 65.1°F18.4°C 62% 7.8 mph ESE12.6 kmh ESE 11.4 mph18.3 kmh 28.96 in980.7 mb 0.00 in0.0 mm 0.00 in/hr0.0 mm/hr 0.08 in2.0 mm
02:47 PM 79.2°F26.2°C 65.1°F18.4°C 62% 8.0 mph ESE12.9 kmh ESE 11.4 mph18.3 kmh 28.96 in980.7 mb 0.00 in0.0 mm 0.00 in/hr0.0 mm/hr 0.08 in2.0 mm
02:46 PM 79.3°F26.3°C 65.2°F18.4°C 62% 7.9 mph E12.7 kmh E 11.4 mph18.3 kmh 28.97 in981.0 mb 0.00 in0.0 mm 0.00 in/hr0.0 mm/hr 0.08 in2.0 mm
02:45 PM 79.3°F26.3°C 65.2°F18.4°C 62% 7.7 mph E12.4 kmh E 11.4 mph18.3 kmh 28.97 in981.0 mb 0.00 in0.0 mm 0.00 in/hr0.0 mm/hr 0.08 in2.0 mm
02:44 PM 79.3°F26.3°C 65.2°F18.4°C 62% 7.3 mph E11.7 kmh E 11.4 mph18.3 kmh 28.97 in981.0 mb 0.00 in0.0 mm 0.00 in/hr0.0 mm/hr 0.08 in2.0 mm
02:43 PM 79.5°F26.4°C 65.4°F18.6°C 62% 7.6 mph E12.2 kmh E 11.4 mph18.3 kmh 28.97 in981.0 mb 0.00 in0.0 mm 0.00 in/hr0.0 mm/hr 0.08 in2.0 mm
02:42 PM 79.7°F26.5°C 65.1°F18.4°C 61% 8.1 mph E13.0 kmh E 12.1 mph19.5 kmh 28.97 in981.0 mb 0.00 in0.0 mm 0.00 in/hr0.0 mm/hr 0.08 in2.0 mm
02:41 PM 79.7°F26.5°C 65.1°F18.4°C 61% 8.2 mph E13.2 kmh E 12.1 mph19.5 kmh 28.97 in981.0 mb 0.00 in0.0 mm 0.00 in/hr0.0 mm/hr 0.08 in2.0 mm
02:40 PM 79.9°F26.6°C 65.3°F18.5°C 61% 8.4 mph E13.5 kmh E 12.1 mph19.5 kmh 28.97 in981.0 mb 0.00 in0.0 mm 0.00 in/hr0.0 mm/hr 0.08 in2.0 mm
02:39 PM 79.9°F26.6°C 65.7°F18.7°C 62% 8.3 mph ESE13.4 kmh ESE 12.1 mph19.5 kmh 28.97 in981.0 mb 0.00 in0.0 mm 0.00 in/hr0.0 mm/hr 0.08 in2.0 mm
02:38 PM 79.9°F26.6°C 65.7°F18.7°C 62% 8.1 mph ESE13.0 kmh ESE 12.1 mph19.5 kmh 28.97 in981.0 mb 0.00 in0.0 mm 0.00 in/hr0.0 mm/hr 0.08 in2.0 mm
02:37 PM 79.9°F26.6°C 65.7°F18.7°C 62% 8.0 mph ESE12.9 kmh ESE 12.1 mph19.5 kmh 28.97 in981.0 mb 0.00 in0.0 mm 0.00 in/hr0.0 mm/hr 0.08 in2.0 mm
02:36 PM 80.1°F26.7°C 65.4°F18.6°C 61% 8.0 mph ESE12.9 kmh ESE 12.1 mph19.5 kmh 28.97 in981.0 mb 0.00 in0.0 mm 0.00 in/hr0.0 mm/hr 0.08 in2.0 mm
02:35 PM 80.1°F26.7°C 65.4°F18.6°C 61% 7.9 mph E12.7 kmh E 12.1 mph19.5 kmh 28.97 in981.0 mb 0.00 in0.0 mm 0.00 in/hr0.0 mm/hr 0.08 in2.0 mm
02:34 PM 80.1°F26.7°C 65.4°F18.6°C 61% 8.3 mph E13.4 kmh E 12.1 mph19.5 kmh 28.97 in981.0 mb 0.00 in0.0 mm 0.00 in/hr0.0 mm/hr 0.08 in2.0 mm
02:33 PM 80.1°F26.7°C 65.4°F18.6°C 61% 8.0 mph E12.9 kmh E 12.1 mph19.5 kmh 28.97 in981.0 mb 0.00 in0.0 mm 0.00 in/hr0.0 mm/hr 0.08 in2.0 mm
02:32 PM 80.2°F26.8°C 65.6°F18.7°C 61% 7.7 mph ESE12.4 kmh ESE 9.8 mph15.8 kmh 28.97 in981.0 mb 0.00 in0.0 mm 0.00 in/hr0.0 mm/hr 0.08 in2.0 mm
02:31 PM 80.2°F26.8°C 65.6°F18.7°C 61% 7.8 mph ESE12.6 kmh ESE 9.8 mph15.8 kmh 28.97 in981.0 mb 0.00 in0.0 mm 0.00 in/hr0.0 mm/hr 0.08 in2.0 mm
02:30 PM 80.2°F26.8°C 65.6°F18.7°C 61% 7.6 mph ESE12.2 kmh ESE 9.8 mph15.8 kmh 28.97 in981.0 mb 0.00 in0.0 mm 0.00 in/hr0.0 mm/hr 0.08 in2.0 mm
02:29 PM 80.2°F26.8°C 65.6°F18.7°C 61% 7.5 mph E12.1 kmh E 9.8 mph15.8 kmh 28.97 in981.0 mb 0.00 in0.0 mm 0.00 in/hr0.0 mm/hr 0.08 in2.0 mm
02:28 PM 80.2°F26.8°C 65.6°F18.7°C 61% 7.4 mph E11.9 kmh E 9.8 mph15.8 kmh 28.97 in981.0 mb 0.00 in0.0 mm 0.00 in/hr0.0 mm/hr 0.08 in2.0 mm
02:27 PM 80.2°F26.8°C 65.6°F18.7°C 61% 7.5 mph E12.1 kmh E 9.8 mph15.8 kmh 28.98 in981.4 mb 0.00 in0.0 mm 0.00 in/hr0.0 mm/hr 0.08 in2.0 mm
02:26 PM 80.2°F26.8°C 65.6°F18.7°C 61% 7.7 mph ESE12.4 kmh ESE 9.8 mph15.8 kmh 28.97 in981.0 mb 0.00 in0.0 mm 0.00 in/hr0.0 mm/hr 0.08 in2.0 mm
02:25 PM 80.2°F26.8°C 65.6°F18.7°C 61% 7.6 mph ESE12.2 kmh ESE 9.8 mph15.8 kmh 28.97 in981.0 mb 0.00 in0.0 mm 0.00 in/hr0.0 mm/hr 0.08 in2.0 mm
02:24 PM 80.6°F27.0°C 66.0°F18.9°C 61% 7.2 mph SE11.6 kmh SE 9.8 mph15.8 kmh 28.97 in981.0 mb 0.00 in0.0 mm 0.00 in/hr0.0 mm/hr 0.08 in2.0 mm
02:23 PM 80.6°F27.0°C 66.0°F18.9°C 61% 7.3 mph SE11.7 kmh SE 9.8 mph15.8 kmh 28.97 in981.0 mb 0.00 in0.0 mm 0.00 in/hr0.0 mm/hr 0.08 in2.0 mm
02:22 PM 80.6°F27.0°C 66.0°F18.9°C 61% 7.4 mph SE11.9 kmh SE 9.8 mph15.8 kmh 28.97 in981.0 mb 0.00 in0.0 mm 0.00 in/hr0.0 mm/hr 0.08 in2.0 mm
02:21 PM 80.6°F27.0°C 66.0°F18.9°C 61% 7.4 mph SE11.9 kmh SE 9.8 mph15.8 kmh 28.97 in981.0 mb 0.00 in0.0 mm 0.00 in/hr0.0 mm/hr 0.08 in2.0 mm
02:20 PM 80.8°F27.1°C 66.1°F18.9°C 61% 7.7 mph SE12.4 kmh SE 9.8 mph15.8 kmh 28.98 in981.4 mb 0.00 in0.0 mm 0.00 in/hr0.0 mm/hr 0.08 in2.0 mm
02:19 PM 80.6°F27.0°C 66.0°F18.9°C 61% 8.2 mph SE13.2 kmh SE 10.7 mph17.2 kmh 28.98 in981.4 mb 0.00 in0.0 mm 0.00 in/hr0.0 mm/hr 0.08 in2.0 mm
02:18 PM 80.6°F27.0°C 66.0°F18.9°C 61% 8.0 mph SE12.9 kmh SE 10.7 mph17.2 kmh 28.98 in981.4 mb 0.00 in0.0 mm 0.00 in/hr0.0 mm/hr 0.08 in2.0 mm
02:17 PM 80.6°F27.0°C 66.0°F18.9°C 61% 8.0 mph SE12.9 kmh SE 10.7 mph17.2 kmh 28.98 in981.4 mb 0.00 in0.0 mm 0.00 in/hr0.0 mm/hr 0.08 in2.0 mm
02:16 PM 80.4°F26.9°C 66.7°F19.3°C 63% 8.2 mph SE13.2 kmh SE 10.7 mph17.2 kmh 28.98 in981.4 mb 0.00 in0.0 mm 0.00 in/hr0.0 mm/hr 0.08 in2.0 mm
02:15 PM 80.4°F26.9°C 66.7°F19.3°C 63% 8.5 mph SE13.7 kmh SE 10.7 mph17.2 kmh 28.97 in981.0 mb 0.00 in0.0 mm 0.00 in/hr0.0 mm/hr 0.08 in2.0 mm
02:14 PM 80.4°F26.9°C 66.7°F19.3°C 63% 8.8 mph SE14.2 kmh SE 10.7 mph17.2 kmh 28.97 in981.0 mb 0.00 in0.0 mm 0.00 in/hr0.0 mm/hr 0.08 in2.0 mm
02:13 PM 80.2°F26.8°C 66.5°F19.2°C 63% 8.8 mph SE14.2 kmh SE 10.7 mph17.2 kmh 28.97 in981.0 mb 0.00 in0.0 mm 0.00 in/hr0.0 mm/hr 0.08 in2.0 mm
02:12 PM 80.2°F26.8°C 66.5°F19.2°C 63% 8.5 mph SE13.7 kmh SE 10.7 mph17.2 kmh 28.97 in981.0 mb 0.00 in0.0 mm 0.00 in/hr0.0 mm/hr 0.08 in2.0 mm
02:11 PM 80.1°F26.7°C 66.8°F19.3°C 64% 8.1 mph SE13.0 kmh SE 10.7 mph17.2 kmh 28.98 in981.4 mb 0.00 in0.0 mm 0.00 in/hr0.0 mm/hr 0.08 in2.0 mm
02:10 PM 79.9°F26.6°C 66.7°F19.3°C 64% 7.8 mph SSE12.6 kmh SSE 10.7 mph17.2 kmh 28.98 in981.4 mb 0.00 in0.0 mm 0.00 in/hr0.0 mm/hr 0.08 in2.0 mm
02:09 PM 79.9°F26.6°C 66.2°F19.0°C 63% 7.7 mph SSE12.4 kmh SSE 10.7 mph17.2 kmh 28.98 in981.4 mb 0.00 in0.0 mm 0.00 in/hr0.0 mm/hr 0.08 in2.0 mm
02:08 PM 79.9°F26.6°C 66.2°F19.0°C 63% 7.9 mph SSE12.7 kmh SSE 10.7 mph17.2 kmh 28.98 in981.4 mb 0.00 in0.0 mm 0.00 in/hr0.0 mm/hr 0.08 in2.0 mm
02:07 PM 79.9°F26.6°C 66.2°F19.0°C 63% 8.0 mph SSE12.9 kmh SSE 10.7 mph17.2 kmh 28.98 in981.4 mb 0.00 in0.0 mm 0.00 in/hr0.0 mm/hr 0.08 in2.0 mm
02:06 PM 79.7°F26.5°C 66.0°F18.9°C 63% 7.7 mph SE12.4 kmh SE 10.7 mph17.2 kmh 28.98 in981.4 mb 0.00 in0.0 mm 0.00 in/hr0.0 mm/hr 0.08 in2.0 mm
02:05 PM 79.7°F26.5°C 65.6°F18.7°C 62% 7.6 mph SE12.2 kmh SE 10.7 mph17.2 kmh 28.98 in981.4 mb 0.00 in0.0 mm 0.00 in/hr0.0 mm/hr 0.08 in2.0 mm
02:04 PM 79.7°F26.5°C 66.0°F18.9°C 63% 7.5 mph ESE12.1 kmh ESE 10.7 mph17.2 kmh 28.98 in981.4 mb 0.00 in0.0 mm 0.00 in/hr0.0 mm/hr 0.08 in2.0 mm
02:03 PM 79.7°F26.5°C 66.5°F19.2°C 64% 7.5 mph ESE12.1 kmh ESE 10.7 mph17.2 kmh 28.98 in981.4 mb 0.00 in0.0 mm 0.00 in/hr0.0 mm/hr 0.08 in2.0 mm
02:02 PM 79.7°F26.5°C 66.0°F18.9°C 63% 7.6 mph E12.2 kmh E 10.7 mph17.2 kmh 28.98 in981.4 mb 0.00 in0.0 mm 0.00 in/hr0.0 mm/hr 0.08 in2.0 mm
02:01 PM 79.7°F26.5°C 66.0°F18.9°C 63% 7.8 mph ESE12.6 kmh ESE 10.7 mph17.2 kmh 28.98 in981.4 mb 0.00 in0.0 mm 0.00 in/hr0.0 mm/hr 0.08 in2.0 mm
02:00 PM 79.7°F26.5°C 66.0°F18.9°C 63% 7.9 mph ESE12.7 kmh ESE 10.7 mph17.2 kmh 28.98 in981.4 mb 0.00 in0.0 mm 0.00 in/hr0.0 mm/hr 0.08 in2.0 mm
01:59 PM 79.7°F26.5°C 66.0°F18.9°C 63% 7.8 mph ESE12.6 kmh ESE 10.7 mph17.2 kmh 28.98 in981.4 mb 0.00 in0.0 mm 0.00 in/hr0.0 mm/hr 0.08 in2.0 mm
01:58 PM 79.9°F26.6°C 65.7°F18.7°C 62% 7.6 mph ESE12.2 kmh ESE 9.8 mph15.8 kmh 28.98 in981.4 mb 0.00 in0.0 mm 0.00 in/hr0.0 mm/hr 0.08 in2.0 mm
01:57 PM 79.9°F26.6°C 65.7°F18.7°C 62% 7.5 mph ESE12.1 kmh ESE 9.8 mph15.8 kmh 28.98 in981.4 mb 0.00 in0.0 mm 0.00 in/hr0.0 mm/hr 0.08 in2.0 mm
01:56 PM 79.9°F26.6°C 65.7°F18.7°C 62% 7.4 mph ESE11.9 kmh ESE 9.8 mph15.8 kmh 28.98 in981.4 mb 0.00 in0.0 mm 0.00 in/hr0.0 mm/hr 0.08 in2.0 mm
01:55 PM 80.2°F26.8°C 65.6°F18.7°C 61% 7.3 mph ESE11.7 kmh ESE 9.8 mph15.8 kmh 28.98 in981.4 mb 0.00 in0.0 mm 0.00 in/hr0.0 mm/hr 0.08 in2.0 mm
01:54 PM 80.2°F26.8°C 65.6°F18.7°C 61% 7.1 mph SE11.4 kmh SE 9.8 mph15.8 kmh 28.98 in981.4 mb 0.00 in0.0 mm 0.00 in/hr0.0 mm/hr 0.08 in2.0 mm
01:53 PM 80.2°F26.8°C 66.1°F18.9°C 62% 7.1 mph SE11.4 kmh SE 9.8 mph15.8 kmh 28.98 in981.4 mb 0.00 in0.0 mm 0.00 in/hr0.0 mm/hr 0.08 in2.0 mm
01:52 PM 80.2°F26.8°C 66.1°F18.9°C 62% 7.2 mph SE11.6 kmh SE 9.8 mph15.8 kmh 28.98 in981.4 mb 0.00 in0.0 mm 0.00 in/hr0.0 mm/hr 0.08 in2.0 mm
01:51 PM 80.2°F26.8°C 66.1°F18.9°C 62% 7.6 mph SE12.2 kmh SE 11.4 mph18.3 kmh 28.98 in981.4 mb 0.00 in0.0 mm 0.00 in/hr0.0 mm/hr 0.08 in2.0 mm
01:50 PM 80.2°F26.8°C 66.1°F18.9°C 62% 7.8 mph SE12.6 kmh SE 11.4 mph18.3 kmh 28.98 in981.4 mb 0.00 in0.0 mm 0.00 in/hr0.0 mm/hr 0.08 in2.0 mm
01:49 PM 80.1°F26.7°C 65.9°F18.8°C 62% 7.9 mph SE12.7 kmh SE 11.4 mph18.3 kmh 28.98 in981.4 mb 0.00 in0.0 mm 0.00 in/hr0.0 mm/hr 0.08 in2.0 mm
01:48 PM 80.1°F26.7°C 65.9°F18.8°C 62% 7.7 mph SE12.4 kmh SE 11.4 mph18.3 kmh 28.98 in981.4 mb 0.00 in0.0 mm 0.00 in/hr0.0 mm/hr 0.08 in2.0 mm
01:47 PM 80.1°F26.7°C 65.9°F18.8°C 62% 7.8 mph SE12.6 kmh SE 11.4 mph18.3 kmh 28.98 in981.4 mb 0.00 in0.0 mm 0.00 in/hr0.0 mm/hr 0.08 in2.0 mm
01:46 PM 80.1°F26.7°C 65.9°F18.8°C 62% 7.9 mph SE12.7 kmh SE 11.4 mph18.3 kmh 28.98 in981.4 mb 0.00 in0.0 mm 0.00 in/hr0.0 mm/hr 0.08 in2.0 mm
01:45 PM 80.1°F26.7°C 65.4°F18.6°C 61% 8.1 mph SE13.0 kmh SE 11.4 mph18.3 kmh 28.98 in981.4 mb 0.00 in0.0 mm 0.00 in/hr0.0 mm/hr 0.08 in2.0 mm
01:44 PM 80.2°F26.8°C 65.6°F18.7°C 61% 8.6 mph SE13.8 kmh SE 12.1 mph19.5 kmh 28.98 in981.4 mb 0.00 in0.0 mm 0.00 in/hr0.0 mm/hr 0.08 in2.0 mm
01:43 PM 80.2°F26.8°C 65.6°F18.7°C 61% 8.8 mph SE14.2 kmh SE 12.1 mph19.5 kmh 28.98 in981.4 mb 0.00 in0.0 mm 0.00 in/hr0.0 mm/hr 0.08 in2.0 mm
01:42 PM 80.2°F26.8°C 65.6°F18.7°C 61% 8.8 mph SE14.2 kmh SE 12.1 mph19.5 kmh 28.98 in981.4 mb 0.00 in0.0 mm 0.00 in/hr0.0 mm/hr 0.08 in2.0 mm
01:41 PM 80.4°F26.9°C 65.8°F18.8°C 61% 8.8 mph SE14.2 kmh SE 12.1 mph19.5 kmh 28.98 in981.4 mb 0.00 in0.0 mm 0.00 in/hr0.0 mm/hr 0.08 in2.0 mm
01:40 PM 80.6°F27.0°C 66.0°F18.9°C 61% 8.7 mph SE14.0 kmh SE 12.1 mph19.5 kmh 28.98 in981.4 mb 0.00 in0.0 mm 0.00 in/hr0.0 mm/hr 0.08 in2.0 mm
01:39 PM 80.6°F27.0°C 65.5°F18.6°C 60% 8.7 mph SE14.0 kmh SE 12.1 mph19.5 kmh 28.98 in981.4 mb 0.00 in0.0 mm 0.00 in/hr0.0 mm/hr 0.08 in2.0 mm
01:38 PM 80.8°F27.1°C 65.6°F18.7°C 60% 9.1 mph SE14.6 kmh SE 12.1 mph19.5 kmh 28.98 in981.4 mb 0.00 in0.0 mm 0.00 in/hr0.0 mm/hr 0.08 in2.0 mm
01:37 PM 80.8°F27.1°C 66.1°F18.9°C 61% 9.0 mph SE14.5 kmh SE 12.1 mph19.5 kmh 28.98 in981.4 mb 0.00 in0.0 mm 0.00 in/hr0.0 mm/hr 0.08 in2.0 mm
01:36 PM 80.8°F27.1°C 65.6°F18.7°C 60% 9.0 mph SE14.5 kmh SE 12.1 mph19.5 kmh 28.98 in981.4 mb 0.00 in0.0 mm 0.00 in/hr0.0 mm/hr 0.08 in2.0 mm
01:35 PM 80.8°F27.1°C 65.6°F18.7°C 60% 8.7 mph SE14.0 kmh SE 12.1 mph19.5 kmh 28.98 in981.4 mb 0.00 in0.0 mm 0.00 in/hr0.0 mm/hr 0.08 in2.0 mm
01:34 PM 80.8°F27.1°C 66.1°F18.9°C 61% 8.2 mph SE13.2 kmh SE 12.1 mph19.5 kmh 28.98 in981.4 mb 0.00 in0.0 mm 0.00 in/hr0.0 mm/hr 0.08 in2.0 mm
01:33 PM 80.6°F27.0°C 66.0°F18.9°C 61% 8.1 mph SE13.0 kmh SE 10.7 mph17.2 kmh 28.97 in981.0 mb 0.00 in0.0 mm 0.00 in/hr0.0 mm/hr 0.08 in2.0 mm
01:32 PM 80.4°F26.9°C 66.3°F19.1°C 62% 8.3 mph ESE13.4 kmh ESE 12.1 mph19.5 kmh 28.97 in981.0 mb 0.00 in0.0 mm 0.00 in/hr0.0 mm/hr 0.08 in2.0 mm
01:31 PM 80.4°F26.9°C 66.7°F19.3°C 63% 8.7 mph ESE14.0 kmh ESE 13.0 mph20.9 kmh 28.97 in981.0 mb 0.00 in0.0 mm 0.00 in/hr0.0 mm/hr 0.08 in2.0 mm
01:30 PM 80.2°F26.8°C 66.5°F19.2°C 63% 8.7 mph SE14.0 kmh SE 13.0 mph20.9 kmh 28.98 in981.4 mb 0.00 in0.0 mm 0.00 in/hr0.0 mm/hr 0.08 in2.0 mm
01:29 PM 80.2°F26.8°C 66.5°F19.2°C 63% 8.6 mph ESE13.8 kmh ESE 13.0 mph20.9 kmh 28.97 in981.0 mb 0.00 in0.0 mm 0.00 in/hr0.0 mm/hr 0.08 in2.0 mm
01:28 PM 79.9°F26.6°C 66.7°F19.3°C 64% 8.7 mph E14.0 kmh E 13.0 mph20.9 kmh 28.98 in981.4 mb 0.00 in0.0 mm 0.00 in/hr0.0 mm/hr 0.08 in2.0 mm
01:27 PM 79.7°F26.5°C 66.5°F19.2°C 64% 8.7 mph E14.0 kmh E 13.0 mph20.9 kmh 28.98 in981.4 mb 0.00 in0.0 mm 0.00 in/hr0.0 mm/hr 0.08 in2.0 mm
01:26 PM 79.7°F26.5°C 66.5°F19.2°C 64% 8.7 mph E14.0 kmh E 13.0 mph20.9 kmh 28.98 in981.4 mb 0.00 in0.0 mm 0.00 in/hr0.0 mm/hr 0.08 in2.0 mm
01:25 PM 79.5°F26.4°C 65.9°F18.8°C 63% 9.3 mph E15.0 kmh E 13.0 mph20.9 kmh 28.98 in981.4 mb 0.00 in0.0 mm 0.00 in/hr0.0 mm/hr 0.08 in2.0 mm
01:24 PM 79.5°F26.4°C 65.9°F18.8°C 63% 9.6 mph E15.4 kmh E 13.0 mph20.9 kmh 28.98 in981.4 mb 0.00 in0.0 mm 0.00 in/hr0.0 mm/hr 0.08 in2.0 mm
01:23 PM 79.5°F26.4°C 65.9°F18.8°C 63% 9.4 mph E15.1 kmh E 13.0 mph20.9 kmh 28.98 in981.4 mb 0.00 in0.0 mm 0.00 in/hr0.0 mm/hr 0.08 in2.0 mm
01:22 PM 79.5°F26.4°C 65.9°F18.8°C 63% 9.0 mph E14.5 kmh E 13.0 mph20.9 kmh 28.98 in981.4 mb 0.00 in0.0 mm 0.00 in/hr0.0 mm/hr 0.08 in2.0 mm
01:21 PM 79.5°F26.4°C 66.3°F19.1°C 64% 8.5 mph E13.7 kmh E 13.0 mph20.9 kmh 28.98 in981.4 mb 0.00 in0.0 mm 0.00 in/hr0.0 mm/hr 0.08 in2.0 mm
01:20 PM 79.3°F26.3°C 66.1°F18.9°C 64% 8.4 mph E13.5 kmh E 13.0 mph20.9 kmh 28.98 in981.4 mb 0.00 in0.0 mm 0.00 in/hr0.0 mm/hr 0.08 in2.0 mm
01:19 PM 79.3°F26.3°C 66.1°F18.9°C 64% 8.3 mph E13.4 kmh E 13.0 mph20.9 kmh 28.98 in981.4 mb 0.00 in0.0 mm 0.00 in/hr0.0 mm/hr 0.08 in2.0 mm
01:18 PM 79.2°F26.2°C 66.0°F18.9°C 64% 8.1 mph E13.0 kmh E 13.0 mph20.9 kmh 28.98 in981.4 mb 0.00 in0.0 mm 0.00 in/hr0.0 mm/hr 0.08 in2.0 mm
01:17 PM 79.2°F26.2°C 66.0°F18.9°C 64% 8.0 mph E12.9 kmh E 13.0 mph20.9 kmh 28.98 in981.4 mb 0.00 in0.0 mm 0.00 in/hr0.0 mm/hr 0.08 in2.0 mm
01:16 PM 79.2°F26.2°C 66.0°F18.9°C 64% 8.2 mph ESE13.2 kmh ESE 13.0 mph20.9 kmh 28.98 in981.4 mb 0.00 in0.0 mm 0.00 in/hr0.0 mm/hr 0.08 in2.0 mm
01:15 PM 79.2°F26.2°C 66.0°F18.9°C 64% 7.6 mph ESE12.2 kmh ESE 9.8 mph15.8 kmh 28.98 in981.4 mb 0.00 in0.0 mm 0.00 in/hr0.0 mm/hr 0.08 in2.0 mm
01:14 PM 79.2°F26.2°C 66.0°F18.9°C 64% 7.4 mph ESE11.9 kmh ESE 9.2 mph14.8 kmh 28.98 in981.4 mb 0.00 in0.0 mm 0.00 in/hr0.0 mm/hr 0.08 in2.0 mm
01:13 PM 79.2°F26.2°C 65.5°F18.6°C 63% 7.5 mph ESE12.1 kmh ESE 9.2 mph14.8 kmh 28.97 in981.0 mb 0.00 in0.0 mm 0.00 in/hr0.0 mm/hr 0.08 in2.0 mm
01:12 PM 79.2°F26.2°C 65.5°F18.6°C 63% 7.6 mph ESE12.2 kmh ESE 9.2 mph14.8 kmh 28.98 in981.4 mb 0.00 in0.0 mm 0.00 in/hr0.0 mm/hr 0.08 in2.0 mm
01:11 PM 79.3°F26.3°C 65.7°F18.7°C 63% 7.6 mph ESE12.2 kmh ESE 9.2 mph14.8 kmh 28.98 in981.4 mb 0.00 in0.0 mm 0.00 in/hr0.0 mm/hr 0.08 in2.0 mm
01:10 PM 79.5°F26.4°C 65.9°F18.8°C 63% 7.7 mph ESE12.4 kmh ESE 9.2 mph14.8 kmh 28.98 in981.4 mb 0.00 in0.0 mm 0.00 in/hr0.0 mm/hr 0.08 in2.0 mm
01:09 PM 79.5°F26.4°C 65.9°F18.8°C 63% 7.7 mph ESE12.4 kmh ESE 9.2 mph14.8 kmh 28.98 in981.4 mb 0.00 in0.0 mm 0.00 in/hr0.0 mm/hr 0.08 in2.0 mm
01:08 PM 79.7°F26.5°C 66.0°F18.9°C 63% 7.7 mph ESE12.4 kmh ESE 9.2 mph14.8 kmh 28.98 in981.4 mb 0.00 in0.0 mm 0.00 in/hr0.0 mm/hr 0.08 in2.0 mm
01:07 PM 79.9°F26.6°C 66.2°F19.0°C 63% 7.8 mph ESE12.6 kmh ESE 9.2 mph14.8 kmh 28.98 in981.4 mb 0.00 in0.0 mm 0.00 in/hr0.0 mm/hr 0.08 in2.0 mm
01:06 PM 79.9°F26.6°C 66.2°F19.0°C 63% 7.8 mph ESE12.6 kmh ESE 9.2 mph14.8 kmh 28.98 in981.4 mb 0.00 in0.0 mm 0.00 in/hr0.0 mm/hr 0.08 in2.0 mm
01:05 PM 79.9°F26.6°C 66.2°F19.0°C 63% 7.8 mph ESE12.6 kmh ESE 9.2 mph14.8 kmh 28.98 in981.4 mb 0.00 in0.0 mm 0.00 in/hr0.0 mm/hr 0.08 in2.0 mm
01:04 PM 80.1°F26.7°C 66.4°F19.1°C 63% 7.9 mph ESE12.7 kmh ESE 9.2 mph14.8 kmh 28.98 in981.4 mb 0.00 in0.0 mm 0.00 in/hr0.0 mm/hr 0.08 in2.0 mm
01:03 PM 80.2°F26.8°C 66.5°F19.2°C 63% 8.1 mph ESE13.0 kmh ESE 9.8 mph15.8 kmh 28.98 in981.4 mb 0.00 in0.0 mm 0.00 in/hr0.0 mm/hr 0.08 in2.0 mm
01:02 PM 80.2°F26.8°C 66.1°F18.9°C 62% 8.1 mph ESE13.0 kmh ESE 9.8 mph15.8 kmh 28.98 in981.4 mb 0.00 in0.0 mm 0.00 in/hr0.0 mm/hr 0.08 in2.0 mm
01:01 PM 80.4°F26.9°C 66.3°F19.1°C 62% 8.0 mph ESE12.9 kmh ESE 9.8 mph15.8 kmh 28.98 in981.4 mb 0.00 in0.0 mm 0.00 in/hr0.0 mm/hr 0.08 in2.0 mm
01:00 PM 80.4°F26.9°C 66.3°F19.1°C 62% 8.0 mph ESE12.9 kmh ESE 9.8 mph15.8 kmh 28.98 in981.4 mb 0.00 in0.0 mm 0.00 in/hr0.0 mm/hr 0.08 in2.0 mm
12:59 PM 80.6°F27.0°C 66.4°F19.1°C 62% 8.1 mph ESE13.0 kmh ESE 9.8 mph15.8 kmh 28.98 in981.4 mb 0.00 in0.0 mm 0.00 in/hr0.0 mm/hr 0.08 in2.0 mm
12:58 PM 80.6°F27.0°C 66.4°F19.1°C 62% 8.3 mph ESE13.4 kmh ESE 10.7 mph17.2 kmh 28.98 in981.4 mb 0.00 in0.0 mm 0.00 in/hr0.0 mm/hr 0.08 in2.0 mm
12:57 PM 80.6°F27.0°C 66.4°F19.1°C 62% 8.4 mph E13.5 kmh E 10.7 mph17.2 kmh 28.98 in981.4 mb 0.00 in0.0 mm 0.00 in/hr0.0 mm/hr 0.08 in2.0 mm
12:56 PM 80.8°F27.1°C 66.6°F19.2°C 62% 8.3 mph E13.4 kmh E 10.7 mph17.2 kmh 28.98 in981.4 mb 0.00 in0.0 mm 0.00 in/hr0.0 mm/hr 0.08 in2.0 mm
12:55 PM 80.8°F27.1°C 66.6°F19.2°C 62% 8.2 mph E13.2 kmh E 10.7 mph17.2 kmh 28.98 in981.4 mb 0.00 in0.0 mm 0.00 in/hr0.0 mm/hr 0.08 in2.0 mm
12:54 PM 80.8°F27.1°C 66.6°F19.2°C 62% 8.0 mph E12.9 kmh E 10.7 mph17.2 kmh 28.98 in981.4 mb 0.00 in0.0 mm 0.00 in/hr0.0 mm/hr 0.08 in2.0 mm
12:53 PM 80.8°F27.1°C 66.6°F19.2°C 62% 8.0 mph E12.9 kmh E 10.7 mph17.2 kmh 28.98 in981.4 mb 0.00 in0.0 mm 0.00 in/hr0.0 mm/hr 0.08 in2.0 mm
12:52 PM 81.0°F27.2°C 66.3°F19.1°C 61% 8.2 mph E13.2 kmh E 10.7 mph17.2 kmh 28.98 in981.4 mb 0.00 in0.0 mm 0.00 in/hr0.0 mm/hr 0.08 in2.0 mm
12:51 PM 81.1°F27.3°C 66.5°F19.2°C 61% 8.2 mph E13.2 kmh E 10.7 mph17.2 kmh 28.98 in981.4 mb 0.00 in0.0 mm 0.00 in/hr0.0 mm/hr 0.08 in2.0 mm
12:50 PM 81.1°F27.3°C 66.5°F19.2°C 61% 7.7 mph E12.4 kmh E 10.7 mph17.2 kmh 28.98 in981.4 mb 0.00 in0.0 mm 0.00 in/hr0.0 mm/hr 0.08 in2.0 mm
12:49 PM 81.3°F27.4°C 66.6°F19.2°C 61% 7.7 mph E12.4 kmh E 10.7 mph17.2 kmh 28.98 in981.4 mb 0.00 in0.0 mm 0.00 in/hr0.0 mm/hr 0.08 in2.0 mm
12:48 PM 81.5°F27.5°C 66.8°F19.3°C 61% 7.3 mph ENE11.7 kmh ENE 9.8 mph15.8 kmh 28.98 in981.4 mb 0.00 in0.0 mm 0.00 in/hr0.0 mm/hr 0.08 in2.0 mm
12:47 PM 81.5°F27.5°C 66.8°F19.3°C 61% 7.1 mph E11.4 kmh E 9.8 mph15.8 kmh 28.98 in981.4 mb 0.00 in0.0 mm 0.00 in/hr0.0 mm/hr 0.08 in2.0 mm
12:46 PM 81.5°F27.5°C 66.8°F19.3°C 61% 7.0 mph ENE11.3 kmh ENE 9.8 mph15.8 kmh 28.98 in981.4 mb 0.00 in0.0 mm 0.00 in/hr0.0 mm/hr 0.08 in2.0 mm
12:45 PM 81.5°F27.5°C 67.3°F19.6°C 62% 7.1 mph E11.4 kmh E 9.8 mph15.8 kmh 28.98 in981.4 mb 0.00 in0.0 mm 0.00 in/hr0.0 mm/hr 0.08 in2.0 mm
12:44 PM 81.7°F27.6°C 67.4°F19.7°C 62% 7.1 mph E11.4 kmh E 9.8 mph15.8 kmh 28.98 in981.4 mb 0.00 in0.0 mm 0.00 in/hr0.0 mm/hr 0.08 in2.0 mm
12:43 PM 81.5°F27.5°C 67.3°F19.6°C 62% 6.9 mph SE11.1 kmh SE 9.2 mph14.8 kmh 28.98 in981.4 mb 0.00 in0.0 mm 0.00 in/hr0.0 mm/hr 0.08 in2.0 mm
12:42 PM 81.5°F27.5°C 67.3°F19.6°C 62% 6.8 mph ESE10.9 kmh ESE 9.2 mph14.8 kmh 28.98 in981.4 mb 0.00 in0.0 mm 0.00 in/hr0.0 mm/hr 0.08 in2.0 mm
12:41 PM 81.5°F27.5°C 67.3°F19.6°C 62% 7.0 mph SE11.3 kmh SE 9.2 mph14.8 kmh 28.98 in981.4 mb 0.00 in0.0 mm 0.00 in/hr0.0 mm/hr 0.08 in2.0 mm
12:40 PM 81.5°F27.5°C 66.8°F19.3°C 61% 7.3 mph ESE11.7 kmh ESE 9.2 mph14.8 kmh 28.98 in981.4 mb 0.00 in0.0 mm 0.00 in/hr0.0 mm/hr 0.08 in2.0 mm
12:39 PM 81.5°F27.5°C 66.8°F19.3°C 61% 7.2 mph ESE11.6 kmh ESE 9.2 mph14.8 kmh 28.98 in981.4 mb 0.00 in0.0 mm 0.00 in/hr0.0 mm/hr 0.08 in2.0 mm
12:38 PM 81.5°F27.5°C 66.8°F19.3°C 61% 7.3 mph ESE11.7 kmh ESE 9.2 mph14.8 kmh 28.98 in981.4 mb 0.00 in0.0 mm 0.00 in/hr0.0 mm/hr 0.08 in2.0 mm
12:37 PM 81.5°F27.5°C 66.8°F19.3°C 61% 7.4 mph ESE11.9 kmh ESE 9.2 mph14.8 kmh 28.98 in981.4 mb 0.00 in0.0 mm 0.00 in/hr0.0 mm/hr 0.08 in2.0 mm
12:36 PM 81.5°F27.5°C 66.8°F19.3°C 61% 7.5 mph SE12.1 kmh SE 9.2 mph14.8 kmh 28.98 in981.4 mb 0.00 in0.0 mm 0.00 in/hr0.0 mm/hr 0.08 in2.0 mm
12:35 PM 81.5°F27.5°C 66.8°F19.3°C 61% 7.8 mph SE12.6 kmh SE 10.7 mph17.2 kmh 28.98 in981.4 mb 0.00 in0.0 mm 0.00 in/hr0.0 mm/hr 0.08 in2.0 mm
12:34 PM 81.5°F27.5°C 66.8°F19.3°C 61% 7.8 mph SE12.6 kmh SE 10.7 mph17.2 kmh 28.98 in981.4 mb 0.00 in0.0 mm 0.00 in/hr0.0 mm/hr 0.08 in2.0 mm
12:33 PM 81.5°F27.5°C 66.8°F19.3°C 61% 7.5 mph ESE12.1 kmh ESE 10.7 mph17.2 kmh 28.98 in981.4 mb 0.00 in0.0 mm 0.00 in/hr0.0 mm/hr 0.08 in2.0 mm
12:32 PM 81.5°F27.5°C 66.8°F19.3°C 61% 7.5 mph SE12.1 kmh SE 10.7 mph17.2 kmh 28.98 in981.4 mb 0.00 in0.0 mm 0.00 in/hr0.0 mm/hr 0.08 in2.0 mm
12:31 PM 81.3°F27.4°C 67.1°F19.5°C 62% 7.5 mph ESE12.1 kmh ESE 10.7 mph17.2 kmh 28.98 in981.4 mb 0.00 in0.0 mm 0.00 in/hr0.0 mm/hr 0.08 in2.0 mm
12:30 PM 81.3°F27.4°C 67.1°F19.5°C 62% 7.5 mph ESE12.1 kmh ESE 10.7 mph17.2 kmh 28.98 in981.4 mb 0.00 in0.0 mm 0.00 in/hr0.0 mm/hr 0.08 in2.0 mm
12:29 PM 81.1°F27.3°C 66.5°F19.2°C 61% 7.8 mph ESE12.6 kmh ESE 10.7 mph17.2 kmh 28.98 in981.4 mb 0.00 in0.0 mm 0.00 in/hr0.0 mm/hr 0.08 in2.0 mm
12:28 PM 81.1°F27.3°C 66.9°F19.4°C 62% 7.8 mph E12.6 kmh E 10.7 mph17.2 kmh 28.98 in981.4 mb 0.00 in0.0 mm 0.00 in/hr0.0 mm/hr 0.08 in2.0 mm
12:27 PM 81.1°F27.3°C 66.9°F19.4°C 62% 7.6 mph E12.2 kmh E 10.7 mph17.2 kmh 28.98 in981.4 mb 0.00 in0.0 mm 0.00 in/hr0.0 mm/hr 0.08 in2.0 mm
12:26 PM 81.1°F27.3°C 66.9°F19.4°C 62% 7.4 mph E11.9 kmh E 10.7 mph17.2 kmh 28.98 in981.4 mb 0.00 in0.0 mm 0.00 in/hr0.0 mm/hr 0.08 in2.0 mm
12:25 PM 81.1°F27.3°C 66.9°F19.4°C 62% 6.9 mph E11.1 kmh E 10.7 mph17.2 kmh 28.98 in981.4 mb 0.00 in0.0 mm 0.00 in/hr0.0 mm/hr 0.08 in2.0 mm
12:24 PM 81.1°F27.3°C 66.5°F19.2°C 61% 6.9 mph E11.1 kmh E 9.2 mph14.8 kmh 28.98 in981.4 mb 0.00 in0.0 mm 0.00 in/hr0.0 mm/hr 0.08 in2.0 mm
12:23 PM 81.3°F27.4°C 66.6°F19.2°C 61% 7.0 mph E11.3 kmh E 9.2 mph14.8 kmh 28.98 in981.4 mb 0.00 in0.0 mm 0.00 in/hr0.0 mm/hr 0.08 in2.0 mm
12:22 PM 81.3°F27.4°C 66.6°F19.2°C 61% 6.9 mph E11.1 kmh E 9.2 mph14.8 kmh 28.98 in981.4 mb 0.00 in0.0 mm 0.00 in/hr0.0 mm/hr 0.08 in2.0 mm
12:21 PM 81.5°F27.5°C 66.3°F19.1°C 60% 6.7 mph E10.8 kmh E 9.2 mph14.8 kmh 28.98 in981.4 mb 0.00 in0.0 mm 0.00 in/hr0.0 mm/hr 0.08 in2.0 mm
12:20 PM 81.5°F27.5°C 66.8°F19.3°C 61% 6.7 mph E10.8 kmh E 9.2 mph14.8 kmh 28.98 in981.4 mb 0.00 in0.0 mm 0.00 in/hr0.0 mm/hr 0.08 in2.0 mm
12:19 PM 81.5°F27.5°C 67.3°F19.6°C 62% 6.4 mph E10.3 kmh E 7.6 mph12.2 kmh 28.98 in981.4 mb 0.00 in0.0 mm 0.00 in/hr0.0 mm/hr 0.08 in2.0 mm
12:18 PM 81.5°F27.5°C 67.3°F19.6°C 62% 6.4 mph ENE10.3 kmh ENE 7.6 mph12.2 kmh 28.98 in981.4 mb 0.00 in0.0 mm 0.00 in/hr0.0 mm/hr 0.08 in2.0 mm
12:17 PM 81.3°F27.4°C 67.1°F19.5°C 62% 6.4 mph ENE10.3 kmh ENE 8.3 mph13.4 kmh 28.98 in981.4 mb 0.00 in0.0 mm 0.00 in/hr0.0 mm/hr 0.08 in2.0 mm
12:16 PM 81.5°F27.5°C 66.8°F19.3°C 61% 6.6 mph ENE10.6 kmh ENE 8.3 mph13.4 kmh 28.98 in981.4 mb 0.00 in0.0 mm 0.00 in/hr0.0 mm/hr 0.08 in2.0 mm
12:15 PM 81.7°F27.6°C 67.0°F19.4°C 61% 7.0 mph NE11.3 kmh NE 10.7 mph17.2 kmh 28.98 in981.4 mb 0.00 in0.0 mm 0.00 in/hr0.0 mm/hr 0.08 in2.0 mm
12:14 PM 81.7°F27.6°C 67.0°F19.4°C 61% 7.3 mph NE11.7 kmh NE 10.7 mph17.2 kmh 28.99 in981.7 mb 0.00 in0.0 mm 0.00 in/hr0.0 mm/hr 0.08 in2.0 mm
12:13 PM 81.9°F27.7°C 66.7°F19.3°C 60% 7.5 mph NE12.1 kmh NE 10.7 mph17.2 kmh 28.98 in981.4 mb 0.00 in0.0 mm 0.00 in/hr0.0 mm/hr 0.08 in2.0 mm
12:12 PM 82.0°F27.8°C 67.3°F19.6°C 61% 7.6 mph NE12.2 kmh NE 10.7 mph17.2 kmh 28.99 in981.7 mb 0.00 in0.0 mm 0.00 in/hr0.0 mm/hr 0.08 in2.0 mm
12:11 PM 82.2°F27.9°C 67.5°F19.7°C 61% 7.6 mph NE12.2 kmh NE 10.7 mph17.2 kmh 28.98 in981.4 mb 0.00 in0.0 mm 0.00 in/hr0.0 mm/hr 0.08 in2.0 mm
12:10 PM 82.0°F27.8°C 67.8°F19.9°C 62% 7.6 mph NE12.2 kmh NE 10.7 mph17.2 kmh 28.99 in981.7 mb 0.00 in0.0 mm 0.00 in/hr0.0 mm/hr 0.08 in2.0 mm
12:09 PM 82.0°F27.8°C 67.8°F19.9°C 62% 7.8 mph NE12.6 kmh NE 10.7 mph17.2 kmh 28.98 in981.4 mb 0.00 in0.0 mm 0.00 in/hr0.0 mm/hr 0.08 in2.0 mm
12:08 PM 82.0°F27.8°C 67.8°F19.9°C 62% 8.1 mph ENE13.0 kmh ENE 10.7 mph17.2 kmh 28.98 in981.4 mb 0.00 in0.0 mm 0.00 in/hr0.0 mm/hr 0.08 in2.0 mm
12:07 PM 81.9°F27.7°C 67.6°F19.8°C 62% 8.3 mph ENE13.4 kmh ENE 10.7 mph17.2 kmh 28.98 in981.4 mb 0.00 in0.0 mm 0.00 in/hr0.0 mm/hr 0.08 in2.0 mm
12:06 PM 81.9°F27.7°C 67.6°F19.8°C 62% 9.6 mph E15.4 kmh E 27.3 mph43.9 kmh 28.98 in981.4 mb 0.00 in0.0 mm 0.00 in/hr0.0 mm/hr 0.08 in2.0 mm
12:05 PM 81.9°F27.7°C 67.6°F19.8°C 62% 10.4 mph E16.7 kmh E 27.3 mph43.9 kmh 28.98 in981.4 mb 0.00 in0.0 mm 0.00 in/hr0.0 mm/hr 0.08 in2.0 mm
12:03 PM 81.9°F27.7°C 67.6°F19.8°C 62% 13.9 mph E22.4 kmh E 35.4 mph57.0 kmh 28.99 in981.7 mb 0.00 in0.0 mm 0.00 in/hr0.0 mm/hr 0.08 in2.0 mm
12:02 PM 81.9°F27.7°C 67.6°F19.8°C 62% 16.3 mph E26.2 kmh E 35.4 mph57.0 kmh 28.99 in981.7 mb 0.00 in0.0 mm 0.00 in/hr0.0 mm/hr 0.08 in2.0 mm
12:01 PM 81.9°F27.7°C 67.6°F19.8°C 62% 19.1 mph E30.7 kmh E 35.4 mph57.0 kmh 28.98 in981.4 mb 0.00 in0.0 mm 0.00 in/hr0.0 mm/hr 0.08 in2.0 mm
12:00 PM 81.9°F27.7°C 67.1°F19.5°C 61% 21.3 mph E34.3 kmh E 35.4 mph57.0 kmh 28.99 in981.7 mb 0.00 in0.0 mm 0.00 in/hr0.0 mm/hr 0.08 in2.0 mm
11:59 AM 82.0°F27.8°C 66.8°F19.3°C 60% 22.7 mph ESE36.5 kmh ESE 35.4 mph57.0 kmh 28.98 in981.4 mb 0.00 in0.0 mm 0.00 in/hr0.0 mm/hr 0.08 in2.0 mm
11:58 AM 82.0°F27.8°C 66.8°F19.3°C 60% 24.8 mph ESE39.9 kmh ESE 35.4 mph57.0 kmh 28.99 in981.7 mb 0.00 in0.0 mm 0.00 in/hr0.0 mm/hr 0.08 in2.0 mm
11:57 AM 82.2°F27.9°C 67.0°F19.4°C 60% 26.9 mph SE43.3 kmh SE 38.7 mph62.3 kmh 28.99 in981.7 mb 0.00 in0.0 mm 0.00 in/hr0.0 mm/hr 0.08 in2.0 mm
11:56 AM 82.4°F28.0°C 67.7°F19.8°C 61% 7.9 mph SE12.7 kmh SE 10.7 mph17.2 kmh 28.99 in981.7 mb 0.00 in0.0 mm 0.00 in/hr0.0 mm/hr 0.08 in2.0 mm
11:55 AM 82.4°F28.0°C 68.1°F20.1°C 62% 8.0 mph SE12.9 kmh SE 10.7 mph17.2 kmh 28.99 in981.7 mb 0.00 in0.0 mm 0.00 in/hr0.0 mm/hr 0.08 in2.0 mm
11:54 AM 82.4°F28.0°C 68.1°F20.1°C 62% 8.2 mph SE13.2 kmh SE 10.7 mph17.2 kmh 28.99 in981.7 mb 0.00 in0.0 mm 0.00 in/hr0.0 mm/hr 0.08 in2.0 mm
11:53 AM 82.4°F28.0°C 68.1°F20.1°C 62% 7.9 mph SE12.7 kmh SE 10.7 mph17.2 kmh 28.99 in981.7 mb 0.00 in0.0 mm 0.00 in/hr0.0 mm/hr 0.08 in2.0 mm
11:52 AM 82.4°F28.0°C 68.1°F20.1°C 62% 7.6 mph SE12.2 kmh SE 10.7 mph17.2 kmh 28.99 in981.7 mb 0.00 in0.0 mm 0.00 in/hr0.0 mm/hr 0.08 in2.0 mm
11:51 AM 82.4°F28.0°C 68.1°F20.1°C 62% 7.2 mph SSE11.6 kmh SSE 10.7 mph17.2 kmh 28.98 in981.4 mb 0.00 in0.0 mm 0.00 in/hr0.0 mm/hr 0.08 in2.0 mm
11:50 AM 82.4°F28.0°C 68.1°F20.1°C 62% 7.0 mph SSE11.3 kmh SSE 10.7 mph17.2 kmh 28.98 in981.4 mb 0.00 in0.0 mm 0.00 in/hr0.0 mm/hr 0.08 in2.0 mm
11:49 AM 82.4°F28.0°C 68.1°F20.1°C 62% 7.0 mph SE11.3 kmh SE 10.7 mph17.2 kmh 28.98 in981.4 mb 0.00 in0.0 mm 0.00 in/hr0.0 mm/hr 0.08 in2.0 mm
11:48 AM 82.6°F28.1°C 67.8°F19.9°C 61% 6.8 mph ESE10.9 kmh ESE 10.7 mph17.2 kmh 28.99 in981.7 mb 0.00 in0.0 mm 0.00 in/hr0.0 mm/hr 0.08 in2.0 mm
11:47 AM 82.8°F28.2°C 68.0°F20.0°C 61% 6.8 mph E10.9 kmh E 10.7 mph17.2 kmh 28.98 in981.4 mb 0.00 in0.0 mm 0.00 in/hr0.0 mm/hr 0.08 in2.0 mm
11:46 AM 82.9°F28.3°C 68.6°F20.3°C 62% 6.6 mph E10.6 kmh E 9.8 mph15.8 kmh 28.98 in981.4 mb 0.00 in0.0 mm 0.00 in/hr0.0 mm/hr 0.08 in2.0 mm
11:45 AM 82.9°F28.3°C 68.6°F20.3°C 62% 6.9 mph ESE11.1 kmh ESE 11.4 mph18.3 kmh 28.99 in981.7 mb 0.00 in0.0 mm 0.00 in/hr0.0 mm/hr 0.08 in2.0 mm
11:44 AM 82.9°F28.3°C 68.6°F20.3°C 62% 6.9 mph E11.1 kmh E 11.4 mph18.3 kmh 28.98 in981.4 mb 0.00 in0.0 mm 0.00 in/hr0.0 mm/hr 0.08 in2.0 mm
11:43 AM 83.1°F28.4°C 68.8°F20.4°C 62% 7.1 mph E11.4 kmh E 11.4 mph18.3 kmh 28.98 in981.4 mb 0.00 in0.0 mm 0.00 in/hr0.0 mm/hr 0.08 in2.0 mm
11:42 AM 83.1°F28.4°C 69.3°F20.7°C 63% 7.2 mph E11.6 kmh E 11.4 mph18.3 kmh 28.98 in981.4 mb 0.00 in0.0 mm 0.00 in/hr0.0 mm/hr 0.08 in2.0 mm
11:41 AM 83.1°F28.4°C 69.3°F20.7°C 63% 7.5 mph E12.1 kmh E 11.4 mph18.3 kmh 28.98 in981.4 mb 0.00 in0.0 mm 0.00 in/hr0.0 mm/hr 0.08 in2.0 mm
11:40 AM 83.1°F28.4°C 69.3°F20.7°C 63% 7.6 mph E12.2 kmh E 11.4 mph18.3 kmh 28.98 in981.4 mb 0.00 in0.0 mm 0.00 in/hr0.0 mm/hr 0.08 in2.0 mm
11:39 AM 83.1°F28.4°C 69.3°F20.7°C 63% 7.8 mph E12.6 kmh E 11.4 mph18.3 kmh 28.98 in981.4 mb 0.00 in0.0 mm 0.00 in/hr0.0 mm/hr 0.08 in2.0 mm
11:38 AM 83.1°F28.4°C 69.3°F20.7°C 63% 8.0 mph E12.9 kmh E 11.4 mph18.3 kmh 28.98 in981.4 mb 0.00 in0.0 mm 0.00 in/hr0.0 mm/hr 0.08 in2.0 mm
11:37 AM 83.1°F28.4°C 69.3°F20.7°C 63% 7.9 mph E12.7 kmh E 11.4 mph18.3 kmh 28.99 in981.7 mb 0.00 in0.0 mm 0.00 in/hr0.0 mm/hr 0.08 in2.0 mm
11:36 AM 83.1°F28.4°C 69.3°F20.7°C 63% 7.9 mph E12.7 kmh E 11.4 mph18.3 kmh 28.98 in981.4 mb 0.00 in0.0 mm 0.00 in/hr0.0 mm/hr 0.08 in2.0 mm
11:35 AM 83.1°F28.4°C 68.8°F20.4°C 62% 7.8 mph E12.6 kmh E 9.2 mph14.8 kmh 28.99 in981.7 mb 0.00 in0.0 mm 0.00 in/hr0.0 mm/hr 0.08 in2.0 mm
11:34 AM 83.3°F28.5°C 69.4°F20.8°C 63% 7.7 mph E12.4 kmh E 9.2 mph14.8 kmh 28.98 in981.4 mb 0.00 in0.0 mm 0.00 in/hr0.0 mm/hr 0.08 in2.0 mm
11:33 AM 83.3°F28.5°C 69.4°F20.8°C 63% 7.7 mph E12.4 kmh E 9.2 mph14.8 kmh 28.98 in981.4 mb 0.00 in0.0 mm 0.00 in/hr0.0 mm/hr 0.08 in2.0 mm
11:32 AM 83.3°F28.5°C 69.9°F21.1°C 64% 7.5 mph E12.1 kmh E 9.2 mph14.8 kmh 28.98 in981.4 mb 0.00 in0.0 mm 0.00 in/hr0.0 mm/hr 0.08 in2.0 mm
11:31 AM 83.3°F28.5°C 69.9°F21.1°C 64% 7.5 mph E12.1 kmh E 9.2 mph14.8 kmh 28.98 in981.4 mb 0.00 in0.0 mm 0.00 in/hr0.0 mm/hr 0.08 in2.0 mm
11:30 AM 83.1°F28.4°C 69.7°F20.9°C 64% 7.7 mph E12.4 kmh E 9.8 mph15.8 kmh 28.98 in981.4 mb 0.00 in0.0 mm 0.00 in/hr0.0 mm/hr 0.08 in2.0 mm
11:29 AM 83.1°F28.4°C 69.7°F20.9°C 64% 7.6 mph E12.2 kmh E 9.8 mph15.8 kmh 28.98 in981.4 mb 0.00 in0.0 mm 0.00 in/hr0.0 mm/hr 0.08 in2.0 mm
11:28 AM 83.1°F28.4°C 69.7°F20.9°C 64% 7.4 mph E11.9 kmh E 9.8 mph15.8 kmh 28.99 in981.7 mb 0.00 in0.0 mm 0.00 in/hr0.0 mm/hr 0.08 in2.0 mm
11:27 AM 83.1°F28.4°C 69.7°F20.9°C 64% 7.4 mph ESE11.9 kmh ESE 9.8 mph15.8 kmh 28.99 in981.7 mb 0.00 in0.0 mm 0.00 in/hr0.0 mm/hr 0.08 in2.0 mm
11:26 AM 83.1°F28.4°C 69.7°F20.9°C 64% 7.2 mph E11.6 kmh E 9.8 mph15.8 kmh 28.98 in981.4 mb 0.00 in0.0 mm 0.00 in/hr0.0 mm/hr 0.08 in2.0 mm
11:25 AM 83.1°F28.4°C 69.7°F20.9°C 64% 6.8 mph E10.9 kmh E 9.8 mph15.8 kmh 28.99 in981.7 mb 0.00 in0.0 mm 0.00 in/hr0.0 mm/hr 0.08 in2.0 mm
11:24 AM 83.1°F28.4°C 69.7°F20.9°C 64% 6.8 mph E10.9 kmh E 9.8 mph15.8 kmh 28.99 in981.7 mb 0.00 in0.0 mm 0.00 in/hr0.0 mm/hr 0.08 in2.0 mm
11:23 AM 83.1°F28.4°C 70.2°F21.2°C 65% 6.9 mph E11.1 kmh E 9.8 mph15.8 kmh 28.98 in981.4 mb 0.00 in0.0 mm 0.00 in/hr0.0 mm/hr 0.08 in2.0 mm
11:22 AM 83.1°F28.4°C 70.6°F21.4°C 66% 6.9 mph E11.1 kmh E 9.8 mph15.8 kmh 28.99 in981.7 mb 0.00 in0.0 mm 0.00 in/hr0.0 mm/hr 0.08 in2.0 mm
11:21 AM 83.1°F28.4°C 70.6°F21.4°C 66% 6.8 mph E10.9 kmh E 9.8 mph15.8 kmh 28.99 in981.7 mb 0.00 in0.0 mm 0.00 in/hr0.0 mm/hr 0.08 in2.0 mm
11:20 AM 82.9°F28.3°C 70.5°F21.4°C 66% 6.6 mph E10.6 kmh E 9.8 mph15.8 kmh 28.99 in981.7 mb 0.00 in0.0 mm 0.00 in/hr0.0 mm/hr 0.08 in2.0 mm
11:19 AM 82.9°F28.3°C 70.5°F21.4°C 66% 6.7 mph E10.8 kmh E 9.8 mph15.8 kmh 28.99 in981.7 mb 0.00 in0.0 mm 0.00 in/hr0.0 mm/hr 0.08 in2.0 mm
11:18 AM 82.9°F28.3°C 70.5°F21.4°C 66% 6.8 mph ESE10.9 kmh ESE 9.8 mph15.8 kmh 28.98 in981.4 mb 0.00 in0.0 mm 0.00 in/hr0.0 mm/hr 0.08 in2.0 mm
11:17 AM 82.9°F28.3°C 70.9°F21.6°C 67% 6.6 mph E10.6 kmh E 9.8 mph15.8 kmh 28.99 in981.7 mb 0.00 in0.0 mm 0.00 in/hr0.0 mm/hr 0.08 in2.0 mm
11:16 AM 82.8°F28.2°C 71.2°F21.8°C 68% 6.5 mph E10.5 kmh E 9.8 mph15.8 kmh 28.98 in981.4 mb 0.00 in0.0 mm 0.00 in/hr0.0 mm/hr 0.08 in2.0 mm
11:15 AM 82.6°F28.1°C 71.0°F21.7°C 68% 6.8 mph E10.9 kmh E 9.8 mph15.8 kmh 28.98 in981.4 mb 0.00 in0.0 mm 0.00 in/hr0.0 mm/hr 0.08 in2.0 mm
11:14 AM 82.6°F28.1°C 71.0°F21.7°C 68% 6.8 mph E10.9 kmh E 9.8 mph15.8 kmh 28.98 in981.4 mb 0.00 in0.0 mm 0.00 in/hr0.0 mm/hr 0.08 in2.0 mm
11:13 AM 82.6°F28.1°C 71.0°F21.7°C 68% 6.5 mph E10.5 kmh E 8.3 mph13.4 kmh 28.98 in981.4 mb 0.00 in0.0 mm 0.00 in/hr0.0 mm/hr 0.08 in2.0 mm
11:12 AM 82.6°F28.1°C 71.0°F21.7°C 68% 6.4 mph ESE10.3 kmh ESE 8.3 mph13.4 kmh 28.98 in981.4 mb 0.00 in0.0 mm 0.00 in/hr0.0 mm/hr 0.08 in2.0 mm
11:11 AM 82.6°F28.1°C 70.6°F21.4°C 67% 6.5 mph E10.5 kmh E 8.3 mph13.4 kmh 28.98 in981.4 mb 0.00 in0.0 mm 0.00 in/hr0.0 mm/hr 0.08 in2.0 mm
11:10 AM 82.6°F28.1°C 70.6°F21.4°C 67% 6.5 mph ESE10.5 kmh ESE 8.3 mph13.4 kmh 28.98 in981.4 mb 0.00 in0.0 mm 0.00 in/hr0.0 mm/hr 0.08 in2.0 mm
11:09 AM 82.6°F28.1°C 70.6°F21.4°C 67% 6.3 mph ESE10.1 kmh ESE 8.3 mph13.4 kmh 28.98 in981.4 mb 0.00 in0.0 mm 0.00 in/hr0.0 mm/hr 0.08 in2.0 mm
11:08 AM 82.6°F28.1°C 71.0°F21.7°C 68% 6.1 mph E9.8 kmh E 8.3 mph13.4 kmh 28.98 in981.4 mb 0.00 in0.0 mm 0.00 in/hr0.0 mm/hr 0.08 in2.0 mm
11:07 AM 82.6°F28.1°C 71.0°F21.7°C 68% 6.3 mph ESE10.1 kmh ESE 8.3 mph13.4 kmh 28.98 in981.4 mb 0.00 in0.0 mm 0.00 in/hr0.0 mm/hr 0.08 in2.0 mm
11:06 AM 82.6°F28.1°C 70.6°F21.4°C 67% 6.3 mph SE10.1 kmh SE 8.3 mph13.4 kmh 28.98 in981.4 mb 0.00 in0.0 mm 0.00 in/hr0.0 mm/hr 0.08 in2.0 mm
11:05 AM 82.6°F28.1°C 71.0°F21.7°C 68% 6.3 mph SE10.1 kmh SE 8.3 mph13.4 kmh 28.98 in981.4 mb 0.00 in0.0 mm 0.00 in/hr0.0 mm/hr 0.08 in2.0 mm
11:04 AM 82.4°F28.0°C 71.3°F21.8°C 69% 6.2 mph SE10.0 kmh SE 8.3 mph13.4 kmh 28.98 in981.4 mb 0.00 in0.0 mm 0.00 in/hr0.0 mm/hr 0.08 in2.0 mm
11:03 AM 82.4°F28.0°C 71.3°F21.8°C 69% 6.4 mph SE10.3 kmh SE 8.3 mph13.4 kmh 28.98 in981.4 mb 0.00 in0.0 mm 0.00 in/hr0.0 mm/hr 0.08 in2.0 mm
11:02 AM 82.4°F28.0°C 71.3°F21.8°C 69% 6.5 mph SE10.5 kmh SE 8.3 mph13.4 kmh 28.98 in981.4 mb 0.00 in0.0 mm 0.00 in/hr0.0 mm/hr 0.08 in2.0 mm
11:01 AM 82.4°F28.0°C 71.7°F22.1°C 70% 6.2 mph SE10.0 kmh SE 8.3 mph13.4 kmh 28.98 in981.4 mb 0.00 in0.0 mm 0.00 in/hr0.0 mm/hr 0.08 in2.0 mm
11:00 AM 82.2°F27.9°C 72.3°F22.4°C 72% 6.0 mph SE9.7 kmh SE 8.3 mph13.4 kmh 28.98 in981.4 mb 0.00 in0.0 mm 0.00 in/hr0.0 mm/hr 0.08 in2.0 mm
10:59 AM 82.2°F27.9°C 72.3°F22.4°C 72% 5.9 mph SE9.5 kmh SE 8.3 mph13.4 kmh 28.98 in981.4 mb 0.00 in0.0 mm 0.00 in/hr0.0 mm/hr 0.08 in2.0 mm
10:58 AM 82.2°F27.9°C 72.3°F22.4°C 72% 5.7 mph SE9.2 kmh SE 8.3 mph13.4 kmh 28.98 in981.4 mb 0.00 in0.0 mm 0.00 in/hr0.0 mm/hr 0.08 in2.0 mm
10:57 AM 82.0°F27.8°C 71.8°F22.1°C 71% 5.6 mph SE9.0 kmh SE 8.3 mph13.4 kmh 28.98 in981.4 mb 0.00 in0.0 mm 0.00 in/hr0.0 mm/hr 0.08 in2.0 mm
10:56 AM 82.0°F27.8°C 72.2°F22.3°C 72% 5.1 mph SE8.2 kmh SE 8.3 mph13.4 kmh 28.98 in981.4 mb 0.00 in0.0 mm 0.00 in/hr0.0 mm/hr 0.08 in2.0 mm
10:55 AM 82.0°F27.8°C 72.2°F22.3°C 72% 4.7 mph SE7.6 kmh SE 7.6 mph12.2 kmh 28.98 in981.4 mb 0.00 in0.0 mm 0.00 in/hr0.0 mm/hr 0.08 in2.0 mm
10:54 AM 82.0°F27.8°C 72.2°F22.3°C 72% 4.5 mph SE7.2 kmh SE 7.6 mph12.2 kmh 28.98 in981.4 mb 0.00 in0.0 mm 0.00 in/hr0.0 mm/hr 0.08 in2.0 mm
10:53 AM 81.9°F27.7°C 72.0°F22.2°C 72% 4.3 mph SE6.9 kmh SE 7.6 mph12.2 kmh 28.98 in981.4 mb 0.00 in0.0 mm 0.00 in/hr0.0 mm/hr 0.08 in2.0 mm
10:52 AM 81.9°F27.7°C 72.0°F22.2°C 72% 4.1 mph SE6.6 kmh SE 6.0 mph9.7 kmh 28.98 in981.4 mb 0.00 in0.0 mm 0.00 in/hr0.0 mm/hr 0.08 in2.0 mm
10:51 AM 81.9°F27.7°C 72.4°F22.4°C 73% 4.2 mph SE6.8 kmh SE 6.0 mph9.7 kmh 28.98 in981.4 mb 0.00 in0.0 mm 0.00 in/hr0.0 mm/hr 0.08 in2.0 mm
10:50 AM 81.9°F27.7°C 72.4°F22.4°C 73% 4.0 mph SE6.4 kmh SE 6.0 mph9.7 kmh 28.98 in981.4 mb 0.00 in0.0 mm 0.00 in/hr0.0 mm/hr 0.08 in2.0 mm
10:49 AM 81.9°F27.7°C 72.8°F22.7°C 74% 4.0 mph SE6.4 kmh SE 6.0 mph9.7 kmh 28.98 in981.4 mb 0.00 in0.0 mm 0.00 in/hr0.0 mm/hr 0.08 in2.0 mm
10:48 AM 81.7°F27.6°C 73.0°F22.8°C 75% 4.0 mph ESE6.4 kmh ESE 6.0 mph9.7 kmh 28.98 in981.4 mb 0.00 in0.0 mm 0.00 in/hr0.0 mm/hr 0.08 in2.0 mm
10:47 AM 81.7°F27.6°C 73.0°F22.8°C 75% 3.9 mph E6.3 kmh E 6.0 mph9.7 kmh 28.98 in981.4 mb 0.00 in0.0 mm 0.00 in/hr0.0 mm/hr 0.08 in2.0 mm
10:46 AM 81.5°F27.5°C 72.9°F22.7°C 75% 3.8 mph ESE6.1 kmh ESE 6.0 mph9.7 kmh 28.98 in981.4 mb 0.00 in0.0 mm 0.00 in/hr0.0 mm/hr 0.08 in2.0 mm
10:45 AM 81.5°F27.5°C 72.9°F22.7°C 75% 3.8 mph SE6.1 kmh SE 6.0 mph9.7 kmh 28.98 in981.4 mb 0.00 in0.0 mm 0.00 in/hr0.0 mm/hr 0.08 in2.0 mm
10:44 AM 81.5°F27.5°C 73.3°F22.9°C 76% 3.8 mph ESE6.1 kmh ESE 6.0 mph9.7 kmh 28.98 in981.4 mb 0.00 in0.0 mm 0.00 in/hr0.0 mm/hr 0.08 in2.0 mm
10:43 AM 81.5°F27.5°C 73.7°F23.2°C 77% 3.6 mph ESE5.8 kmh ESE 6.0 mph9.7 kmh 28.98 in981.4 mb 0.00 in0.0 mm 0.00 in/hr0.0 mm/hr 0.08 in2.0 mm
10:42 AM 81.3°F27.4°C 73.9°F23.3°C 78% 3.4 mph ESE5.5 kmh ESE 6.0 mph9.7 kmh 28.98 in981.4 mb 0.00 in0.0 mm 0.00 in/hr0.0 mm/hr 0.08 in2.0 mm
10:41 AM 81.1°F27.3°C 74.1°F23.4°C 79% 3.4 mph E5.5 kmh E 5.4 mph8.7 kmh 28.98 in981.4 mb 0.00 in0.0 mm 0.00 in/hr0.0 mm/hr 0.08 in2.0 mm
10:40 AM 80.6°F27.0°C 73.5°F23.1°C 79% 3.6 mph E5.8 kmh E 6.0 mph9.7 kmh 28.98 in981.4 mb 0.00 in0.0 mm 0.00 in/hr0.0 mm/hr 0.08 in2.0 mm
10:39 AM 80.6°F27.0°C 73.9°F23.3°C 80% 3.7 mph E6.0 kmh E 6.0 mph9.7 kmh 28.98 in981.4 mb 0.00 in0.0 mm 0.00 in/hr0.0 mm/hr 0.08 in2.0 mm
10:38 AM 80.4°F26.9°C 73.7°F23.2°C 80% 3.6 mph E5.8 kmh E 6.0 mph9.7 kmh 28.98 in981.4 mb 0.00 in0.0 mm 0.00 in/hr0.0 mm/hr 0.08 in2.0 mm
10:37 AM 80.2°F26.8°C 73.9°F23.3°C 81% 3.6 mph E5.8 kmh E 6.0 mph9.7 kmh 28.98 in981.4 mb 0.00 in0.0 mm 0.00 in/hr0.0 mm/hr 0.08 in2.0 mm
10:36 AM 80.1°F26.7°C 73.8°F23.2°C 81% 3.5 mph E5.6 kmh E 6.0 mph9.7 kmh 28.98 in981.4 mb 0.00 in0.0 mm 0.00 in/hr0.0 mm/hr 0.08 in2.0 mm
10:35 AM 79.9°F26.6°C 73.9°F23.3°C 82% 3.7 mph E6.0 kmh E 6.0 mph9.7 kmh 28.98 in981.4 mb 0.00 in0.0 mm 0.00 in/hr0.0 mm/hr 0.08 in2.0 mm
10:34 AM 80.1°F26.7°C 74.5°F23.6°C 83% 3.7 mph E6.0 kmh E 6.0 mph9.7 kmh 28.98 in981.4 mb 0.00 in0.0 mm 0.00 in/hr0.0 mm/hr 0.08 in2.0 mm
10:33 AM 79.9°F26.6°C 74.3°F23.5°C 83% 4.0 mph E6.4 kmh E 6.0 mph9.7 kmh 28.98 in981.4 mb 0.00 in0.0 mm 0.00 in/hr0.0 mm/hr 0.08 in2.0 mm
10:32 AM 79.9°F26.6°C 75.0°F23.9°C 85% 4.2 mph E6.8 kmh E 6.0 mph9.7 kmh 28.98 in981.4 mb 0.00 in0.0 mm 0.00 in/hr0.0 mm/hr 0.08 in2.0 mm
10:31 AM 79.7°F26.5°C 74.8°F23.8°C 85% 4.3 mph ESE6.9 kmh ESE 6.9 mph11.1 kmh 28.98 in981.4 mb 0.00 in0.0 mm 0.00 in/hr0.0 mm/hr 0.08 in2.0 mm
10:30 AM 79.7°F26.5°C 75.9°F24.4°C 88% 4.5 mph SE7.2 kmh SE 6.9 mph11.1 kmh 28.98 in981.4 mb 0.00 in0.0 mm 0.00 in/hr0.0 mm/hr 0.08 in2.0 mm
10:29 AM 79.3°F26.3°C 75.9°F24.4°C 89% 4.5 mph SE7.2 kmh SE 6.9 mph11.1 kmh 28.98 in981.4 mb 0.00 in0.0 mm 0.00 in/hr0.0 mm/hr 0.08 in2.0 mm
10:28 AM 78.8°F26.0°C 76.0°F24.4°C 91% 4.8 mph SE7.7 kmh SE 6.9 mph11.1 kmh 28.98 in981.4 mb 0.00 in0.0 mm 0.00 in/hr0.0 mm/hr 0.08 in2.0 mm
10:27 AM 78.6°F25.9°C 76.2°F24.6°C 92% 5.1 mph SE8.2 kmh SE 6.9 mph11.1 kmh 28.98 in981.4 mb 0.00 in0.0 mm 0.00 in/hr0.0 mm/hr 0.08 in2.0 mm
10:26 AM 78.3°F25.7°C 76.1°F24.5°C 93% 5.4 mph SE8.7 kmh SE 6.9 mph11.1 kmh 28.98 in981.4 mb 0.00 in0.0 mm 0.00 in/hr0.0 mm/hr 0.08 in2.0 mm
10:25 AM 77.9°F25.5°C 75.8°F24.3°C 93% 5.5 mph SE8.9 kmh SE 6.9 mph11.1 kmh 28.98 in981.4 mb 0.00 in0.0 mm 0.00 in/hr0.0 mm/hr 0.08 in2.0 mm
10:24 AM 77.4°F25.2°C 75.9°F24.4°C 95% 5.7 mph SE9.2 kmh SE 6.9 mph11.1 kmh 28.98 in981.4 mb 0.00 in0.0 mm 0.00 in/hr0.0 mm/hr 0.08 in2.0 mm
10:23 AM 77.4°F25.2°C 76.2°F24.6°C 96% 5.8 mph SE9.3 kmh SE 7.6 mph12.2 kmh 28.98 in981.4 mb 0.00 in0.0 mm 0.00 in/hr0.0 mm/hr 0.08 in2.0 mm
10:22 AM 77.0°F25.0°C 76.1°F24.5°C 97% 5.8 mph SE9.3 kmh SE 7.6 mph12.2 kmh 28.98 in981.4 mb 0.00 in0.0 mm 0.00 in/hr0.0 mm/hr 0.08 in2.0 mm
10:21 AM 76.8°F24.9°C 76.3°F24.6°C 98% 6.0 mph SE9.7 kmh SE 8.3 mph13.4 kmh 28.98 in981.4 mb 0.00 in0.0 mm 0.00 in/hr0.0 mm/hr 0.08 in2.0 mm
10:20 AM 76.5°F24.7°C 76.2°F24.6°C 99% 6.1 mph ESE9.8 kmh ESE 8.3 mph13.4 kmh 28.98 in981.4 mb 0.00 in0.0 mm 0.00 in/hr0.0 mm/hr 0.08 in2.0 mm
10:19 AM 76.3°F24.6°C 76.0°F24.4°C 99% 6.1 mph ESE9.8 kmh ESE 8.3 mph13.4 kmh 28.98 in981.4 mb 0.00 in0.0 mm 0.00 in/hr0.0 mm/hr 0.08 in2.0 mm
10:18 AM 76.1°F24.5°C 75.9°F24.4°C 99% 5.9 mph ESE9.5 kmh ESE 8.3 mph13.4 kmh 28.98 in981.4 mb 0.00 in0.0 mm 0.00 in/hr0.0 mm/hr 0.08 in2.0 mm
10:17 AM 75.7°F24.3°C 75.5°F24.2°C 99% 6.0 mph ESE9.7 kmh ESE 8.3 mph13.4 kmh 28.98 in981.4 mb 0.00 in0.0 mm 0.00 in/hr0.0 mm/hr 0.08 in2.0 mm
10:16 AM 75.6°F24.2°C 75.3°F24.1°C 99% 6.1 mph ESE9.8 kmh ESE 8.3 mph13.4 kmh 28.98 in981.4 mb 0.00 in0.0 mm 0.00 in/hr0.0 mm/hr 0.08 in2.0 mm
10:15 AM 75.4°F24.1°C 75.1°F23.9°C 99% 6.0 mph ESE9.7 kmh ESE 8.3 mph13.4 kmh 28.98 in981.4 mb 0.00 in0.0 mm 0.00 in/hr0.0 mm/hr 0.08 in2.0 mm
10:14 AM 75.2°F24.0°C 75.0°F23.9°C 99% 6.0 mph ESE9.7 kmh ESE 8.3 mph13.4 kmh 28.98 in981.4 mb 0.00 in0.0 mm 0.00 in/hr0.0 mm/hr 0.08 in2.0 mm
10:13 AM 75.0°F23.9°C 74.8°F23.8°C 99% 5.8 mph ESE9.3 kmh ESE 8.3 mph13.4 kmh 28.98 in981.4 mb 0.00 in0.0 mm 0.00 in/hr0.0 mm/hr 0.08 in2.0 mm
10:12 AM 74.7°F23.7°C 74.4°F23.6°C 99% 5.6 mph ESE9.0 kmh ESE 8.3 mph13.4 kmh 28.98 in981.4 mb 0.00 in0.0 mm 0.00 in/hr0.0 mm/hr 0.08 in2.0 mm
10:11 AM 74.7°F23.7°C 74.4°F23.6°C 99% 5.1 mph SE8.2 kmh SE 7.6 mph12.2 kmh 28.98 in981.4 mb 0.00 in0.0 mm 0.00 in/hr0.0 mm/hr 0.08 in2.0 mm
10:10 AM 74.5°F23.6°C 74.2°F23.4°C 99% 4.6 mph SE7.4 kmh SE 7.6 mph12.2 kmh 28.98 in981.4 mb 0.00 in0.0 mm 0.00 in/hr0.0 mm/hr 0.08 in2.0 mm
10:09 AM 74.3°F23.5°C 74.1°F23.4°C 99% 4.7 mph SE7.6 kmh SE 6.9 mph11.1 kmh 28.98 in981.4 mb 0.00 in0.0 mm 0.00 in/hr0.0 mm/hr 0.08 in2.0 mm
10:08 AM 74.1°F23.4°C 73.9°F23.3°C 99% 4.8 mph SE7.7 kmh SE 6.9 mph11.1 kmh 28.98 in981.4 mb 0.00 in0.0 mm 0.00 in/hr0.0 mm/hr 0.08 in2.0 mm
10:07 AM 73.9°F23.3°C 73.7°F23.2°C 99% 4.6 mph SE7.4 kmh SE 6.9 mph11.1 kmh 28.98 in981.4 mb 0.00 in0.0 mm 0.00 in/hr0.0 mm/hr 0.08 in2.0 mm
10:06 AM 73.9°F23.3°C 73.7°F23.2°C 99% 4.3 mph SE6.9 kmh SE 6.9 mph11.1 kmh 28.98 in981.4 mb 0.00 in0.0 mm 0.00 in/hr0.0 mm/hr 0.08 in2.0 mm
10:05 AM 73.9°F23.3°C 73.7°F23.2°C 99% 4.2 mph SE6.8 kmh SE 6.9 mph11.1 kmh 28.98 in981.4 mb 0.00 in0.0 mm 0.00 in/hr0.0 mm/hr 0.08 in2.0 mm
10:04 AM 73.8°F23.2°C 73.5°F23.1°C 99% 3.8 mph SE6.1 kmh SE 6.9 mph11.1 kmh 28.98 in981.4 mb 0.00 in0.0 mm 0.00 in/hr0.0 mm/hr 0.08 in2.0 mm
10:03 AM 73.8°F23.2°C 73.5°F23.1°C 99% 3.7 mph SE6.0 kmh SE 6.9 mph11.1 kmh 28.98 in981.4 mb 0.00 in0.0 mm 0.00 in/hr0.0 mm/hr 0.08 in2.0 mm
10:02 AM 73.6°F23.1°C 73.3°F22.9°C 99% 3.7 mph SE6.0 kmh SE 6.9 mph11.1 kmh 28.98 in981.4 mb 0.00 in0.0 mm 0.00 in/hr0.0 mm/hr 0.08 in2.0 mm
10:01 AM 73.6°F23.1°C 73.3°F22.9°C 99% 3.9 mph SE6.3 kmh SE 6.9 mph11.1 kmh 28.98 in981.4 mb 0.00 in0.0 mm 0.00 in/hr0.0 mm/hr 0.08 in2.0 mm
10:00 AM 73.2°F22.9°C 73.0°F22.8°C 99% 4.0 mph ESE6.4 kmh ESE 6.9 mph11.1 kmh 28.98 in981.4 mb 0.00 in0.0 mm 0.00 in/hr0.0 mm/hr 0.08 in2.0 mm
09:59 AM 73.0°F22.8°C 72.8°F22.7°C 99% 3.9 mph E6.3 kmh E 6.0 mph9.7 kmh 28.98 in981.4 mb 0.00 in0.0 mm 0.00 in/hr0.0 mm/hr 0.08 in2.0 mm
09:58 AM 73.0°F22.8°C 72.8°F22.7°C 99% 3.8 mph E6.1 kmh E 6.0 mph9.7 kmh 28.98 in981.4 mb 0.00 in0.0 mm 0.00 in/hr0.0 mm/hr 0.08 in2.0 mm
09:57 AM 72.7°F22.6°C 72.4°F22.4°C 99% 3.7 mph E6.0 kmh E 6.0 mph9.7 kmh 28.98 in981.4 mb 0.00 in0.0 mm 0.00 in/hr0.0 mm/hr 0.08 in2.0 mm
09:56 AM 72.5°F22.5°C 72.2°F22.3°C 99% 3.7 mph ENE6.0 kmh ENE 6.0 mph9.7 kmh 28.99 in981.7 mb 0.00 in0.0 mm 0.00 in/hr0.0 mm/hr 0.08 in2.0 mm
09:55 AM 72.3°F22.4°C 72.1°F22.3°C 99% 3.7 mph ENE6.0 kmh ENE 6.0 mph9.7 kmh 28.98 in981.4 mb 0.00 in0.0 mm 0.00 in/hr0.0 mm/hr 0.08 in2.0 mm
09:54 AM 72.1°F22.3°C 71.9°F22.2°C 99% 4.0 mph NE6.4 kmh NE 6.0 mph9.7 kmh 28.98 in981.4 mb 0.00 in0.0 mm 0.00 in/hr0.0 mm/hr 0.08 in2.0 mm
09:53 AM 72.1°F22.3°C 71.9°F22.2°C 99% 4.2 mph NE6.8 kmh NE 6.0 mph9.7 kmh 28.98 in981.4 mb 0.00 in0.0 mm 0.00 in/hr0.0 mm/hr 0.08 in2.0 mm
09:52 AM 71.8°F22.1°C 71.5°F21.9°C 99% 4.3 mph NE6.9 kmh NE 6.0 mph9.7 kmh 28.98 in981.4 mb 0.00 in0.0 mm 0.00 in/hr0.0 mm/hr 0.08 in2.0 mm
09:51 AM 71.6°F22.0°C 71.3°F21.8°C 99% 4.3 mph NE6.9 kmh NE 6.0 mph9.7 kmh 28.98 in981.4 mb 0.00 in0.0 mm 0.00 in/hr0.0 mm/hr 0.08 in2.0 mm
09:50 AM 71.4°F21.9°C 71.2°F21.8°C 99% 4.3 mph NE6.9 kmh NE 6.0 mph9.7 kmh 28.98 in981.4 mb 0.00 in0.0 mm 0.00 in/hr0.0 mm/hr 0.08 in2.0 mm
09:49 AM 71.2°F21.8°C 71.0°F21.7°C 99% 4.3 mph NE6.9 kmh NE 6.0 mph9.7 kmh 28.98 in981.4 mb 0.00 in0.0 mm 0.00 in/hr0.0 mm/hr 0.08 in2.0 mm
09:48 AM 71.1°F21.7°C 70.8°F21.6°C 99% 4.3 mph NE6.9 kmh NE 6.0 mph9.7 kmh 28.98 in981.4 mb 0.00 in0.0 mm 0.00 in/hr0.0 mm/hr 0.08 in2.0 mm
09:47 AM 70.9°F21.6°C 70.6°F21.4°C 99% 4.5 mph NE7.2 kmh NE 6.0 mph9.7 kmh 28.98 in981.4 mb 0.00 in0.0 mm 0.00 in/hr0.0 mm/hr 0.08 in2.0 mm
09:46 AM 70.9°F21.6°C 70.6°F21.4°C 99% 4.7 mph NE7.6 kmh NE 6.0 mph9.7 kmh 28.98 in981.4 mb 0.00 in0.0 mm 0.00 in/hr0.0 mm/hr 0.08 in2.0 mm
09:45 AM 70.9°F21.6°C 70.6°F21.4°C 99% 4.6 mph NE7.4 kmh NE 6.0 mph9.7 kmh 28.98 in981.4 mb 0.00 in0.0 mm 0.00 in/hr0.0 mm/hr 0.08 in2.0 mm
09:44 AM 70.9°F21.6°C 70.6°F21.4°C 99% 4.5 mph NE7.2 kmh NE 6.0 mph9.7 kmh 28.98 in981.4 mb 0.00 in0.0 mm 0.00 in/hr0.0 mm/hr 0.08 in2.0 mm
09:43 AM 70.9°F21.6°C 70.6°F21.4°C 99% 4.2 mph NE6.8 kmh NE 6.0 mph9.7 kmh 28.98 in981.4 mb 0.00 in0.0 mm 0.00 in/hr0.0 mm/hr 0.08 in2.0 mm
09:42 AM 70.9°F21.6°C 70.6°F21.4°C 99% 4.1 mph NE6.6 kmh NE 6.0 mph9.7 kmh 28.98 in981.4 mb 0.00 in0.0 mm 0.00 in/hr0.0 mm/hr 0.08 in2.0 mm
09:41 AM 70.7°F21.5°C 70.4°F21.3°C 99% 4.0 mph NE6.4 kmh NE 6.0 mph9.7 kmh 28.98 in981.4 mb 0.00 in0.0 mm 0.00 in/hr0.0 mm/hr 0.08 in2.0 mm
09:40 AM 70.7°F21.5°C 70.4°F21.3°C 99% 4.0 mph NE6.4 kmh NE 6.0 mph9.7 kmh 28.98 in981.4 mb 0.00 in0.0 mm 0.00 in/hr0.0 mm/hr 0.08 in2.0 mm
09:39 AM 70.5°F21.4°C 70.3°F21.3°C 99% 3.9 mph NE6.3 kmh NE 5.4 mph8.7 kmh 28.98 in981.4 mb 0.00 in0.0 mm 0.00 in/hr0.0 mm/hr 0.08 in2.0 mm
09:38 AM 70.3°F21.3°C 70.1°F21.2°C 99% 3.9 mph NE6.3 kmh NE 5.4 mph8.7 kmh 28.98 in981.4 mb 0.00 in0.0 mm 0.00 in/hr0.0 mm/hr 0.08 in2.0 mm
09:37 AM 70.2°F21.2°C 69.9°F21.1°C 99% 3.8 mph NE6.1 kmh NE 5.4 mph8.7 kmh 28.98 in981.4 mb 0.00 in0.0 mm 0.00 in/hr0.0 mm/hr 0.08 in2.0 mm
09:36 AM 69.8°F21.0°C 69.5°F20.8°C 99% 3.6 mph NE5.8 kmh NE 4.5 mph7.2 kmh 28.98 in981.4 mb 0.00 in0.0 mm 0.00 in/hr0.0 mm/hr 0.08 in2.0 mm
09:35 AM 69.6°F20.9°C 69.4°F20.8°C 99% 3.5 mph NE5.6 kmh NE 4.5 mph7.2 kmh 28.98 in981.4 mb 0.00 in0.0 mm 0.00 in/hr0.0 mm/hr 0.08 in2.0 mm
09:34 AM 69.4°F20.8°C 69.2°F20.7°C 99% 3.5 mph NE5.6 kmh NE 4.5 mph7.2 kmh 28.98 in981.4 mb 0.00 in0.0 mm 0.00 in/hr0.0 mm/hr 0.08 in2.0 mm
09:33 AM 69.3°F20.7°C 69.0°F20.6°C 99% 3.5 mph ENE5.6 kmh ENE 4.5 mph7.2 kmh 28.98 in981.4 mb 0.00 in0.0 mm 0.00 in/hr0.0 mm/hr 0.08 in2.0 mm
09:32 AM 69.3°F20.7°C 69.0°F20.6°C 99% 3.5 mph ENE5.6 kmh ENE 4.5 mph7.2 kmh 28.98 in981.4 mb 0.00 in0.0 mm 0.00 in/hr0.0 mm/hr 0.08 in2.0 mm
09:31 AM 69.1°F20.6°C 68.8°F20.4°C 99% 3.4 mph ENE5.5 kmh ENE 4.5 mph7.2 kmh 28.98 in981.4 mb 0.00 in0.0 mm 0.00 in/hr0.0 mm/hr 0.08 in2.0 mm
09:30 AM 69.1°F20.6°C 68.8°F20.4°C 99% 3.3 mph ENE5.3 kmh ENE 3.8 mph6.1 kmh 28.99 in981.7 mb 0.00 in0.0 mm 0.00 in/hr0.0 mm/hr 0.08 in2.0 mm
09:29 AM 68.9°F20.5°C 68.6°F20.3°C 99% 3.3 mph ENE5.3 kmh ENE 3.8 mph6.1 kmh 28.99 in981.7 mb 0.00 in0.0 mm 0.00 in/hr0.0 mm/hr 0.08 in2.0 mm
09:28 AM 68.5°F20.3°C 68.3°F20.2°C 99% 3.1 mph E5.0 kmh E 3.8 mph6.1 kmh 28.99 in981.7 mb 0.00 in0.0 mm 0.00 in/hr0.0 mm/hr 0.08 in2.0 mm
09:27 AM 68.4°F20.2°C 68.1°F20.1°C 99% 3.2 mph E5.1 kmh E 4.5 mph7.2 kmh 28.99 in981.7 mb 0.00 in0.0 mm 0.00 in/hr0.0 mm/hr 0.08 in2.0 mm
09:26 AM 68.2°F20.1°C 67.9°F19.9°C 99% 3.2 mph E5.1 kmh E 4.5 mph7.2 kmh 28.99 in981.7 mb 0.00 in0.0 mm 0.00 in/hr0.0 mm/hr 0.08 in2.0 mm
09:25 AM 67.8°F19.9°C 67.6°F19.8°C 99% 3.0 mph E4.8 kmh E 4.5 mph7.2 kmh 28.99 in981.7 mb 0.00 in0.0 mm 0.00 in/hr0.0 mm/hr 0.08 in2.0 mm
09:24 AM 67.5°F19.7°C 67.2°F19.6°C 99% 3.1 mph E5.0 kmh E 5.4 mph8.7 kmh 28.98 in981.4 mb 0.00 in0.0 mm 0.00 in/hr0.0 mm/hr 0.08 in2.0 mm
09:23 AM 67.3°F19.6°C 67.0°F19.4°C 99% 3.3 mph E5.3 kmh E 5.4 mph8.7 kmh 28.98 in981.4 mb 0.00 in0.0 mm 0.00 in/hr0.0 mm/hr 0.08 in2.0 mm
09:22 AM 67.3°F19.6°C 67.0°F19.4°C 99% 3.5 mph ENE5.6 kmh ENE 5.4 mph8.7 kmh 28.98 in981.4 mb 0.00 in0.0 mm 0.00 in/hr0.0 mm/hr 0.08 in2.0 mm
09:21 AM 67.1°F19.5°C 66.8°F19.3°C 99% 3.6 mph E5.8 kmh E 5.4 mph8.7 kmh 28.99 in981.7 mb 0.00 in0.0 mm 0.00 in/hr0.0 mm/hr 0.08 in2.0 mm
09:20 AM 66.9°F19.4°C 66.7°F19.3°C 99% 3.5 mph E5.6 kmh E 5.4 mph8.7 kmh 28.98 in981.4 mb 0.00 in0.0 mm 0.00 in/hr0.0 mm/hr 0.08 in2.0 mm
09:19 AM 66.9°F19.4°C 66.7°F19.3°C 99% 3.5 mph E5.6 kmh E 5.4 mph8.7 kmh 28.98 in981.4 mb 0.00 in0.0 mm 0.00 in/hr0.0 mm/hr 0.08 in2.0 mm
09:18 AM 66.7°F19.3°C 66.5°F19.2°C 99% 3.6 mph E5.8 kmh E 5.4 mph8.7 kmh 28.98 in981.4 mb 0.00 in0.0 mm 0.00 in/hr0.0 mm/hr 0.08 in2.0 mm
09:17 AM 66.7°F19.3°C 66.5°F19.2°C 99% 3.6 mph E5.8 kmh E 5.4 mph8.7 kmh 28.98 in981.4 mb 0.00 in0.0 mm 0.00 in/hr0.0 mm/hr 0.08 in2.0 mm
09:16 AM 66.7°F19.3°C 66.5°F19.2°C 99% 3.7 mph E6.0 kmh E 5.4 mph8.7 kmh 28.98 in981.4 mb 0.00 in0.0 mm 0.00 in/hr0.0 mm/hr 0.08 in2.0 mm
09:15 AM 66.7°F19.3°C 66.5°F19.2°C 99% 3.8 mph E6.1 kmh E 5.4 mph8.7 kmh 28.98 in981.4 mb 0.00 in0.0 mm 0.00 in/hr0.0 mm/hr 0.08 in2.0 mm
09:14 AM 66.7°F19.3°C 66.5°F19.2°C 99% 3.7 mph E6.0 kmh E 5.4 mph8.7 kmh 28.98 in981.4 mb 0.00 in0.0 mm 0.00 in/hr0.0 mm/hr 0.08 in2.0 mm
09:13 AM 66.7°F19.3°C 66.5°F19.2°C 99% 3.5 mph ESE5.6 kmh ESE 5.4 mph8.7 kmh 28.98 in981.4 mb 0.00 in0.0 mm 0.00 in/hr0.0 mm/hr 0.08 in2.0 mm
09:12 AM 66.7°F19.3°C 66.5°F19.2°C 99% 3.5 mph ESE5.6 kmh ESE 5.4 mph8.7 kmh 28.98 in981.4 mb 0.00 in0.0 mm 0.00 in/hr0.0 mm/hr 0.08 in2.0 mm
09:11 AM 66.7°F19.3°C 66.5°F19.2°C 99% 3.4 mph ESE5.5 kmh ESE 5.4 mph8.7 kmh 28.98 in981.4 mb 0.00 in0.0 mm 0.00 in/hr0.0 mm/hr 0.08 in2.0 mm
09:10 AM 66.7°F19.3°C 66.5°F19.2°C 99% 3.4 mph ESE5.5 kmh ESE 5.4 mph8.7 kmh 28.98 in981.4 mb 0.00 in0.0 mm 0.00 in/hr0.0 mm/hr 0.08 in2.0 mm
09:09 AM 66.6°F19.2°C 66.3°F19.1°C 99% 3.4 mph ESE5.5 kmh ESE 6.0 mph9.7 kmh 28.98 in981.4 mb 0.00 in0.0 mm 0.00 in/hr0.0 mm/hr 0.08 in2.0 mm
09:08 AM 66.6°F19.2°C 66.3°F19.1°C 99% 3.7 mph ESE6.0 kmh ESE 6.0 mph9.7 kmh 28.98 in981.4 mb 0.00 in0.0 mm 0.00 in/hr0.0 mm/hr 0.08 in2.0 mm
09:07 AM 66.4°F19.1°C 66.1°F18.9°C 99% 3.7 mph ESE6.0 kmh ESE 6.0 mph9.7 kmh 28.98 in981.4 mb 0.00 in0.0 mm 0.00 in/hr0.0 mm/hr 0.08 in2.0 mm
09:06 AM 66.4°F19.1°C 66.1°F18.9°C 99% 3.4 mph ESE5.5 kmh ESE 6.0 mph9.7 kmh 28.98 in981.4 mb 0.00 in0.0 mm 0.00 in/hr0.0 mm/hr 0.08 in2.0 mm
09:05 AM 66.2°F19.0°C 65.9°F18.8°C 99% 3.5 mph E5.6 kmh E 6.0 mph9.7 kmh 28.98 in981.4 mb 0.00 in0.0 mm 0.00 in/hr0.0 mm/hr 0.08 in2.0 mm
09:04 AM 66.2°F19.0°C 65.9°F18.8°C 99% 3.7 mph E6.0 kmh E 6.0 mph9.7 kmh 28.98 in981.4 mb 0.00 in0.0 mm 0.00 in/hr0.0 mm/hr 0.08 in2.0 mm
09:03 AM 66.0°F18.9°C 65.8°F18.8°C 99% 3.9 mph E6.3 kmh E 6.0 mph9.7 kmh 28.98 in981.4 mb 0.00 in0.0 mm 0.00 in/hr0.0 mm/hr 0.08 in2.0 mm
09:02 AM 66.0°F18.9°C 65.8°F18.8°C 99% 3.8 mph E6.1 kmh E 6.0 mph9.7 kmh 28.99 in981.7 mb 0.00 in0.0 mm 0.00 in/hr0.0 mm/hr 0.08 in2.0 mm
09:01 AM 66.0°F18.9°C 65.8°F18.8°C 99% 4.0 mph E6.4 kmh E 6.0 mph9.7 kmh 28.99 in981.7 mb 0.00 in0.0 mm 0.00 in/hr0.0 mm/hr 0.08 in2.0 mm
09:00 AM 65.8°F18.8°C 65.6°F18.7°C 99% 4.2 mph E6.8 kmh E 6.0 mph9.7 kmh 28.99 in981.7 mb 0.00 in0.0 mm 0.00 in/hr0.0 mm/hr 0.08 in2.0 mm
08:59 AM 65.8°F18.8°C 65.6°F18.7°C 99% 4.2 mph E6.8 kmh E 6.0 mph9.7 kmh 28.98 in981.4 mb 0.00 in0.0 mm 0.00 in/hr0.0 mm/hr 0.08 in2.0 mm
08:58 AM 65.7°F18.7°C 65.4°F18.6°C 99% 4.1 mph E6.6 kmh E 5.4 mph8.7 kmh 28.99 in981.7 mb 0.00 in0.0 mm 0.00 in/hr0.0 mm/hr 0.08 in2.0 mm
08:57 AM 65.7°F18.7°C 65.4°F18.6°C 99% 4.0 mph E6.4 kmh E 6.9 mph11.1 kmh 28.99 in981.7 mb 0.00 in0.0 mm 0.00 in/hr0.0 mm/hr 0.08 in2.0 mm
08:56 AM 65.5°F18.6°C 65.2°F18.4°C 99% 4.4 mph E7.1 kmh E 6.9 mph11.1 kmh 28.99 in981.7 mb 0.01 in0.3 mm 0.00 in/hr0.0 mm/hr 0.08 in2.0 mm
08:55 AM 65.5°F18.6°C 65.2°F18.4°C 99% 4.6 mph E7.4 kmh E 7.6 mph12.2 kmh 28.99 in981.7 mb 0.01 in0.3 mm 0.00 in/hr0.0 mm/hr 0.08 in2.0 mm
08:54 AM 65.3°F18.5°C 65.0°F18.3°C 99% 4.8 mph E7.7 kmh E 7.6 mph12.2 kmh 28.99 in981.7 mb 0.01 in0.3 mm 0.00 in/hr0.0 mm/hr 0.08 in2.0 mm
08:53 AM 65.3°F18.5°C 65.0°F18.3°C 99% 5.2 mph ESE8.4 kmh ESE 8.3 mph13.4 kmh 28.99 in981.7 mb 0.01 in0.3 mm 0.00 in/hr0.0 mm/hr 0.08 in2.0 mm
08:52 AM 65.3°F18.5°C 65.0°F18.3°C 99% 5.3 mph ESE8.5 kmh ESE 8.3 mph13.4 kmh 28.99 in981.7 mb 0.01 in0.3 mm 0.00 in/hr0.0 mm/hr 0.08 in2.0 mm
08:51 AM 65.3°F18.5°C 65.0°F18.3°C 99% 5.6 mph E9.0 kmh E 8.3 mph13.4 kmh 28.99 in981.7 mb 0.01 in0.3 mm 0.00 in/hr0.0 mm/hr 0.08 in2.0 mm
08:50 AM 65.1°F18.4°C 64.9°F18.3°C 99% 5.8 mph E9.3 kmh E 8.3 mph13.4 kmh 28.99 in981.7 mb 0.01 in0.3 mm 0.00 in/hr0.0 mm/hr 0.08 in2.0 mm
08:49 AM 65.1°F18.4°C 64.9°F18.3°C 99% 5.9 mph E9.5 kmh E 8.3 mph13.4 kmh 28.99 in981.7 mb 0.01 in0.3 mm 0.00 in/hr0.0 mm/hr 0.08 in2.0 mm
08:48 AM 65.3°F18.5°C 65.0°F18.3°C 99% 6.1 mph E9.8 kmh E 8.3 mph13.4 kmh 28.99 in981.7 mb 0.01 in0.3 mm 0.00 in/hr0.0 mm/hr 0.08 in2.0 mm
08:47 AM 65.3°F18.5°C 65.0°F18.3°C 99% 6.4 mph E10.3 kmh E 8.3 mph13.4 kmh 28.99 in981.7 mb 0.01 in0.3 mm 0.00 in/hr0.0 mm/hr 0.08 in2.0 mm
08:46 AM 65.3°F18.5°C 65.0°F18.3°C 99% 6.5 mph E10.5 kmh E 8.3 mph13.4 kmh 28.99 in981.7 mb 0.01 in0.3 mm 0.00 in/hr0.0 mm/hr 0.08 in2.0 mm
08:45 AM 65.3°F18.5°C 65.0°F18.3°C 99% 6.3 mph E10.1 kmh E 8.3 mph13.4 kmh 28.99 in981.7 mb 0.01 in0.3 mm 0.00 in/hr0.0 mm/hr 0.08 in2.0 mm
08:44 AM 65.3°F18.5°C 65.0°F18.3°C 99% 6.0 mph E9.7 kmh E 8.3 mph13.4 kmh 28.99 in981.7 mb 0.01 in0.3 mm 0.00 in/hr0.0 mm/hr 0.08 in2.0 mm
08:43 AM 65.1°F18.4°C 64.9°F18.3°C 99% 5.6 mph E9.0 kmh E 8.3 mph13.4 kmh 28.99 in981.7 mb 0.01 in0.3 mm 0.00 in/hr0.0 mm/hr 0.08 in2.0 mm
08:42 AM 65.1°F18.4°C 64.9°F18.3°C 99% 5.3 mph E8.5 kmh E 8.3 mph13.4 kmh 28.99 in981.7 mb 0.01 in0.3 mm 0.00 in/hr0.0 mm/hr 0.08 in2.0 mm
08:41 AM 65.1°F18.4°C 64.9°F18.3°C 99% 5.0 mph E8.0 kmh E 8.3 mph13.4 kmh 28.99 in981.7 mb 0.01 in0.3 mm 0.00 in/hr0.0 mm/hr 0.08 in2.0 mm
08:40 AM 65.1°F18.4°C 64.9°F18.3°C 99% 4.9 mph E7.9 kmh E 7.6 mph12.2 kmh 28.99 in981.7 mb 0.01 in0.3 mm 0.00 in/hr0.0 mm/hr 0.08 in2.0 mm
08:39 AM 65.1°F18.4°C 64.9°F18.3°C 99% 5.0 mph E8.0 kmh E 7.6 mph12.2 kmh 28.99 in981.7 mb 0.01 in0.3 mm 0.00 in/hr0.0 mm/hr 0.08 in2.0 mm
08:38 AM 65.1°F18.4°C 64.9°F18.3°C 99% 4.6 mph E7.4 kmh E 7.6 mph12.2 kmh 28.99 in981.7 mb 0.01 in0.3 mm 0.00 in/hr0.0 mm/hr 0.08 in2.0 mm
08:37 AM 65.1°F18.4°C 64.9°F18.3°C 99% 4.5 mph E7.2 kmh E 7.6 mph12.2 kmh 28.99 in981.7 mb 0.01 in0.3 mm 0.00 in/hr0.0 mm/hr 0.08 in2.0 mm
08:36 AM 65.1°F18.4°C 64.9°F18.3°C 99% 4.2 mph E6.8 kmh E 6.0 mph9.7 kmh 28.99 in981.7 mb 0.01 in0.3 mm 0.00 in/hr0.0 mm/hr 0.08 in2.0 mm
08:35 AM 65.1°F18.4°C 64.9°F18.3°C 99% 4.3 mph ESE6.9 kmh ESE 6.0 mph9.7 kmh 28.99 in981.7 mb 0.01 in0.3 mm 0.00 in/hr0.0 mm/hr 0.08 in2.0 mm
08:34 AM 65.1°F18.4°C 64.9°F18.3°C 99% 4.3 mph ESE6.9 kmh ESE 6.0 mph9.7 kmh 28.99 in981.7 mb 0.01 in0.3 mm 0.00 in/hr0.0 mm/hr 0.08 in2.0 mm
08:33 AM 65.1°F18.4°C 64.9°F18.3°C 99% 4.4 mph ESE7.1 kmh ESE 6.0 mph9.7 kmh 28.99 in981.7 mb 0.01 in0.3 mm 0.00 in/hr0.0 mm/hr 0.08 in2.0 mm
08:32 AM 65.1°F18.4°C 64.9°F18.3°C 99% 4.8 mph ESE7.7 kmh ESE 7.6 mph12.2 kmh 28.99 in981.7 mb 0.01 in0.3 mm 0.00 in/hr0.0 mm/hr 0.08 in2.0 mm
08:31 AM 65.1°F18.4°C 64.9°F18.3°C 99% 4.9 mph ESE7.9 kmh ESE 7.6 mph12.2 kmh 28.98 in981.4 mb 0.01 in0.3 mm 0.00 in/hr0.0 mm/hr 0.08 in2.0 mm
08:30 AM 65.1°F18.4°C 64.9°F18.3°C 99% 4.7 mph ESE7.6 kmh ESE 7.6 mph12.2 kmh 28.99 in981.7 mb 0.01 in0.3 mm 0.00 in/hr0.0 mm/hr 0.08 in2.0 mm
08:29 AM 65.1°F18.4°C 64.9°F18.3°C 99% 4.7 mph ESE7.6 kmh ESE 7.6 mph12.2 kmh 28.99 in981.7 mb 0.01 in0.3 mm 0.00 in/hr0.0 mm/hr 0.08 in2.0 mm
08:28 AM 65.1°F18.4°C 64.9°F18.3°C 99% 4.7 mph E7.6 kmh E 7.6 mph12.2 kmh 28.99 in981.7 mb 0.01 in0.3 mm 0.00 in/hr0.0 mm/hr 0.08 in2.0 mm
08:27 AM 65.1°F18.4°C 64.9°F18.3°C 99% 4.7 mph E7.6 kmh E 7.6 mph12.2 kmh 28.99 in981.7 mb 0.01 in0.3 mm 0.00 in/hr0.0 mm/hr 0.08 in2.0 mm
08:26 AM 65.1°F18.4°C 64.9°F18.3°C 99% 4.7 mph E7.6 kmh E 7.6 mph12.2 kmh 28.99 in981.7 mb 0.01 in0.3 mm 0.00 in/hr0.0 mm/hr 0.08 in2.0 mm
08:25 AM 64.9°F18.3°C 64.7°F18.2°C 99% 4.6 mph E7.4 kmh E 7.6 mph12.2 kmh 28.99 in981.7 mb 0.01 in0.3 mm 0.00 in/hr0.0 mm/hr 0.08 in2.0 mm
08:24 AM 64.9°F18.3°C 64.7°F18.2°C 99% 4.5 mph E7.2 kmh E 7.6 mph12.2 kmh 28.99 in981.7 mb 0.01 in0.3 mm 0.00 in/hr0.0 mm/hr 0.08 in2.0 mm
08:23 AM 64.9°F18.3°C 64.7°F18.2°C 99% 4.5 mph E7.2 kmh E 7.6 mph12.2 kmh 28.99 in981.7 mb 0.01 in0.3 mm 0.00 in/hr0.0 mm/hr 0.08 in2.0 mm
08:22 AM 64.9°F18.3°C 64.7°F18.2°C 99% 4.1 mph E6.6 kmh E 7.6 mph12.2 kmh 28.99 in981.7 mb 0.01 in0.3 mm 0.00 in/hr0.0 mm/hr 0.08 in2.0 mm
08:21 AM 64.9°F18.3°C 64.7°F18.2°C 99% 3.8 mph E6.1 kmh E 4.5 mph7.2 kmh 28.99 in981.7 mb 0.01 in0.3 mm 0.00 in/hr0.0 mm/hr 0.08 in2.0 mm
08:20 AM 64.9°F18.3°C 64.7°F18.2°C 99% 3.8 mph E6.1 kmh E 4.5 mph7.2 kmh 28.99 in981.7 mb 0.01 in0.3 mm 0.00 in/hr0.0 mm/hr 0.08 in2.0 mm
08:19 AM 64.9°F18.3°C 64.7°F18.2°C 99% 3.7 mph E6.0 kmh E 4.5 mph7.2 kmh 28.98 in981.4 mb 0.01 in0.3 mm 0.00 in/hr0.0 mm/hr 0.08 in2.0 mm
08:18 AM 64.9°F18.3°C 64.7°F18.2°C 99% 3.6 mph E5.8 kmh E 4.5 mph7.2 kmh 28.99 in981.7 mb 0.01 in0.3 mm 0.00 in/hr0.0 mm/hr 0.08 in2.0 mm
08:17 AM 64.9°F18.3°C 64.7°F18.2°C 99% 3.7 mph E6.0 kmh E 5.4 mph8.7 kmh 28.99 in981.7 mb 0.01 in0.3 mm 0.00 in/hr0.0 mm/hr 0.08 in2.0 mm
08:16 AM 64.9°F18.3°C 64.7°F18.2°C 99% 3.9 mph E6.3 kmh E 6.0 mph9.7 kmh 28.99 in981.7 mb 0.01 in0.3 mm 0.00 in/hr0.0 mm/hr 0.08 in2.0 mm
08:15 AM 64.9°F18.3°C 64.7°F18.2°C 99% 4.1 mph E6.6 kmh E 7.6 mph12.2 kmh 28.99 in981.7 mb 0.01 in0.3 mm 0.00 in/hr0.0 mm/hr 0.08 in2.0 mm
08:14 AM 64.9°F18.3°C 64.7°F18.2°C 99% 4.1 mph E6.6 kmh E 7.6 mph12.2 kmh 28.99 in981.7 mb 0.01 in0.3 mm 0.00 in/hr0.0 mm/hr 0.08 in2.0 mm
08:13 AM 64.9°F18.3°C 64.7°F18.2°C 99% 4.2 mph E6.8 kmh E 7.6 mph12.2 kmh 28.99 in981.7 mb 0.01 in0.3 mm 0.00 in/hr0.0 mm/hr 0.08 in2.0 mm
08:12 AM 64.9°F18.3°C 64.7°F18.2°C 99% 4.3 mph E6.9 kmh E 7.6 mph12.2 kmh 28.99 in981.7 mb 0.01 in0.3 mm 0.00 in/hr0.0 mm/hr 0.08 in2.0 mm
08:11 AM 64.9°F18.3°C 64.7°F18.2°C 99% 4.3 mph E6.9 kmh E 7.6 mph12.2 kmh 28.99 in981.7 mb 0.01 in0.3 mm 0.00 in/hr0.0 mm/hr 0.08 in2.0 mm
08:10 AM 64.9°F18.3°C 64.7°F18.2°C 99% 4.3 mph E6.9 kmh E 7.6 mph12.2 kmh 28.99 in981.7 mb 0.01 in0.3 mm 0.00 in/hr0.0 mm/hr 0.08 in2.0 mm
08:09 AM 64.9°F18.3°C 64.7°F18.2°C 99% 4.3 mph E6.9 kmh E 7.6 mph12.2 kmh 28.99 in981.7 mb 0.01 in0.3 mm 0.00 in/hr0.0 mm/hr 0.08 in2.0 mm
08:08 AM 64.9°F18.3°C 64.7°F18.2°C 99% 4.2 mph E6.8 kmh E 7.6 mph12.2 kmh 28.99 in981.7 mb 0.01 in0.3 mm 0.00 in/hr0.0 mm/hr 0.08 in2.0 mm
08:07 AM 64.9°F18.3°C 64.7°F18.2°C 99% 4.0 mph E6.4 kmh E 7.6 mph12.2 kmh 28.99 in981.7 mb 0.01 in0.3 mm 0.00 in/hr0.0 mm/hr 0.08 in2.0 mm
08:06 AM 65.3°F18.5°C 65.0°F18.3°C 99% 3.9 mph E6.3 kmh E 7.6 mph12.2 kmh 28.99 in981.7 mb 0.01 in0.3 mm 0.00 in/hr0.0 mm/hr 0.08 in2.0 mm
08:05 AM 64.9°F18.3°C 64.7°F18.2°C 99% 3.9 mph ESE6.3 kmh ESE 7.6 mph12.2 kmh 28.98 in981.4 mb 0.01 in0.3 mm 0.00 in/hr0.0 mm/hr 0.08 in2.0 mm
08:04 AM 64.9°F18.3°C 64.7°F18.2°C 99% 4.0 mph ESE6.4 kmh ESE 7.6 mph12.2 kmh 28.99 in981.7 mb 0.01 in0.3 mm 0.00 in/hr0.0 mm/hr 0.08 in2.0 mm
08:03 AM 64.8°F18.2°C 64.5°F18.1°C 99% 3.8 mph ESE6.1 kmh ESE 7.6 mph12.2 kmh 28.98 in981.4 mb 0.01 in0.3 mm 0.00 in/hr0.0 mm/hr 0.08 in2.0 mm
08:02 AM 64.8°F18.2°C 64.5°F18.1°C 99% 3.8 mph ESE6.1 kmh ESE 7.6 mph12.2 kmh 28.99 in981.7 mb 0.01 in0.3 mm 0.00 in/hr0.0 mm/hr 0.08 in2.0 mm
08:01 AM 64.8°F18.2°C 64.5°F18.1°C 99% 3.7 mph ESE6.0 kmh ESE 7.6 mph12.2 kmh 28.99 in981.7 mb 0.01 in0.3 mm 0.00 in/hr0.0 mm/hr 0.08 in2.0 mm
08:00 AM 64.8°F18.2°C 64.5°F18.1°C 99% 3.7 mph E6.0 kmh E 7.6 mph12.2 kmh 28.98 in981.4 mb 0.01 in0.3 mm 0.00 in/hr0.0 mm/hr 0.08 in2.0 mm
07:59 AM 64.8°F18.2°C 64.5°F18.1°C 99% 3.9 mph ESE6.3 kmh ESE 7.6 mph12.2 kmh 28.99 in981.7 mb 0.01 in0.3 mm 0.00 in/hr0.0 mm/hr 0.08 in2.0 mm
07:58 AM 64.6°F18.1°C 64.3°F17.9°C 99% 4.3 mph E6.9 kmh E 7.6 mph12.2 kmh 28.98 in981.4 mb 0.01 in0.3 mm 0.00 in/hr0.0 mm/hr 0.08 in2.0 mm
07:57 AM 64.6°F18.1°C 64.3°F17.9°C 99% 4.2 mph E6.8 kmh E 7.6 mph12.2 kmh 28.98 in981.4 mb 0.01 in0.3 mm 0.60 in/hr15.2 mm/hr 0.08 in2.0 mm
07:56 AM 64.8°F18.2°C 64.5°F18.1°C 99% 4.3 mph ESE6.9 kmh ESE 7.6 mph12.2 kmh 28.98 in981.4 mb 0.00 in0.0 mm 0.00 in/hr0.0 mm/hr 0.07 in1.8 mm
07:55 AM 64.8°F18.2°C 64.5°F18.1°C 99% 4.0 mph E6.4 kmh E 6.9 mph11.1 kmh 28.99 in981.7 mb 0.00 in0.0 mm 0.00 in/hr0.0 mm/hr 0.07 in1.8 mm
07:54 AM 64.8°F18.2°C 64.5°F18.1°C 99% 4.0 mph E6.4 kmh E 6.9 mph11.1 kmh 28.99 in981.7 mb 0.00 in0.0 mm 0.00 in/hr0.0 mm/hr 0.07 in1.8 mm
07:53 AM 64.8°F18.2°C 64.5°F18.1°C 99% 4.0 mph E6.4 kmh E 6.9 mph11.1 kmh 28.98 in981.4 mb 0.00 in0.0 mm 0.00 in/hr0.0 mm/hr 0.07 in1.8 mm
07:52 AM 64.8°F18.2°C 64.5°F18.1°C 99% 3.9 mph E6.3 kmh E 6.9 mph11.1 kmh 28.98 in981.4 mb 0.00 in0.0 mm 0.00 in/hr0.0 mm/hr 0.07 in1.8 mm
07:51 AM 64.8°F18.2°C 64.5°F18.1°C 99% 4.0 mph E6.4 kmh E 6.9 mph11.1 kmh 28.99 in981.7 mb 0.00 in0.0 mm 0.00 in/hr0.0 mm/hr 0.07 in1.8 mm
07:50 AM 64.6°F18.1°C 64.3°F17.9°C 99% 4.1 mph E6.6 kmh E 6.9 mph11.1 kmh 28.98 in981.4 mb 0.00 in0.0 mm 0.00 in/hr0.0 mm/hr 0.07 in1.8 mm
07:49 AM 64.8°F18.2°C 64.5°F18.1°C 99% 4.1 mph E6.6 kmh E 6.9 mph11.1 kmh 28.99 in981.7 mb 0.00 in0.0 mm 0.00 in/hr0.0 mm/hr 0.07 in1.8 mm
07:48 AM 64.6°F18.1°C 64.3°F17.9°C 99% 4.0 mph E6.4 kmh E 6.0 mph9.7 kmh 28.99 in981.7 mb 0.00 in0.0 mm 0.00 in/hr0.0 mm/hr 0.07 in1.8 mm
07:47 AM 64.6°F18.1°C 64.3°F17.9°C 99% 4.0 mph E6.4 kmh E 6.0 mph9.7 kmh 28.99 in981.7 mb 0.00 in0.0 mm 0.00 in/hr0.0 mm/hr 0.07 in1.8 mm
07:46 AM 64.6°F18.1°C 64.3°F17.9°C 99% 4.2 mph E6.8 kmh E 6.0 mph9.7 kmh 28.99 in981.7 mb 0.00 in0.0 mm 0.00 in/hr0.0 mm/hr 0.07 in1.8 mm
07:45 AM 64.6°F18.1°C 64.3°F17.9°C 99% 4.1 mph E6.6 kmh E 6.0 mph9.7 kmh 28.99 in981.7 mb 0.00 in0.0 mm 0.00 in/hr0.0 mm/hr 0.07 in1.8 mm
07:44 AM 64.4°F18.0°C 64.1°F17.8°C 99% 4.2 mph E6.8 kmh E 7.6 mph12.2 kmh 28.99 in981.7 mb 0.00 in0.0 mm 0.00 in/hr0.0 mm/hr 0.07 in1.8 mm
07:43 AM 64.4°F18.0°C 64.1°F17.8°C 99% 4.3 mph E6.9 kmh E 7.6 mph12.2 kmh 28.99 in981.7 mb 0.00 in0.0 mm 0.00 in/hr0.0 mm/hr 0.07 in1.8 mm
07:42 AM 64.4°F18.0°C 64.1°F17.8°C 99% 4.6 mph E7.4 kmh E 7.6 mph12.2 kmh 28.99 in981.7 mb 0.00 in0.0 mm 0.00 in/hr0.0 mm/hr 0.07 in1.8 mm
07:41 AM 64.6°F18.1°C 64.3°F17.9°C 99% 4.7 mph ESE7.6 kmh ESE 7.6 mph12.2 kmh 28.99 in981.7 mb 0.00 in0.0 mm 0.00 in/hr0.0 mm/hr 0.07 in1.8 mm
07:40 AM 64.6°F18.1°C 64.3°F17.9°C 99% 4.9 mph ESE7.9 kmh ESE 7.6 mph12.2 kmh 28.99 in981.7 mb 0.00 in0.0 mm 0.00 in/hr0.0 mm/hr 0.07 in1.8 mm
07:39 AM 64.4°F18.0°C 64.1°F17.8°C 99% 4.9 mph ESE7.9 kmh ESE 7.6 mph12.2 kmh 28.99 in981.7 mb 0.00 in0.0 mm 0.00 in/hr0.0 mm/hr 0.07 in1.8 mm
07:38 AM 64.4°F18.0°C 64.1°F17.8°C 99% 5.0 mph ESE8.0 kmh ESE 7.6 mph12.2 kmh 28.99 in981.7 mb 0.00 in0.0 mm 0.00 in/hr0.0 mm/hr 0.07 in1.8 mm
07:37 AM 64.4°F18.0°C 64.1°F17.8°C 99% 5.0 mph ESE8.0 kmh ESE 7.6 mph12.2 kmh 28.99 in981.7 mb 0.00 in0.0 mm 0.00 in/hr0.0 mm/hr 0.07 in1.8 mm
07:36 AM 64.4°F18.0°C 64.1°F17.8°C 99% 4.8 mph ESE7.7 kmh ESE 7.6 mph12.2 kmh 28.99 in981.7 mb 0.00 in0.0 mm 0.00 in/hr0.0 mm/hr 0.07 in1.8 mm
07:35 AM 64.4°F18.0°C 64.1°F17.8°C 99% 4.8 mph ESE7.7 kmh ESE 7.6 mph12.2 kmh 28.99 in981.7 mb 0.00 in0.0 mm 0.00 in/hr0.0 mm/hr 0.07 in1.8 mm
07:34 AM 64.4°F18.0°C 64.1°F17.8°C 99% 4.7 mph ESE7.6 kmh ESE 7.6 mph12.2 kmh 28.99 in981.7 mb 0.00 in0.0 mm 0.00 in/hr0.0 mm/hr 0.07 in1.8 mm
07:33 AM 64.4°F18.0°C 64.1°F17.8°C 99% 4.6 mph ESE7.4 kmh ESE 6.9 mph11.1 kmh 28.99 in981.7 mb 0.00 in0.0 mm 0.00 in/hr0.0 mm/hr 0.07 in1.8 mm
07:32 AM 64.4°F18.0°C 64.1°F17.8°C 99% 4.4 mph ESE7.1 kmh ESE 6.9 mph11.1 kmh 28.99 in981.7 mb 0.00 in0.0 mm 0.00 in/hr0.0 mm/hr 0.07 in1.8 mm
07:31 AM 64.4°F18.0°C 64.1°F17.8°C 99% 4.3 mph E6.9 kmh E 6.9 mph11.1 kmh 28.99 in981.7 mb 0.00 in0.0 mm 0.00 in/hr0.0 mm/hr 0.07 in1.8 mm
07:30 AM 64.4°F18.0°C 64.1°F17.8°C 99% 4.2 mph E6.8 kmh E 6.9 mph11.1 kmh 28.99 in981.7 mb 0.00 in0.0 mm 0.00 in/hr0.0 mm/hr 0.07 in1.8 mm
07:29 AM 64.4°F18.0°C 64.1°F17.8°C 99% 4.3 mph E6.9 kmh E 6.9 mph11.1 kmh 28.98 in981.4 mb 0.00 in0.0 mm 0.00 in/hr0.0 mm/hr 0.07 in1.8 mm
07:28 AM 64.4°F18.0°C 64.1°F17.8°C 99% 4.3 mph E6.9 kmh E 7.6 mph12.2 kmh 28.99 in981.7 mb 0.00 in0.0 mm 0.00 in/hr0.0 mm/hr 0.07 in1.8 mm
07:27 AM 64.4°F18.0°C 64.1°F17.8°C 99% 4.4 mph E7.1 kmh E 7.6 mph12.2 kmh 28.99 in981.7 mb 0.00 in0.0 mm 0.00 in/hr0.0 mm/hr 0.07 in1.8 mm
07:26 AM 64.4°F18.0°C 64.1°F17.8°C 99% 4.4 mph E7.1 kmh E 7.6 mph12.2 kmh 28.98 in981.4 mb 0.00 in0.0 mm 0.00 in/hr0.0 mm/hr 0.07 in1.8 mm
07:25 AM 64.4°F18.0°C 64.1°F17.8°C 99% 4.5 mph ENE7.2 kmh ENE 7.6 mph12.2 kmh 28.99 in981.7 mb 0.00 in0.0 mm 0.00 in/hr0.0 mm/hr 0.07 in1.8 mm
07:24 AM 64.4°F18.0°C 64.1°F17.8°C 99% 4.6 mph ENE7.4 kmh ENE 7.6 mph12.2 kmh 28.99 in981.7 mb 0.00 in0.0 mm 0.00 in/hr0.0 mm/hr 0.07 in1.8 mm
07:23 AM 64.4°F18.0°C 64.1°F17.8°C 99% 4.7 mph ENE7.6 kmh ENE 7.6 mph12.2 kmh 28.98 in981.4 mb 0.00 in0.0 mm 0.00 in/hr0.0 mm/hr 0.07 in1.8 mm
07:22 AM 64.4°F18.0°C 64.1°F17.8°C 99% 5.0 mph ENE8.0 kmh ENE 7.6 mph12.2 kmh 28.98 in981.4 mb 0.00 in0.0 mm 0.00 in/hr0.0 mm/hr 0.07 in1.8 mm
07:21 AM 64.4°F18.0°C 64.1°F17.8°C 99% 5.3 mph ENE8.5 kmh ENE 7.6 mph12.2 kmh 28.99 in981.7 mb 0.00 in0.0 mm 0.00 in/hr0.0 mm/hr 0.07 in1.8 mm
07:20 AM 64.4°F18.0°C 64.1°F17.8°C 99% 5.2 mph ENE8.4 kmh ENE 7.6 mph12.2 kmh 28.99 in981.7 mb 0.00 in0.0 mm 0.00 in/hr0.0 mm/hr 0.07 in1.8 mm
07:19 AM 64.4°F18.0°C 64.1°F17.8°C 99% 5.1 mph ENE8.2 kmh ENE 7.6 mph12.2 kmh 28.98 in981.4 mb 0.00 in0.0 mm 0.00 in/hr0.0 mm/hr 0.07 in1.8 mm
07:18 AM 64.4°F18.0°C 64.1°F17.8°C 99% 4.8 mph E7.7 kmh E 7.6 mph12.2 kmh 28.98 in981.4 mb 0.00 in0.0 mm 0.00 in/hr0.0 mm/hr 0.07 in1.8 mm
07:17 AM 64.4°F18.0°C 64.1°F17.8°C 99% 4.8 mph E7.7 kmh E 7.6 mph12.2 kmh 28.98 in981.4 mb 0.00 in0.0 mm 0.00 in/hr0.0 mm/hr 0.07 in1.8 mm
07:16 AM 64.4°F18.0°C 64.1°F17.8°C 99% 5.0 mph E8.0 kmh E 7.6 mph12.2 kmh 28.98 in981.4 mb 0.00 in0.0 mm 0.00 in/hr0.0 mm/hr 0.07 in1.8 mm
07:15 AM 64.4°F18.0°C 64.1°F17.8°C 99% 5.0 mph E8.0 kmh E 7.6 mph12.2 kmh 28.98 in981.4 mb 0.00 in0.0 mm 0.00 in/hr0.0 mm/hr 0.07 in1.8 mm
07:14 AM 64.4°F18.0°C 64.1°F17.8°C 99% 4.7 mph E7.6 kmh E 7.6 mph12.2 kmh 28.98 in981.4 mb 0.00 in0.0 mm 0.00 in/hr0.0 mm/hr 0.07 in1.8 mm
07:13 AM 64.4°F18.0°C 64.1°F17.8°C 99% 4.9 mph ESE7.9 kmh ESE 7.6 mph12.2 kmh 28.98 in981.4 mb 0.00 in0.0 mm 0.00 in/hr0.0 mm/hr 0.07 in1.8 mm
07:12 AM 64.4°F18.0°C 64.1°F17.8°C 99% 4.7 mph SE7.6 kmh SE 7.6 mph12.2 kmh 28.98 in981.4 mb 0.00 in0.0 mm 0.00 in/hr0.0 mm/hr 0.07 in1.8 mm
07:11 AM 64.4°F18.0°C 64.1°F17.8°C 99% 4.7 mph SE7.6 kmh SE 7.6 mph12.2 kmh 28.98 in981.4 mb 0.00 in0.0 mm 0.00 in/hr0.0 mm/hr 0.07 in1.8 mm
07:10 AM 64.4°F18.0°C 64.1°F17.8°C 99% 4.6 mph SE7.4 kmh SE 7.6 mph12.2 kmh 28.98 in981.4 mb 0.00 in0.0 mm 0.00 in/hr0.0 mm/hr 0.07 in1.8 mm
07:09 AM 64.4°F18.0°C 64.1°F17.8°C 99% 4.5 mph SE7.2 kmh SE 7.6 mph12.2 kmh 28.98 in981.4 mb 0.00 in0.0 mm 0.00 in/hr0.0 mm/hr 0.07 in1.8 mm
07:08 AM 64.4°F18.0°C 64.1°F17.8°C 99% 4.6 mph SE7.4 kmh SE 7.6 mph12.2 kmh 28.98 in981.4 mb 0.00 in0.0 mm 0.00 in/hr0.0 mm/hr 0.07 in1.8 mm
07:07 AM 64.4°F18.0°C 64.1°F17.8°C 99% 4.4 mph SE7.1 kmh SE 7.6 mph12.2 kmh 28.98 in981.4 mb 0.00 in0.0 mm 0.00 in/hr0.0 mm/hr 0.07 in1.8 mm
07:06 AM 64.4°F18.0°C 64.1°F17.8°C 99% 4.2 mph SE6.8 kmh SE 7.6 mph12.2 kmh 28.98 in981.4 mb 0.00 in0.0 mm 0.00 in/hr0.0 mm/hr 0.07 in1.8 mm
07:05 AM 64.4°F18.0°C 64.1°F17.8°C 99% 4.1 mph SE6.6 kmh SE 7.6 mph12.2 kmh 28.98 in981.4 mb 0.00 in0.0 mm 0.00 in/hr0.0 mm/hr 0.07 in1.8 mm
07:04 AM 64.4°F18.0°C 64.1°F17.8°C 99% 4.2 mph SE6.8 kmh SE 7.6 mph12.2 kmh 28.98 in981.4 mb 0.00 in0.0 mm 0.00 in/hr0.0 mm/hr 0.07 in1.8 mm
07:03 AM 64.4°F18.0°C 64.1°F17.8°C 99% 3.9 mph SE6.3 kmh SE 6.0 mph9.7 kmh 28.98 in981.4 mb 0.00 in0.0 mm 0.00 in/hr0.0 mm/hr 0.07 in1.8 mm
07:02 AM 64.4°F18.0°C 64.1°F17.8°C 99% 3.8 mph ESE6.1 kmh ESE 6.0 mph9.7 kmh 28.98 in981.4 mb 0.00 in0.0 mm 0.00 in/hr0.0 mm/hr 0.07 in1.8 mm
07:01 AM 64.4°F18.0°C 64.1°F17.8°C 99% 3.4 mph SE5.5 kmh SE 6.0 mph9.7 kmh 28.98 in981.4 mb 0.00 in0.0 mm 0.00 in/hr0.0 mm/hr 0.07 in1.8 mm
07:00 AM 64.4°F18.0°C 64.1°F17.8°C 99% 3.5 mph SE5.6 kmh SE 5.4 mph8.7 kmh 28.98 in981.4 mb 0.00 in0.0 mm 0.00 in/hr0.0 mm/hr 0.07 in1.8 mm
06:59 AM 64.4°F18.0°C 64.1°F17.8°C 99% 3.6 mph ESE5.8 kmh ESE 5.4 mph8.7 kmh 28.98 in981.4 mb 0.00 in0.0 mm 0.00 in/hr0.0 mm/hr 0.07 in1.8 mm
06:58 AM 64.4°F18.0°C 64.1°F17.8°C 99% 3.5 mph E5.6 kmh E 5.4 mph8.7 kmh 28.98 in981.4 mb 0.00 in0.0 mm 0.00 in/hr0.0 mm/hr 0.07 in1.8 mm
06:57 AM 64.4°F18.0°C 64.1°F17.8°C 99% 3.5 mph E5.6 kmh E 5.4 mph8.7 kmh 28.98 in981.4 mb 0.00 in0.0 mm 0.00 in/hr0.0 mm/hr 0.07 in1.8 mm
06:56 AM 64.4°F18.0°C 64.1°F17.8°C 99% 3.6 mph E5.8 kmh E 5.4 mph8.7 kmh 28.98 in981.4 mb 0.00 in0.0 mm 0.00 in/hr0.0 mm/hr 0.07 in1.8 mm
06:55 AM 64.4°F18.0°C 64.1°F17.8°C 99% 3.6 mph E5.8 kmh E 5.4 mph8.7 kmh 28.98 in981.4 mb 0.00 in0.0 mm 0.00 in/hr0.0 mm/hr 0.07 in1.8 mm
06:54 AM 64.4°F18.0°C 64.1°F17.8°C 99% 3.7 mph E6.0 kmh E 5.4 mph8.7 kmh 28.98 in981.4 mb 0.00 in0.0 mm 0.00 in/hr0.0 mm/hr 0.07 in1.8 mm
06:53 AM 64.4°F18.0°C 64.1°F17.8°C 99% 3.6 mph E5.8 kmh E 5.4 mph8.7 kmh 28.98 in981.4 mb 0.00 in0.0 mm 0.00 in/hr0.0 mm/hr 0.07 in1.8 mm
06:52 AM 64.4°F18.0°C 64.1°F17.8°C 99% 3.8 mph E6.1 kmh E 6.9 mph11.1 kmh 28.97 in981.0 mb 0.00 in0.0 mm 0.00 in/hr0.0 mm/hr 0.07 in1.8 mm
06:51 AM 64.4°F18.0°C 64.1°F17.8°C 99% 4.0 mph E6.4 kmh E 6.9 mph11.1 kmh 28.97 in981.0 mb 0.00 in0.0 mm 0.00 in/hr0.0 mm/hr 0.07 in1.8 mm
06:50 AM 64.4°F18.0°C 64.1°F17.8°C 99% 4.0 mph E6.4 kmh E 6.9 mph11.1 kmh 28.97 in981.0 mb 0.01 in0.3 mm 0.00 in/hr0.0 mm/hr 0.07 in1.8 mm
06:49 AM 64.4°F18.0°C 64.1°F17.8°C 99% 3.9 mph E6.3 kmh E 6.9 mph11.1 kmh 28.97 in981.0 mb 0.01 in0.3 mm 0.00 in/hr0.0 mm/hr 0.07 in1.8 mm
06:48 AM 64.2°F17.9°C 64.0°F17.8°C 99% 4.0 mph E6.4 kmh E 6.9 mph11.1 kmh 28.97 in981.0 mb 0.01 in0.3 mm 0.00 in/hr0.0 mm/hr 0.07 in1.8 mm
06:47 AM 64.2°F17.9°C 64.0°F17.8°C 99% 4.1 mph E6.6 kmh E 6.9 mph11.1 kmh 28.97 in981.0 mb 0.01 in0.3 mm 0.00 in/hr0.0 mm/hr 0.07 in1.8 mm
06:46 AM 64.2°F17.9°C 64.0°F17.8°C 99% 4.4 mph E7.1 kmh E 6.9 mph11.1 kmh 28.97 in981.0 mb 0.01 in0.3 mm 0.00 in/hr0.0 mm/hr 0.07 in1.8 mm
06:45 AM 64.2°F17.9°C 64.0°F17.8°C 99% 4.5 mph E7.2 kmh E 6.9 mph11.1 kmh 28.97 in981.0 mb 0.01 in0.3 mm 0.00 in/hr0.0 mm/hr 0.07 in1.8 mm
06:44 AM 64.2°F17.9°C 64.0°F17.8°C 99% 4.5 mph E7.2 kmh E 6.9 mph11.1 kmh 28.97 in981.0 mb 0.01 in0.3 mm 0.00 in/hr0.0 mm/hr 0.07 in1.8 mm
06:43 AM 64.2°F17.9°C 64.0°F17.8°C 99% 4.6 mph E7.4 kmh E 6.9 mph11.1 kmh 28.97 in981.0 mb 0.01 in0.3 mm 0.00 in/hr0.0 mm/hr 0.07 in1.8 mm
06:42 AM 64.2°F17.9°C 64.0°F17.8°C 99% 4.4 mph E7.1 kmh E 6.9 mph11.1 kmh 28.97 in981.0 mb 0.01 in0.3 mm 0.00 in/hr0.0 mm/hr 0.07 in1.8 mm
06:41 AM 64.2°F17.9°C 64.0°F17.8°C 99% 4.3 mph E6.9 kmh E 6.9 mph11.1 kmh 28.97 in981.0 mb 0.01 in0.3 mm 0.00 in/hr0.0 mm/hr 0.07 in1.8 mm
06:40 AM 64.2°F17.9°C 64.0°F17.8°C 99% 4.2 mph E6.8 kmh E 6.9 mph11.1 kmh 28.97 in981.0 mb 0.01 in0.3 mm 0.00 in/hr0.0 mm/hr 0.07 in1.8 mm
06:39 AM 64.2°F17.9°C 64.0°F17.8°C 99% 4.3 mph E6.9 kmh E 6.9 mph11.1 kmh 28.97 in981.0 mb 0.01 in0.3 mm 0.00 in/hr0.0 mm/hr 0.07 in1.8 mm
06:38 AM 64.2°F17.9°C 64.0°F17.8°C 99% 4.2 mph E6.8 kmh E 6.9 mph11.1 kmh 28.97 in981.0 mb 0.01 in0.3 mm 0.00 in/hr0.0 mm/hr 0.07 in1.8 mm
06:37 AM 64.2°F17.9°C 64.0°F17.8°C 99% 4.2 mph E6.8 kmh E 6.9 mph11.1 kmh 28.97 in981.0 mb 0.01 in0.3 mm 0.00 in/hr0.0 mm/hr 0.07 in1.8 mm
06:36 AM 64.0°F17.8°C 63.8°F17.7°C 99% 4.1 mph E6.6 kmh E 5.4 mph8.7 kmh 28.97 in981.0 mb 0.01 in0.3 mm 0.00 in/hr0.0 mm/hr 0.07 in1.8 mm
06:35 AM 64.0°F17.8°C 63.8°F17.7°C 99% 4.1 mph E6.6 kmh E 5.4 mph8.7 kmh 28.97 in981.0 mb 0.01 in0.3 mm 0.00 in/hr0.0 mm/hr 0.07 in1.8 mm
06:34 AM 64.0°F17.8°C 63.8°F17.7°C 99% 4.1 mph E6.6 kmh E 5.4 mph8.7 kmh 28.97 in981.0 mb 0.01 in0.3 mm 0.00 in/hr0.0 mm/hr 0.07 in1.8 mm
06:33 AM 64.0°F17.8°C 63.8°F17.7°C 99% 4.0 mph E6.4 kmh E 5.4 mph8.7 kmh 28.97 in981.0 mb 0.01 in0.3 mm 0.00 in/hr0.0 mm/hr 0.07 in1.8 mm
06:32 AM 64.0°F17.8°C 63.8°F17.7°C 99% 4.0 mph E6.4 kmh E 5.4 mph8.7 kmh 28.97 in981.0 mb 0.01 in0.3 mm 0.00 in/hr0.0 mm/hr 0.07 in1.8 mm
06:31 AM 64.0°F17.8°C 63.8°F17.7°C 99% 4.0 mph E6.4 kmh E 5.4 mph8.7 kmh 28.97 in981.0 mb 0.01 in0.3 mm 0.00 in/hr0.0 mm/hr 0.07 in1.8 mm
06:30 AM 64.0°F17.8°C 63.8°F17.7°C 99% 4.0 mph E6.4 kmh E 5.4 mph8.7 kmh 28.97 in981.0 mb 0.01 in0.3 mm 0.00 in/hr0.0 mm/hr 0.07 in1.8 mm
06:29 AM 64.0°F17.8°C 63.8°F17.7°C 99% 3.9 mph E6.3 kmh E 5.4 mph8.7 kmh 28.98 in981.4 mb 0.01 in0.3 mm 0.00 in/hr0.0 mm/hr 0.07 in1.8 mm
06:28 AM 64.0°F17.8°C 63.8°F17.7°C 99% 3.9 mph E6.3 kmh E 5.4 mph8.7 kmh 28.97 in981.0 mb 0.01 in0.3 mm 0.00 in/hr0.0 mm/hr 0.07 in1.8 mm
06:27 AM 64.0°F17.8°C 63.8°F17.7°C 99% 4.0 mph E6.4 kmh E 5.4 mph8.7 kmh 28.97 in981.0 mb 0.01 in0.3 mm 0.00 in/hr0.0 mm/hr 0.07 in1.8 mm
06:26 AM 64.0°F17.8°C 63.8°F17.7°C 99% 3.8 mph ESE6.1 kmh ESE 5.4 mph8.7 kmh 28.98 in981.4 mb 0.01 in0.3 mm 0.00 in/hr0.0 mm/hr 0.07 in1.8 mm
06:25 AM 64.0°F17.8°C 63.8°F17.7°C 99% 3.6 mph ESE5.8 kmh ESE 5.4 mph8.7 kmh 28.97 in981.0 mb 0.01 in0.3 mm 0.00 in/hr0.0 mm/hr 0.07 in1.8 mm
06:24 AM 63.9°F17.7°C 63.6°F17.6°C 99% 3.4 mph ESE5.5 kmh ESE 4.5 mph7.2 kmh 28.97 in981.0 mb 0.01 in0.3 mm 0.00 in/hr0.0 mm/hr 0.07 in1.8 mm
06:23 AM 63.9°F17.7°C 63.6°F17.6°C 99% 3.3 mph SE5.3 kmh SE 4.5 mph7.2 kmh 28.97 in981.0 mb 0.01 in0.3 mm 0.00 in/hr0.0 mm/hr 0.07 in1.8 mm
06:22 AM 63.9°F17.7°C 63.6°F17.6°C 99% 3.4 mph SE5.5 kmh SE 5.4 mph8.7 kmh 28.98 in981.4 mb 0.01 in0.3 mm 0.00 in/hr0.0 mm/hr 0.07 in1.8 mm
06:21 AM 63.9°F17.7°C 63.6°F17.6°C 99% 3.3 mph ESE5.3 kmh ESE 5.4 mph8.7 kmh 28.97 in981.0 mb 0.01 in0.3 mm 0.00 in/hr0.0 mm/hr 0.07 in1.8 mm
06:20 AM 63.9°F17.7°C 63.6°F17.6°C 99% 3.2 mph ESE5.1 kmh ESE 5.4 mph8.7 kmh 28.97 in981.0 mb 0.01 in0.3 mm 0.00 in/hr0.0 mm/hr 0.07 in1.8 mm
06:19 AM 63.9°F17.7°C 63.6°F17.6°C 99% 3.3 mph E5.3 kmh E 5.4 mph8.7 kmh 28.97 in981.0 mb 0.01 in0.3 mm 0.00 in/hr0.0 mm/hr 0.07 in1.8 mm
06:18 AM 63.9°F17.7°C 63.6°F17.6°C 99% 3.2 mph E5.1 kmh E 5.4 mph8.7 kmh 28.97 in981.0 mb 0.01 in0.3 mm 0.00 in/hr0.0 mm/hr 0.07 in1.8 mm
06:17 AM 63.9°F17.7°C 63.6°F17.6°C 99% 3.2 mph E5.1 kmh E 5.4 mph8.7 kmh 28.97 in981.0 mb 0.01 in0.3 mm 0.00 in/hr0.0 mm/hr 0.07 in1.8 mm
06:16 AM 63.9°F17.7°C 63.6°F17.6°C 99% 3.2 mph ESE5.1 kmh ESE 5.4 mph8.7 kmh 28.97 in981.0 mb 0.01 in0.3 mm 0.00 in/hr0.0 mm/hr 0.07 in1.8 mm
06:15 AM 63.9°F17.7°C 63.6°F17.6°C 99% 3.1 mph E5.0 kmh E 5.4 mph8.7 kmh 28.97 in981.0 mb 0.01 in0.3 mm 0.00 in/hr0.0 mm/hr 0.07 in1.8 mm
06:14 AM 63.9°F17.7°C 63.6°F17.6°C 99% 3.2 mph E5.1 kmh E 5.4 mph8.7 kmh 28.97 in981.0 mb 0.01 in0.3 mm 0.00 in/hr0.0 mm/hr 0.07 in1.8 mm
06:13 AM 63.9°F17.7°C 63.6°F17.6°C 99% 3.2 mph E5.1 kmh E 5.4 mph8.7 kmh 28.97 in981.0 mb 0.01 in0.3 mm 0.00 in/hr0.0 mm/hr 0.07 in1.8 mm
06:12 AM 63.7°F17.6°C 63.4°F17.4°C 99% 3.0 mph E4.8 kmh E 4.5 mph7.2 kmh 28.97 in981.0 mb 0.01 in0.3 mm 0.00 in/hr0.0 mm/hr 0.07 in1.8 mm
06:11 AM 63.7°F17.6°C 63.4°F17.4°C 99% 3.0 mph E4.8 kmh E 4.5 mph7.2 kmh 28.97 in981.0 mb 0.01 in0.3 mm 0.00 in/hr0.0 mm/hr 0.07 in1.8 mm
06:10 AM 63.7°F17.6°C 63.4°F17.4°C 99% 3.0 mph E4.8 kmh E 4.5 mph7.2 kmh 28.97 in981.0 mb 0.01 in0.3 mm 0.00 in/hr0.0 mm/hr 0.07 in1.8 mm
06:09 AM 63.7°F17.6°C 63.4°F17.4°C 99% 3.0 mph ESE4.8 kmh ESE 5.4 mph8.7 kmh 28.97 in981.0 mb 0.01 in0.3 mm 0.00 in/hr0.0 mm/hr 0.07 in1.8 mm
06:08 AM 63.7°F17.6°C 63.4°F17.4°C 99% 3.1 mph SE5.0 kmh SE 5.4 mph8.7 kmh 28.96 in980.7 mb 0.01 in0.3 mm 0.00 in/hr0.0 mm/hr 0.07 in1.8 mm
06:07 AM 63.7°F17.6°C 63.4°F17.4°C 99% 3.0 mph SE4.8 kmh SE 5.4 mph8.7 kmh 28.96 in980.7 mb 0.01 in0.3 mm 0.00 in/hr0.0 mm/hr 0.07 in1.8 mm
06:06 AM 63.7°F17.6°C 63.4°F17.4°C 99% 3.1 mph ESE5.0 kmh ESE 5.4 mph8.7 kmh 28.96 in980.7 mb 0.01 in0.3 mm 0.00 in/hr0.0 mm/hr 0.07 in1.8 mm
06:05 AM 63.7°F17.6°C 63.4°F17.4°C 99% 3.2 mph SE5.1 kmh SE 5.4 mph8.7 kmh 28.96 in980.7 mb 0.01 in0.3 mm 0.00 in/hr0.0 mm/hr 0.07 in1.8 mm
06:04 AM 63.7°F17.6°C 63.4°F17.4°C 99% 3.2 mph SE5.1 kmh SE 5.4 mph8.7 kmh 28.96 in980.7 mb 0.01 in0.3 mm 0.00 in/hr0.0 mm/hr 0.07 in1.8 mm
06:03 AM 63.7°F17.6°C 63.4°F17.4°C 99% 3.2 mph SE5.1 kmh SE 5.4 mph8.7 kmh 28.96 in980.7 mb 0.01 in0.3 mm 0.00 in/hr0.0 mm/hr 0.07 in1.8 mm
06:02 AM 63.7°F17.6°C 63.4°F17.4°C 99% 3.4 mph SE5.5 kmh SE 5.4 mph8.7 kmh 28.96 in980.7 mb 0.01 in0.3 mm 0.00 in/hr0.0 mm/hr 0.07 in1.8 mm
06:01 AM 63.5°F17.5°C 63.2°F17.3°C 99% 3.5 mph SE5.6 kmh SE 5.4 mph8.7 kmh 28.96 in980.7 mb 0.01 in0.3 mm 0.00 in/hr0.0 mm/hr 0.07 in1.8 mm
06:00 AM 63.7°F17.6°C 63.4°F17.4°C 99% 3.5 mph SSE5.6 kmh SSE 5.4 mph8.7 kmh 28.96 in980.7 mb 0.01 in0.3 mm 0.00 in/hr0.0 mm/hr 0.07 in1.8 mm
05:59 AM 63.5°F17.5°C 63.2°F17.3°C 99% 3.3 mph SSE5.3 kmh SSE 5.4 mph8.7 kmh 28.96 in980.7 mb 0.01 in0.3 mm 0.00 in/hr0.0 mm/hr 0.07 in1.8 mm
05:58 AM 63.5°F17.5°C 63.2°F17.3°C 99% 3.1 mph SSE5.0 kmh SSE 4.5 mph7.2 kmh 28.96 in980.7 mb 0.01 in0.3 mm 0.00 in/hr0.0 mm/hr 0.07 in1.8 mm
05:57 AM 63.5°F17.5°C 63.2°F17.3°C 99% 3.0 mph SSE4.8 kmh SSE 4.5 mph7.2 kmh 28.96 in980.7 mb 0.01 in0.3 mm 0.00 in/hr0.0 mm/hr 0.07 in1.8 mm
05:56 AM 63.5°F17.5°C 63.2°F17.3°C 99% 3.0 mph SSE4.8 kmh SSE 4.5 mph7.2 kmh 28.96 in980.7 mb 0.01 in0.3 mm 0.00 in/hr0.0 mm/hr 0.07 in1.8 mm
05:55 AM 63.5°F17.5°C 63.2°F17.3°C 99% 2.9 mph S4.7 kmh S 3.8 mph6.1 kmh 28.96 in980.7 mb 0.01 in0.3 mm 0.00 in/hr0.0 mm/hr 0.07 in1.8 mm
05:54 AM 63.5°F17.5°C 63.2°F17.3°C 99% 3.0 mph SSE4.8 kmh SSE 5.4 mph8.7 kmh 28.96 in980.7 mb 0.01 in0.3 mm 0.00 in/hr0.0 mm/hr 0.07 in1.8 mm
05:53 AM 63.5°F17.5°C 63.2°F17.3°C 99% 3.1 mph SSE5.0 kmh SSE 5.4 mph8.7 kmh 28.96 in980.7 mb 0.01 in0.3 mm 0.00 in/hr0.0 mm/hr 0.07 in1.8 mm
05:52 AM 63.5°F17.5°C 63.2°F17.3°C 99% 3.2 mph SSE5.1 kmh SSE 6.0 mph9.7 kmh 28.96 in980.7 mb 0.01 in0.3 mm 0.60 in/hr15.2 mm/hr 0.07 in1.8 mm
05:51 AM 63.5°F17.5°C 63.2°F17.3°C 99% 3.4 mph SE5.5 kmh SE 6.0 mph9.7 kmh 28.95 in980.4 mb 0.00 in0.0 mm 0.00 in/hr0.0 mm/hr 0.06 in1.5 mm
05:50 AM 63.5°F17.5°C 63.2°F17.3°C 99% 3.6 mph SE5.8 kmh SE 6.0 mph9.7 kmh 28.95 in980.4 mb 0.00 in0.0 mm 0.00 in/hr0.0 mm/hr 0.06 in1.5 mm
05:49 AM 63.5°F17.5°C 63.2°F17.3°C 99% 3.7 mph SE6.0 kmh SE 6.0 mph9.7 kmh 28.96 in980.7 mb 0.00 in0.0 mm 0.00 in/hr0.0 mm/hr 0.06 in1.5 mm
05:48 AM 63.5°F17.5°C 63.2°F17.3°C 99% 3.8 mph SE6.1 kmh SE 6.0 mph9.7 kmh 28.96 in980.7 mb 0.00 in0.0 mm 0.00 in/hr0.0 mm/hr 0.06 in1.5 mm
05:47 AM 63.5°F17.5°C 63.2°F17.3°C 99% 4.0 mph SE6.4 kmh SE 6.0 mph9.7 kmh 28.96 in980.7 mb 0.00 in0.0 mm 0.00 in/hr0.0 mm/hr 0.06 in1.5 mm
05:46 AM 63.5°F17.5°C 63.2°F17.3°C 99% 4.0 mph ESE6.4 kmh ESE 6.0 mph9.7 kmh 28.96 in980.7 mb 0.00 in0.0 mm 0.00 in/hr0.0 mm/hr 0.06 in1.5 mm
05:45 AM 63.5°F17.5°C 63.2°F17.3°C 99% 4.0 mph ESE6.4 kmh ESE 6.0 mph9.7 kmh 28.96 in980.7 mb 0.00 in0.0 mm 0.00 in/hr0.0 mm/hr 0.06 in1.5 mm
05:44 AM 63.5°F17.5°C 63.2°F17.3°C 99% 3.9 mph E6.3 kmh E 6.0 mph9.7 kmh 28.96 in980.7 mb 0.00 in0.0 mm 0.00 in/hr0.0 mm/hr 0.06 in1.5 mm
05:43 AM 63.7°F17.6°C 63.4°F17.4°C 99% 3.8 mph E6.1 kmh E 6.0 mph9.7 kmh 28.96 in980.7 mb 0.00 in0.0 mm 0.00 in/hr0.0 mm/hr 0.06 in1.5 mm
05:42 AM 63.5°F17.5°C 63.2°F17.3°C 99% 3.6 mph E5.8 kmh E 6.0 mph9.7 kmh 28.97 in981.0 mb 0.00 in0.0 mm 0.00 in/hr0.0 mm/hr 0.06 in1.5 mm
05:41 AM 63.5°F17.5°C 63.2°F17.3°C 99% 3.5 mph E5.6 kmh E 5.4 mph8.7 kmh 28.97 in981.0 mb 0.00 in0.0 mm 0.00 in/hr0.0 mm/hr 0.06 in1.5 mm
05:40 AM 63.5°F17.5°C 63.2°F17.3°C 99% 3.4 mph E5.5 kmh E 5.4 mph8.7 kmh 28.96 in980.7 mb 0.00 in0.0 mm 0.00 in/hr0.0 mm/hr 0.06 in1.5 mm
05:39 AM 63.5°F17.5°C 63.2°F17.3°C 99% 3.5 mph E5.6 kmh E 5.4 mph8.7 kmh 28.96 in980.7 mb 0.01 in0.3 mm 0.00 in/hr0.0 mm/hr 0.06 in1.5 mm
05:38 AM 63.5°F17.5°C 63.2°F17.3°C 99% 3.8 mph E6.1 kmh E 6.0 mph9.7 kmh 28.96 in980.7 mb 0.01 in0.3 mm 0.00 in/hr0.0 mm/hr 0.06 in1.5 mm
05:37 AM 63.5°F17.5°C 63.2°F17.3°C 99% 3.5 mph E5.6 kmh E 6.0 mph9.7 kmh 28.96 in980.7 mb 0.01 in0.3 mm 0.00 in/hr0.0 mm/hr 0.06 in1.5 mm
05:36 AM 63.5°F17.5°C 63.2°F17.3°C 99% 3.6 mph E5.8 kmh E 6.0 mph9.7 kmh 28.97 in981.0 mb 0.01 in0.3 mm 0.00 in/hr0.0 mm/hr 0.06 in1.5 mm
05:35 AM 63.5°F17.5°C 63.2°F17.3°C 99% 3.7 mph E6.0 kmh E 6.0 mph9.7 kmh 28.96 in980.7 mb 0.01 in0.3 mm 0.00 in/hr0.0 mm/hr 0.06 in1.5 mm
05:34 AM 63.5°F17.5°C 63.2°F17.3°C 99% 3.7 mph E6.0 kmh E 6.0 mph9.7 kmh 28.97 in981.0 mb 0.01 in0.3 mm 0.00 in/hr0.0 mm/hr 0.06 in1.5 mm
05:33 AM 63.5°F17.5°C 63.2°F17.3°C 99% 3.6 mph E5.8 kmh E 6.0 mph9.7 kmh 28.97 in981.0 mb 0.01 in0.3 mm 0.00 in/hr0.0 mm/hr 0.06 in1.5 mm
05:32 AM 63.5°F17.5°C 63.2°F17.3°C 99% 3.6 mph E5.8 kmh E 6.0 mph9.7 kmh 28.96 in980.7 mb 0.01 in0.3 mm 0.00 in/hr0.0 mm/hr 0.06 in1.5 mm
05:31 AM 63.5°F17.5°C 63.2°F17.3°C 99% 3.7 mph E6.0 kmh E 6.0 mph9.7 kmh 28.96 in980.7 mb 0.01 in0.3 mm 0.00 in/hr0.0 mm/hr 0.06 in1.5 mm
05:30 AM 63.5°F17.5°C 63.2°F17.3°C 99% 3.6 mph E5.8 kmh E 6.0 mph9.7 kmh 28.97 in981.0 mb 0.01 in0.3 mm 0.00 in/hr0.0 mm/hr 0.06 in1.5 mm
05:29 AM 63.5°F17.5°C 63.2°F17.3°C 99% 3.5 mph E5.6 kmh E 6.0 mph9.7 kmh 28.97 in981.0 mb 0.01 in0.3 mm 0.00 in/hr0.0 mm/hr 0.06 in1.5 mm
05:28 AM 63.5°F17.5°C 63.2°F17.3°C 99% 3.3 mph ESE5.3 kmh ESE 5.4 mph8.7 kmh 28.97 in981.0 mb 0.01 in0.3 mm 0.00 in/hr0.0 mm/hr 0.06 in1.5 mm
05:27 AM 63.5°F17.5°C 63.2°F17.3°C 99% 3.5 mph ESE5.6 kmh ESE 5.4 mph8.7 kmh 28.97 in981.0 mb 0.01 in0.3 mm 0.00 in/hr0.0 mm/hr 0.06 in1.5 mm
05:26 AM 63.7°F17.6°C 63.4°F17.4°C 99% 3.7 mph ESE6.0 kmh ESE 5.4 mph8.7 kmh 28.97 in981.0 mb 0.01 in0.3 mm 0.00 in/hr0.0 mm/hr 0.06 in1.5 mm
05:25 AM 63.5°F17.5°C 63.2°F17.3°C 99% 3.5 mph E5.6 kmh E 5.4 mph8.7 kmh 28.97 in981.0 mb 0.01 in0.3 mm 0.00 in/hr0.0 mm/hr 0.06 in1.5 mm
05:24 AM 63.7°F17.6°C 63.4°F17.4°C 99% 3.6 mph ESE5.8 kmh ESE 5.4 mph8.7 kmh 28.97 in981.0 mb 0.01 in0.3 mm 0.00 in/hr0.0 mm/hr 0.06 in1.5 mm
05:23 AM 63.7°F17.6°C 63.4°F17.4°C 99% 3.8 mph ESE6.1 kmh ESE 5.4 mph8.7 kmh 28.96 in980.7 mb 0.01 in0.3 mm 0.00 in/hr0.0 mm/hr 0.06 in1.5 mm
05:22 AM 63.7°F17.6°C 63.4°F17.4°C 99% 4.0 mph ESE6.4 kmh ESE 6.0 mph9.7 kmh 28.97 in981.0 mb 0.01 in0.3 mm 0.00 in/hr0.0 mm/hr 0.06 in1.5 mm
05:21 AM 63.5°F17.5°C 63.2°F17.3°C 99% 4.0 mph SE6.4 kmh SE 6.0 mph9.7 kmh 28.97 in981.0 mb 0.01 in0.3 mm 0.00 in/hr0.0 mm/hr 0.06 in1.5 mm
05:20 AM 63.7°F17.6°C 63.4°F17.4°C 99% 4.1 mph ESE6.6 kmh ESE 6.0 mph9.7 kmh 28.97 in981.0 mb 0.01 in0.3 mm 0.00 in/hr0.0 mm/hr 0.06 in1.5 mm
05:19 AM 63.7°F17.6°C 63.4°F17.4°C 99% 4.2 mph ESE6.8 kmh ESE 6.0 mph9.7 kmh 28.97 in981.0 mb 0.01 in0.3 mm 0.00 in/hr0.0 mm/hr 0.06 in1.5 mm
05:18 AM 63.7°F17.6°C 63.4°F17.4°C 99% 4.4 mph ESE7.1 kmh ESE 6.0 mph9.7 kmh 28.97 in981.0 mb 0.01 in0.3 mm 0.00 in/hr0.0 mm/hr 0.06 in1.5 mm
05:17 AM 63.7°F17.6°C 63.4°F17.4°C 99% 4.3 mph ESE6.9 kmh ESE 6.0 mph9.7 kmh 28.97 in981.0 mb 0.02 in0.5 mm 0.00 in/hr0.0 mm/hr 0.06 in1.5 mm
05:16 AM 63.7°F17.6°C 63.4°F17.4°C 99% 4.3 mph SE6.9 kmh SE 6.0 mph9.7 kmh 28.97 in981.0 mb 0.02 in0.5 mm 0.00 in/hr0.0 mm/hr 0.06 in1.5 mm
05:15 AM 63.7°F17.6°C 63.4°F17.4°C 99% 4.4 mph SE7.1 kmh SE 6.0 mph9.7 kmh 28.97 in981.0 mb 0.02 in0.5 mm 0.00 in/hr0.0 mm/hr 0.06 in1.5 mm
05:14 AM 63.7°F17.6°C 63.4°F17.4°C 99% 4.5 mph SE7.2 kmh SE 6.0 mph9.7 kmh 28.97 in981.0 mb 0.02 in0.5 mm 0.00 in/hr0.0 mm/hr 0.06 in1.5 mm
05:13 AM 63.7°F17.6°C 63.4°F17.4°C 99% 4.4 mph SE7.1 kmh SE 6.9 mph11.1 kmh 28.97 in981.0 mb 0.02 in0.5 mm 0.00 in/hr0.0 mm/hr 0.06 in1.5 mm
05:12 AM 63.7°F17.6°C 63.4°F17.4°C 99% 4.4 mph SE7.1 kmh SE 6.9 mph11.1 kmh 28.97 in981.0 mb 0.02 in0.5 mm 0.00 in/hr0.0 mm/hr 0.06 in1.5 mm
05:11 AM 63.7°F17.6°C 63.4°F17.4°C 99% 4.3 mph SE6.9 kmh SE 6.9 mph11.1 kmh 28.98 in981.4 mb 0.02 in0.5 mm 0.00 in/hr0.0 mm/hr 0.06 in1.5 mm
05:10 AM 63.7°F17.6°C 63.4°F17.4°C 99% 4.3 mph SE6.9 kmh SE 6.9 mph11.1 kmh 28.97 in981.0 mb 0.02 in0.5 mm 0.00 in/hr0.0 mm/hr 0.06 in1.5 mm
05:09 AM 63.7°F17.6°C 63.4°F17.4°C 99% 4.1 mph SE6.6 kmh SE 6.9 mph11.1 kmh 28.97 in981.0 mb 0.02 in0.5 mm 0.00 in/hr0.0 mm/hr 0.06 in1.5 mm
05:08 AM 63.7°F17.6°C 63.4°F17.4°C 99% 4.0 mph SE6.4 kmh SE 6.9 mph11.1 kmh 28.97 in981.0 mb 0.02 in0.5 mm 0.00 in/hr0.0 mm/hr 0.06 in1.5 mm
05:07 AM 63.7°F17.6°C 63.4°F17.4°C 99% 3.9 mph SE6.3 kmh SE 6.9 mph11.1 kmh 28.97 in981.0 mb 0.02 in0.5 mm 0.00 in/hr0.0 mm/hr 0.06 in1.5 mm
05:06 AM 63.7°F17.6°C 63.4°F17.4°C 99% 3.8 mph SE6.1 kmh SE 6.9 mph11.1 kmh 28.97 in981.0 mb 0.02 in0.5 mm 0.00 in/hr0.0 mm/hr 0.06 in1.5 mm
05:05 AM 63.7°F17.6°C 63.4°F17.4°C 99% 3.7 mph SE6.0 kmh SE 6.9 mph11.1 kmh 28.97 in981.0 mb 0.02 in0.5 mm 0.00 in/hr0.0 mm/hr 0.06 in1.5 mm
05:04 AM 63.7°F17.6°C 63.4°F17.4°C 99% 3.7 mph SE6.0 kmh SE 6.9 mph11.1 kmh 28.97 in981.0 mb 0.02 in0.5 mm 0.00 in/hr0.0 mm/hr 0.06 in1.5 mm
05:03 AM 63.7°F17.6°C 63.4°F17.4°C 99% 3.7 mph SE6.0 kmh SE 6.9 mph11.1 kmh 28.97 in981.0 mb 0.02 in0.5 mm 0.00 in/hr0.0 mm/hr 0.06 in1.5 mm
05:02 AM 63.7°F17.6°C 63.4°F17.4°C 99% 3.5 mph SE5.6 kmh SE 4.5 mph7.2 kmh 28.97 in981.0 mb 0.02 in0.5 mm 0.00 in/hr0.0 mm/hr 0.06 in1.5 mm
05:01 AM 63.7°F17.6°C 63.4°F17.4°C 99% 3.6 mph SE5.8 kmh SE 4.5 mph7.2 kmh 28.97 in981.0 mb 0.02 in0.5 mm 0.00 in/hr0.0 mm/hr 0.06 in1.5 mm
05:00 AM 63.7°F17.6°C 63.4°F17.4°C 99% 3.6 mph SE5.8 kmh SE 4.5 mph7.2 kmh 28.97 in981.0 mb 0.02 in0.5 mm 0.00 in/hr0.0 mm/hr 0.06 in1.5 mm
04:59 AM 63.7°F17.6°C 63.4°F17.4°C 99% 3.6 mph SE5.8 kmh SE 4.5 mph7.2 kmh 28.96 in980.7 mb 0.02 in0.5 mm 0.00 in/hr0.0 mm/hr 0.06 in1.5 mm
04:58 AM 65.8°F18.8°C 65.6°F18.7°C 99% 3.6 mph SE5.8 kmh SE 4.5 mph7.2 kmh 28.96 in980.7 mb 0.02 in0.5 mm 0.00 in/hr0.0 mm/hr 0.06 in1.5 mm
04:57 AM 63.7°F17.6°C 63.4°F17.4°C 99% 3.7 mph SE6.0 kmh SE 4.5 mph7.2 kmh 28.96 in980.7 mb 0.02 in0.5 mm 0.00 in/hr0.0 mm/hr 0.06 in1.5 mm
04:56 AM 63.7°F17.6°C 63.4°F17.4°C 99% 3.7 mph SE6.0 kmh SE 4.5 mph7.2 kmh 28.96 in980.7 mb 0.02 in0.5 mm 0.00 in/hr0.0 mm/hr 0.06 in1.5 mm
04:55 AM 63.7°F17.6°C 63.4°F17.4°C 99% 3.8 mph SE6.1 kmh SE 4.5 mph7.2 kmh 28.96 in980.7 mb 0.04 in1.0 mm 0.00 in/hr0.0 mm/hr 0.06 in1.5 mm
04:54 AM 63.7°F17.6°C 63.4°F17.4°C 99% 4.0 mph ESE6.4 kmh ESE 6.0 mph9.7 kmh 28.97 in981.0 mb 0.04 in1.0 mm 0.00 in/hr0.0 mm/hr 0.06 in1.5 mm
04:53 AM 63.7°F17.6°C 63.4°F17.4°C 99% 4.2 mph ESE6.8 kmh ESE 7.6 mph12.2 kmh 28.97 in981.0 mb 0.04 in1.0 mm 0.00 in/hr0.0 mm/hr 0.06 in1.5 mm
04:52 AM 63.7°F17.6°C 63.4°F17.4°C 99% 4.5 mph E7.2 kmh E 7.6 mph12.2 kmh 28.97 in981.0 mb 0.04 in1.0 mm 0.00 in/hr0.0 mm/hr 0.06 in1.5 mm
04:51 AM 63.7°F17.6°C 63.4°F17.4°C 99% 4.6 mph E7.4 kmh E 7.6 mph12.2 kmh 28.97 in981.0 mb 0.04 in1.0 mm 0.00 in/hr0.0 mm/hr 0.06 in1.5 mm
04:50 AM 63.7°F17.6°C 63.4°F17.4°C 99% 4.5 mph E7.2 kmh E 7.6 mph12.2 kmh 28.96 in980.7 mb 0.04 in1.0 mm 0.00 in/hr0.0 mm/hr 0.06 in1.5 mm
04:49 AM 63.7°F17.6°C 63.4°F17.4°C 99% 4.5 mph E7.2 kmh E 7.6 mph12.2 kmh 28.96 in980.7 mb 0.04 in1.0 mm 0.00 in/hr0.0 mm/hr 0.06 in1.5 mm
04:48 AM 63.7°F17.6°C 63.4°F17.4°C 99% 4.7 mph E7.6 kmh E 7.6 mph12.2 kmh 28.96 in980.7 mb 0.04 in1.0 mm 0.00 in/hr0.0 mm/hr 0.06 in1.5 mm
04:47 AM 63.7°F17.6°C 63.4°F17.4°C 99% 4.7 mph E7.6 kmh E 7.6 mph12.2 kmh 28.96 in980.7 mb 0.04 in1.0 mm 0.00 in/hr0.0 mm/hr 0.06 in1.5 mm
04:46 AM 63.7°F17.6°C 63.4°F17.4°C 99% 4.6 mph E7.4 kmh E 7.6 mph12.2 kmh 28.96 in980.7 mb 0.04 in1.0 mm 0.00 in/hr0.0 mm/hr 0.06 in1.5 mm
04:45 AM 63.7°F17.6°C 63.4°F17.4°C 99% 4.8 mph E7.7 kmh E 7.6 mph12.2 kmh 28.96 in980.7 mb 0.04 in1.0 mm 0.00 in/hr0.0 mm/hr 0.06 in1.5 mm
04:44 AM 63.7°F17.6°C 63.4°F17.4°C 99% 4.8 mph E7.7 kmh E 7.6 mph12.2 kmh 28.96 in980.7 mb 0.04 in1.0 mm 0.00 in/hr0.0 mm/hr 0.06 in1.5 mm
04:43 AM 63.9°F17.7°C 63.6°F17.6°C 99% 4.5 mph E7.2 kmh E 7.6 mph12.2 kmh 28.96 in980.7 mb 0.04 in1.0 mm 0.00 in/hr0.0 mm/hr 0.06 in1.5 mm
04:42 AM 63.9°F17.7°C 63.6°F17.6°C 99% 4.2 mph ESE6.8 kmh ESE 6.9 mph11.1 kmh 28.96 in980.7 mb 0.04 in1.0 mm 0.00 in/hr0.0 mm/hr 0.06 in1.5 mm
04:41 AM 63.9°F17.7°C 63.6°F17.6°C 99% 4.1 mph ESE6.6 kmh ESE 6.9 mph11.1 kmh 28.96 in980.7 mb 0.04 in1.0 mm 1.20 in/hr30.5 mm/hr 0.06 in1.5 mm
04:40 AM 65.3°F18.5°C 65.0°F18.3°C 99% 4.3 mph ESE6.9 kmh ESE 6.9 mph11.1 kmh 28.96 in980.7 mb 0.02 in0.5 mm 0.00 in/hr0.0 mm/hr 0.05 in1.3 mm
04:39 AM 63.9°F17.7°C 63.6°F17.6°C 99% 4.4 mph SE7.1 kmh SE 6.9 mph11.1 kmh 28.96 in980.7 mb 0.02 in0.5 mm 0.00 in/hr0.0 mm/hr 0.05 in1.3 mm
04:38 AM 63.9°F17.7°C 63.6°F17.6°C 99% 4.2 mph SE6.8 kmh SE 6.9 mph11.1 kmh 28.96 in980.7 mb 0.02 in0.5 mm 0.00 in/hr0.0 mm/hr 0.05 in1.3 mm
04:37 AM 63.9°F17.7°C 63.6°F17.6°C 99% 4.3 mph SE6.9 kmh SE 7.6 mph12.2 kmh 28.96 in980.7 mb 0.02 in0.5 mm 0.00 in/hr0.0 mm/hr 0.05 in1.3 mm
04:36 AM 63.9°F17.7°C 63.6°F17.6°C 99% 4.8 mph SE7.7 kmh SE 7.6 mph12.2 kmh 28.96 in980.7 mb 0.02 in0.5 mm 0.00 in/hr0.0 mm/hr 0.05 in1.3 mm
04:35 AM 63.9°F17.7°C 63.6°F17.6°C 99% 5.0 mph SSE8.0 kmh SSE 7.6 mph12.2 kmh 28.96 in980.7 mb 0.02 in0.5 mm 0.00 in/hr0.0 mm/hr 0.05 in1.3 mm
04:34 AM 63.9°F17.7°C 63.6°F17.6°C 99% 5.2 mph SSE8.4 kmh SSE 7.6 mph12.2 kmh 28.96 in980.7 mb 0.02 in0.5 mm 0.00 in/hr0.0 mm/hr 0.05 in1.3 mm
04:33 AM 63.9°F17.7°C 63.6°F17.6°C 99% 5.6 mph SSE9.0 kmh SSE 7.6 mph12.2 kmh 28.96 in980.7 mb 0.02 in0.5 mm 0.00 in/hr0.0 mm/hr 0.05 in1.3 mm
04:32 AM 63.9°F17.7°C 63.6°F17.6°C 99% 6.0 mph S9.7 kmh S 7.6 mph12.2 kmh 28.96 in980.7 mb 0.02 in0.5 mm 0.00 in/hr0.0 mm/hr 0.05 in1.3 mm
04:31 AM 63.9°F17.7°C 63.6°F17.6°C 99% 6.4 mph S10.3 kmh S 7.6 mph12.2 kmh 28.96 in980.7 mb 0.02 in0.5 mm 0.00 in/hr0.0 mm/hr 0.05 in1.3 mm
04:30 AM 63.9°F17.7°C 63.6°F17.6°C 99% 6.8 mph S10.9 kmh S 7.6 mph12.2 kmh 28.96 in980.7 mb 0.02 in0.5 mm 0.00 in/hr0.0 mm/hr 0.05 in1.3 mm
04:29 AM 63.9°F17.7°C 63.6°F17.6°C 99% 7.1 mph S11.4 kmh S 7.6 mph12.2 kmh 28.95 in980.4 mb 0.02 in0.5 mm 0.00 in/hr0.0 mm/hr 0.05 in1.3 mm
04:28 AM 63.9°F17.7°C 63.6°F17.6°C 99% 6.9 mph S11.1 kmh S 7.6 mph12.2 kmh 28.95 in980.4 mb 0.02 in0.5 mm 0.00 in/hr0.0 mm/hr 0.05 in1.3 mm
04:27 AM 63.9°F17.7°C 63.6°F17.6°C 99% 6.9 mph S11.1 kmh S 7.6 mph12.2 kmh 28.96 in980.7 mb 0.02 in0.5 mm 0.00 in/hr0.0 mm/hr 0.05 in1.3 mm
04:26 AM 63.9°F17.7°C 63.6°F17.6°C 99% 6.7 mph S10.8 kmh S 7.6 mph12.2 kmh 28.96 in980.7 mb 0.02 in0.5 mm 0.00 in/hr0.0 mm/hr 0.05 in1.3 mm
04:25 AM 63.9°F17.7°C 63.6°F17.6°C 99% 6.6 mph S10.6 kmh S 7.6 mph12.2 kmh 28.96 in980.7 mb 0.02 in0.5 mm 0.00 in/hr0.0 mm/hr 0.05 in1.3 mm
04:24 AM 63.9°F17.7°C 63.6°F17.6°C 99% 6.3 mph SSE10.1 kmh SSE 7.6 mph12.2 kmh 28.96 in980.7 mb 0.02 in0.5 mm 0.00 in/hr0.0 mm/hr 0.05 in1.3 mm
04:23 AM 63.9°F17.7°C 63.6°F17.6°C 99% 6.0 mph SSE9.7 kmh SSE 7.6 mph12.2 kmh 28.95 in980.4 mb 0.02 in0.5 mm 0.00 in/hr0.0 mm/hr 0.05 in1.3 mm
04:22 AM 63.9°F17.7°C 63.6°F17.6°C 99% 5.7 mph SE9.2 kmh SE 7.6 mph12.2 kmh 28.96 in980.7 mb 0.02 in0.5 mm 0.00 in/hr0.0 mm/hr 0.05 in1.3 mm
04:21 AM 63.9°F17.7°C 63.6°F17.6°C 99% 5.4 mph SE8.7 kmh SE 7.6 mph12.2 kmh 28.96 in980.7 mb 0.02 in0.5 mm 0.00 in/hr0.0 mm/hr 0.05 in1.3 mm
04:20 AM 63.9°F17.7°C 63.6°F17.6°C 99% 5.2 mph SE8.4 kmh SE 7.6 mph12.2 kmh 28.96 in980.7 mb 0.02 in0.5 mm 0.00 in/hr0.0 mm/hr 0.05 in1.3 mm
04:19 AM 63.9°F17.7°C 63.6°F17.6°C 99% 4.8 mph ESE7.7 kmh ESE 6.9 mph11.1 kmh 28.96 in980.7 mb 0.02 in0.5 mm 0.00 in/hr0.0 mm/hr 0.05 in1.3 mm
04:18 AM 63.9°F17.7°C 63.6°F17.6°C 99% 4.8 mph ESE7.7 kmh ESE 6.9 mph11.1 kmh 28.96 in980.7 mb 0.02 in0.5 mm 0.60 in/hr15.2 mm/hr 0.05 in1.3 mm
04:17 AM 63.9°F17.7°C 63.6°F17.6°C 99% 4.9 mph ESE7.9 kmh ESE 6.9 mph11.1 kmh 28.96 in980.7 mb 0.01 in0.3 mm 0.00 in/hr0.0 mm/hr 0.04 in1.0 mm
04:16 AM 63.9°F17.7°C 63.6°F17.6°C 99% 4.9 mph ESE7.9 kmh ESE 6.9 mph11.1 kmh 28.96 in980.7 mb 0.01 in0.3 mm 0.00 in/hr0.0 mm/hr 0.04 in1.0 mm
04:15 AM 63.9°F17.7°C 63.6°F17.6°C 99% 4.8 mph ESE7.7 kmh ESE 6.9 mph11.1 kmh 28.96 in980.7 mb 0.01 in0.3 mm 0.00 in/hr0.0 mm/hr 0.04 in1.0 mm
04:14 AM 63.9°F17.7°C 63.6°F17.6°C 99% 4.6 mph ESE7.4 kmh ESE 6.9 mph11.1 kmh 28.96 in980.7 mb 0.01 in0.3 mm 0.00 in/hr0.0 mm/hr 0.04 in1.0 mm
04:13 AM 63.9°F17.7°C 63.6°F17.6°C 99% 4.6 mph E7.4 kmh E 6.9 mph11.1 kmh 28.96 in980.7 mb 0.01 in0.3 mm 0.00 in/hr0.0 mm/hr 0.04 in1.0 mm
04:12 AM 63.9°F17.7°C 63.6°F17.6°C 99% 4.5 mph E7.2 kmh E 6.9 mph11.1 kmh 28.96 in980.7 mb 0.01 in0.3 mm 0.00 in/hr0.0 mm/hr 0.04 in1.0 mm
04:11 AM 63.9°F17.7°C 63.6°F17.6°C 99% 4.4 mph E7.1 kmh E 6.9 mph11.1 kmh 28.96 in980.7 mb 0.01 in0.3 mm 0.00 in/hr0.0 mm/hr 0.04 in1.0 mm
04:10 AM 63.9°F17.7°C 63.6°F17.6°C 99% 4.2 mph E6.8 kmh E 6.9 mph11.1 kmh 28.96 in980.7 mb 0.01 in0.3 mm 0.00 in/hr0.0 mm/hr 0.04 in1.0 mm
04:09 AM 63.9°F17.7°C 63.6°F17.6°C 99% 4.2 mph E6.8 kmh E 6.9 mph11.1 kmh 28.96 in980.7 mb 0.01 in0.3 mm 0.00 in/hr0.0 mm/hr 0.04 in1.0 mm
04:08 AM 63.9°F17.7°C 63.6°F17.6°C 99% 4.2 mph E6.8 kmh E 6.9 mph11.1 kmh 28.96 in980.7 mb 0.01 in0.3 mm 0.00 in/hr0.0 mm/hr 0.04 in1.0 mm
04:07 AM 63.9°F17.7°C 63.6°F17.6°C 99% 3.9 mph E6.3 kmh E 6.9 mph11.1 kmh 28.96 in980.7 mb 0.01 in0.3 mm 0.00 in/hr0.0 mm/hr 0.04 in1.0 mm
04:06 AM 63.9°F17.7°C 63.6°F17.6°C 99% 3.4 mph E5.5 kmh E 6.9 mph11.1 kmh 28.95 in980.4 mb 0.01 in0.3 mm 0.00 in/hr0.0 mm/hr 0.04 in1.0 mm
04:05 AM 63.9°F17.7°C 63.6°F17.6°C 99% 3.2 mph E5.1 kmh E 4.5 mph7.2 kmh 28.95 in980.4 mb 0.01 in0.3 mm 0.00 in/hr0.0 mm/hr 0.04 in1.0 mm
04:04 AM 63.9°F17.7°C 63.6°F17.6°C 99% 3.3 mph E5.3 kmh E 5.4 mph8.7 kmh 28.96 in980.7 mb 0.01 in0.3 mm 0.00 in/hr0.0 mm/hr 0.04 in1.0 mm
04:03 AM 63.9°F17.7°C 63.6°F17.6°C 99% 3.3 mph E5.3 kmh E 5.4 mph8.7 kmh 28.96 in980.7 mb 0.01 in0.3 mm 0.00 in/hr0.0 mm/hr 0.04 in1.0 mm
04:02 AM 63.9°F17.7°C 63.6°F17.6°C 99% 3.5 mph E5.6 kmh E 7.6 mph12.2 kmh 28.95 in980.4 mb 0.01 in0.3 mm 0.00 in/hr0.0 mm/hr 0.04 in1.0 mm
04:01 AM 63.9°F17.7°C 63.6°F17.6°C 99% 3.5 mph E5.6 kmh E 7.6 mph12.2 kmh 28.95 in980.4 mb 0.01 in0.3 mm 0.00 in/hr0.0 mm/hr 0.04 in1.0 mm
04:00 AM 63.9°F17.7°C 63.6°F17.6°C 99% 3.4 mph E5.5 kmh E 7.6 mph12.2 kmh 28.95 in980.4 mb 0.01 in0.3 mm 0.00 in/hr0.0 mm/hr 0.04 in1.0 mm
03:59 AM 63.9°F17.7°C 63.6°F17.6°C 99% 3.5 mph E5.6 kmh E 7.6 mph12.2 kmh 28.95 in980.4 mb 0.01 in0.3 mm 0.00 in/hr0.0 mm/hr 0.04 in1.0 mm
03:58 AM 63.9°F17.7°C 63.6°F17.6°C 99% 4.0 mph E6.4 kmh E 9.2 mph14.8 kmh 28.95 in980.4 mb 0.01 in0.3 mm 0.00 in/hr0.0 mm/hr 0.04 in1.0 mm
03:57 AM 63.9°F17.7°C 63.6°F17.6°C 99% 4.4 mph ESE7.1 kmh ESE 9.2 mph14.8 kmh 28.95 in980.4 mb 0.01 in0.3 mm 0.60 in/hr15.2 mm/hr 0.04 in1.0 mm
03:56 AM 63.9°F17.7°C 63.6°F17.6°C 99% 4.8 mph ESE7.7 kmh ESE 9.2 mph14.8 kmh 28.95 in980.4 mb 0.00 in0.0 mm 0.00 in/hr0.0 mm/hr 0.02 in0.5 mm
03:55 AM 63.9°F17.7°C 63.6°F17.6°C 99% 5.1 mph ESE8.2 kmh ESE 9.2 mph14.8 kmh 28.96 in980.7 mb 0.00 in0.0 mm 0.00 in/hr0.0 mm/hr 0.02 in0.5 mm
03:54 AM 63.9°F17.7°C 63.6°F17.6°C 99% 5.1 mph ESE8.2 kmh ESE 9.2 mph14.8 kmh 28.95 in980.4 mb 0.00 in0.0 mm 0.00 in/hr0.0 mm/hr 0.02 in0.5 mm
03:53 AM 63.9°F17.7°C 63.6°F17.6°C 99% 5.1 mph ESE8.2 kmh ESE 9.2 mph14.8 kmh 28.96 in980.7 mb 0.00 in0.0 mm 0.00 in/hr0.0 mm/hr 0.02 in0.5 mm
03:52 AM 63.9°F17.7°C 63.6°F17.6°C 99% 4.9 mph E7.9 kmh E 9.2 mph14.8 kmh 28.96 in980.7 mb 0.00 in0.0 mm 0.00 in/hr0.0 mm/hr 0.02 in0.5 mm
03:51 AM 63.9°F17.7°C 63.6°F17.6°C 99% 5.3 mph ESE8.5 kmh ESE 9.2 mph14.8 kmh 28.96 in980.7 mb 0.01 in0.3 mm 0.00 in/hr0.0 mm/hr 0.02 in0.5 mm
03:50 AM 63.9°F17.7°C 63.6°F17.6°C 99% 5.4 mph ESE8.7 kmh ESE 9.2 mph14.8 kmh 28.96 in980.7 mb 0.01 in0.3 mm 0.00 in/hr0.0 mm/hr 0.02 in0.5 mm
03:49 AM 63.9°F17.7°C 63.6°F17.6°C 99% 5.7 mph ESE9.2 kmh ESE 9.2 mph14.8 kmh 28.96 in980.7 mb 0.01 in0.3 mm 0.00 in/hr0.0 mm/hr 0.02 in0.5 mm
03:48 AM 63.9°F17.7°C 63.6°F17.6°C 99% 5.3 mph E8.5 kmh E 7.6 mph12.2 kmh 28.96 in980.7 mb 0.01 in0.3 mm 0.00 in/hr0.0 mm/hr 0.02 in0.5 mm
03:47 AM 63.9°F17.7°C 63.6°F17.6°C 99% 5.2 mph E8.4 kmh E 7.6 mph12.2 kmh 28.96 in980.7 mb 0.01 in0.3 mm 0.00 in/hr0.0 mm/hr 0.02 in0.5 mm
03:46 AM 63.9°F17.7°C 63.6°F17.6°C 99% 5.1 mph E8.2 kmh E 7.6 mph12.2 kmh 28.96 in980.7 mb 0.01 in0.3 mm 0.00 in/hr0.0 mm/hr 0.02 in0.5 mm
03:45 AM 64.0°F17.8°C 63.8°F17.7°C 99% 5.0 mph ESE8.0 kmh ESE 7.6 mph12.2 kmh 28.96 in980.7 mb 0.01 in0.3 mm 0.00 in/hr0.0 mm/hr 0.02 in0.5 mm
03:44 AM 64.0°F17.8°C 63.8°F17.7°C 99% 5.0 mph E8.0 kmh E 7.6 mph12.2 kmh 28.96 in980.7 mb 0.01 in0.3 mm 0.00 in/hr0.0 mm/hr 0.02 in0.5 mm
03:43 AM 64.0°F17.8°C 63.8°F17.7°C 99% 5.2 mph ESE8.4 kmh ESE 7.6 mph12.2 kmh 28.96 in980.7 mb 0.01 in0.3 mm 0.00 in/hr0.0 mm/hr 0.02 in0.5 mm
03:42 AM 64.0°F17.8°C 63.8°F17.7°C 99% 5.3 mph ESE8.5 kmh ESE 7.6 mph12.2 kmh 28.95 in980.4 mb 0.01 in0.3 mm 0.00 in/hr0.0 mm/hr 0.02 in0.5 mm
03:41 AM 64.0°F17.8°C 63.8°F17.7°C 99% 5.1 mph ESE8.2 kmh ESE 7.6 mph12.2 kmh 28.96 in980.7 mb 0.01 in0.3 mm 0.00 in/hr0.0 mm/hr 0.02 in0.5 mm
03:40 AM 64.0°F17.8°C 63.8°F17.7°C 99% 5.0 mph ESE8.0 kmh ESE 7.6 mph12.2 kmh 28.95 in980.4 mb 0.01 in0.3 mm 0.00 in/hr0.0 mm/hr 0.02 in0.5 mm
03:39 AM 64.0°F17.8°C 63.8°F17.7°C 99% 4.9 mph ESE7.9 kmh ESE 7.6 mph12.2 kmh 28.95 in980.4 mb 0.01 in0.3 mm 0.00 in/hr0.0 mm/hr 0.02 in0.5 mm
03:38 AM 64.0°F17.8°C 63.8°F17.7°C 99% 5.1 mph ESE8.2 kmh ESE 7.6 mph12.2 kmh 28.96 in980.7 mb 0.01 in0.3 mm 0.00 in/hr0.0 mm/hr 0.02 in0.5 mm
03:37 AM 64.0°F17.8°C 63.8°F17.7°C 99% 5.1 mph ESE8.2 kmh ESE 7.6 mph12.2 kmh 28.96 in980.7 mb 0.01 in0.3 mm 0.00 in/hr0.0 mm/hr 0.02 in0.5 mm
03:36 AM 64.0°F17.8°C 63.8°F17.7°C 99% 5.2 mph ESE8.4 kmh ESE 7.6 mph12.2 kmh 28.96 in980.7 mb 0.01 in0.3 mm 0.00 in/hr0.0 mm/hr 0.02 in0.5 mm
03:35 AM 64.0°F17.8°C 63.8°F17.7°C 99% 5.1 mph ESE8.2 kmh ESE 7.6 mph12.2 kmh 28.96 in980.7 mb 0.01 in0.3 mm 0.00 in/hr0.0 mm/hr 0.02 in0.5 mm
03:34 AM 64.0°F17.8°C 63.8°F17.7°C 99% 5.2 mph ESE8.4 kmh ESE 7.6 mph12.2 kmh 28.95 in980.4 mb 0.01 in0.3 mm 0.00 in/hr0.0 mm/hr 0.02 in0.5 mm
03:33 AM 64.0°F17.8°C 63.8°F17.7°C 99% 5.1 mph ESE8.2 kmh ESE 7.6 mph12.2 kmh 28.96 in980.7 mb 0.01 in0.3 mm 0.00 in/hr0.0 mm/hr 0.02 in0.5 mm
03:32 AM 64.0°F17.8°C 63.8°F17.7°C 99% 5.0 mph E8.0 kmh E 6.9 mph11.1 kmh 28.96 in980.7 mb 0.01 in0.3 mm 0.00 in/hr0.0 mm/hr 0.02 in0.5 mm
03:31 AM 64.0°F17.8°C 63.8°F17.7°C 99% 5.0 mph ESE8.0 kmh ESE 6.9 mph11.1 kmh 28.95 in980.4 mb 0.01 in0.3 mm 0.00 in/hr0.0 mm/hr 0.02 in0.5 mm
03:30 AM 64.0°F17.8°C 63.8°F17.7°C 99% 5.3 mph ESE8.5 kmh ESE 6.9 mph11.1 kmh 28.95 in980.4 mb 0.01 in0.3 mm 0.00 in/hr0.0 mm/hr 0.02 in0.5 mm
03:29 AM 64.0°F17.8°C 63.8°F17.7°C 99% 5.2 mph ESE8.4 kmh ESE 6.9 mph11.1 kmh 28.95 in980.4 mb 0.01 in0.3 mm 0.00 in/hr0.0 mm/hr 0.02 in0.5 mm
03:28 AM 64.0°F17.8°C 63.8°F17.7°C 99% 5.3 mph ESE8.5 kmh ESE 6.9 mph11.1 kmh 28.95 in980.4 mb 0.01 in0.3 mm 0.00 in/hr0.0 mm/hr 0.02 in0.5 mm
03:27 AM 64.0°F17.8°C 63.8°F17.7°C 99% 5.2 mph ESE8.4 kmh ESE 6.9 mph11.1 kmh 28.95 in980.4 mb 0.01 in0.3 mm 0.00 in/hr0.0 mm/hr 0.02 in0.5 mm
03:26 AM 64.0°F17.8°C 63.8°F17.7°C 99% 5.4 mph SE8.7 kmh SE 7.6 mph12.2 kmh 28.95 in980.4 mb 0.01 in0.3 mm 0.00 in/hr0.0 mm/hr 0.02 in0.5 mm
03:25 AM 64.0°F17.8°C 63.8°F17.7°C 99% 5.6 mph SE9.0 kmh SE 7.6 mph12.2 kmh 28.95 in980.4 mb 0.01 in0.3 mm 0.00 in/hr0.0 mm/hr 0.02 in0.5 mm
03:24 AM 64.0°F17.8°C 63.8°F17.7°C 99% 5.8 mph SE9.3 kmh SE 7.6 mph12.2 kmh 28.95 in980.4 mb 0.01 in0.3 mm 0.00 in/hr0.0 mm/hr 0.02 in0.5 mm
03:23 AM 64.0°F17.8°C 63.8°F17.7°C 99% 5.7 mph SE9.2 kmh SE 7.6 mph12.2 kmh 28.95 in980.4 mb 0.01 in0.3 mm 0.00 in/hr0.0 mm/hr 0.02 in0.5 mm
03:22 AM 64.0°F17.8°C 63.8°F17.7°C 99% 5.8 mph SE9.3 kmh SE 7.6 mph12.2 kmh 28.95 in980.4 mb 0.01 in0.3 mm 0.00 in/hr0.0 mm/hr 0.02 in0.5 mm
03:21 AM 64.0°F17.8°C 63.8°F17.7°C 99% 5.7 mph SE9.2 kmh SE 7.6 mph12.2 kmh 28.95 in980.4 mb 0.01 in0.3 mm 0.00 in/hr0.0 mm/hr 0.02 in0.5 mm
03:20 AM 64.0°F17.8°C 63.8°F17.7°C 99% 5.6 mph ESE9.0 kmh ESE 7.6 mph12.2 kmh 28.95 in980.4 mb 0.01 in0.3 mm 0.00 in/hr0.0 mm/hr 0.02 in0.5 mm
03:19 AM 64.0°F17.8°C 63.8°F17.7°C 99% 5.6 mph ESE9.0 kmh ESE 7.6 mph12.2 kmh 28.95 in980.4 mb 0.01 in0.3 mm 0.00 in/hr0.0 mm/hr 0.02 in0.5 mm
03:18 AM 64.0°F17.8°C 63.8°F17.7°C 99% 5.7 mph E9.2 kmh E 7.6 mph12.2 kmh 28.95 in980.4 mb 0.01 in0.3 mm 0.00 in/hr0.0 mm/hr 0.02 in0.5 mm
03:17 AM 64.0°F17.8°C 63.8°F17.7°C 99% 5.7 mph E9.2 kmh E 7.6 mph12.2 kmh 28.95 in980.4 mb 0.01 in0.3 mm 0.00 in/hr0.0 mm/hr 0.02 in0.5 mm
03:16 AM 64.0°F17.8°C 63.8°F17.7°C 99% 5.6 mph E9.0 kmh E 7.6 mph12.2 kmh 28.96 in980.7 mb 0.01 in0.3 mm 0.00 in/hr0.0 mm/hr 0.02 in0.5 mm
03:15 AM 64.0°F17.8°C 63.8°F17.7°C 99% 5.5 mph E8.9 kmh E 7.6 mph12.2 kmh 28.96 in980.7 mb 0.01 in0.3 mm 0.00 in/hr0.0 mm/hr 0.02 in0.5 mm
03:14 AM 64.0°F17.8°C 63.8°F17.7°C 99% 5.5 mph ENE8.9 kmh ENE 7.6 mph12.2 kmh 28.95 in980.4 mb 0.01 in0.3 mm 0.00 in/hr0.0 mm/hr 0.02 in0.5 mm
03:13 AM 64.0°F17.8°C 63.8°F17.7°C 99% 5.7 mph ENE9.2 kmh ENE 7.6 mph12.2 kmh 28.96 in980.7 mb 0.01 in0.3 mm 0.00 in/hr0.0 mm/hr 0.02 in0.5 mm
03:12 AM 64.0°F17.8°C 63.8°F17.7°C 99% 5.7 mph ENE9.2 kmh ENE 7.6 mph12.2 kmh 28.95 in980.4 mb 0.01 in0.3 mm 0.00 in/hr0.0 mm/hr 0.02 in0.5 mm
03:11 AM 64.0°F17.8°C 63.8°F17.7°C 99% 5.8 mph ENE9.3 kmh ENE 7.6 mph12.2 kmh 28.95 in980.4 mb 0.01 in0.3 mm 0.00 in/hr0.0 mm/hr 0.02 in0.5 mm
03:10 AM 64.0°F17.8°C 63.8°F17.7°C 99% 6.1 mph E9.8 kmh E 9.2 mph14.8 kmh 28.95 in980.4 mb 0.01 in0.3 mm 0.00 in/hr0.0 mm/hr 0.02 in0.5 mm
03:09 AM 64.0°F17.8°C 63.8°F17.7°C 99% 6.3 mph E10.1 kmh E 9.8 mph15.8 kmh 28.95 in980.4 mb 0.01 in0.3 mm 0.00 in/hr0.0 mm/hr 0.02 in0.5 mm
03:08 AM 64.0°F17.8°C 63.8°F17.7°C 99% 6.3 mph E10.1 kmh E 9.8 mph15.8 kmh 28.95 in980.4 mb 0.01 in0.3 mm 0.00 in/hr0.0 mm/hr 0.02 in0.5 mm
03:07 AM 64.0°F17.8°C 63.8°F17.7°C 99% 6.5 mph E10.5 kmh E 9.8 mph15.8 kmh 28.95 in980.4 mb 0.01 in0.3 mm 0.00 in/hr0.0 mm/hr 0.02 in0.5 mm
03:06 AM 64.0°F17.8°C 63.8°F17.7°C 99% 6.3 mph ESE10.1 kmh ESE 9.8 mph15.8 kmh 28.95 in980.4 mb 0.01 in0.3 mm 0.00 in/hr0.0 mm/hr 0.02 in0.5 mm
03:05 AM 64.0°F17.8°C 63.8°F17.7°C 99% 6.1 mph ESE9.8 kmh ESE 9.8 mph15.8 kmh 28.95 in980.4 mb 0.01 in0.3 mm 0.00 in/hr0.0 mm/hr 0.02 in0.5 mm
03:04 AM 64.0°F17.8°C 63.8°F17.7°C 99% 5.8 mph SE9.3 kmh SE 9.8 mph15.8 kmh 28.95 in980.4 mb 0.01 in0.3 mm 0.00 in/hr0.0 mm/hr 0.02 in0.5 mm
03:03 AM 64.0°F17.8°C 63.8°F17.7°C 99% 5.6 mph SE9.0 kmh SE 9.8 mph15.8 kmh 28.95 in980.4 mb 0.01 in0.3 mm 0.00 in/hr0.0 mm/hr 0.02 in0.5 mm
03:02 AM 64.0°F17.8°C 63.8°F17.7°C 99% 5.8 mph SE9.3 kmh SE 9.8 mph15.8 kmh 28.95 in980.4 mb 0.01 in0.3 mm 0.00 in/hr0.0 mm/hr 0.02 in0.5 mm
03:01 AM 64.0°F17.8°C 63.8°F17.7°C 99% 5.5 mph SE8.9 kmh SE 9.8 mph15.8 kmh 28.95 in980.4 mb 0.01 in0.3 mm 0.00 in/hr0.0 mm/hr 0.02 in0.5 mm
03:00 AM 64.0°F17.8°C 63.8°F17.7°C 99% 5.1 mph SE8.2 kmh SE 9.8 mph15.8 kmh 28.95 in980.4 mb 0.01 in0.3 mm 0.00 in/hr0.0 mm/hr 0.02 in0.5 mm
02:59 AM 64.0°F17.8°C 63.8°F17.7°C 99% 5.4 mph SE8.7 kmh SE 10.7 mph17.2 kmh 28.95 in980.4 mb 0.01 in0.3 mm 0.00 in/hr0.0 mm/hr 0.02 in0.5 mm
02:58 AM 64.0°F17.8°C 63.8°F17.7°C 99% 5.6 mph SE9.0 kmh SE 10.7 mph